Darstellungsparameter: Aktuell verwendete Einstellungen:
Skalierung der Graphiken ... ?
xyx+y,   Skalierungsfaktor:      Skalierung: Modus: x, Faktor: 1
Darstellungszeitraum ... ?
Vom - - bis: - -   Zeitraum: 08.12.2013 - 07.06.2014
Min/Max/Avg-Anzeige ... ?
Zeige MMA aktuell
Zeige MMA Monat
Zeige MMA alles
Zeige --A aktuell
Zeige --A Monat
Zeige --A alles
Keine MMA-Anzeige
MMA:
Keine MMA-Graphiken
MMA-Basis: 08.12.2013 - 07.06.2014
Quicknavigation für Darstellung... ?
Tage:      1T, 2T, 3T, 5T -1T -2T -3T -5T +1T +2T +3T +5T
Wochen: 1W, 2W, 3W -1W -2W -3W +1W +2W +3W
Monate: 1M, 3M, 6M -1M -3M -6M +1M +3M +6M
Jahre:    1J, 3J, 5J, 10J -1J -3J -5J -10J +1J +3J +5J +10J
Nutze für die Darstellung ... ?
Originaldaten oder Mittelwerte auf ...
Stundenbasis Tagesbasis Wochenbasis
Monatsbasis Jahresbasis      Datenbasis: Original-Daten
Darstellen als:
Statistik (Auto) Statistik J:M      Darstellung:
Zur Graphik,    zurück zur Übersicht aller Sensoren.
 
Tabellarische Datenbersicht: ?
 
Sensor: Nr:Datum:Temp:Abs-Feuchte:Windchill:Wind:
Aussen-T/F 1 08-12-2013 00:00:00 6 C 6.39 g/m*3 3.92 C 9.7 km/h
2 08-12-2013 00:05:00 6 C 6.39 g/m*3 3.92 C 9.7 km/h
3 08-12-2013 00:10:00 5.9 C 6.35 g/m*3 3.8 C 9.7 km/h
4 08-12-2013 00:15:00 5.9 C 6.35 g/m*3 4.17 C 8.1 km/h
5 08-12-2013 00:20:00 5.9 C 6.27 g/m*3 4.17 C 8.1 km/h
6 08-12-2013 00:25:00 5.7 C 6.26 g/m*3 5.7 C 4.8 km/h
7 08-12-2013 00:30:00 5.7 C 6.26 g/m*3 3.93 C 8.1 km/h
8 08-12-2013 00:35:00 5.7 C 6.26 g/m*3 4.4 C 6.4 km/h
9 08-12-2013 00:40:00 5.7 C 6.26 g/m*3 4.4 C 6.4 km/h
10 08-12-2013 00:45:00 5.6 C 6.22 g/m*3 3.44 C 9.7 km/h
11 08-12-2013 00:50:00 5.6 C 6.22 g/m*3 4.29 C 6.4 km/h
12 08-12-2013 00:55:00 5.5 C 6.25 g/m*3 5.5 C 4.8 km/h
13 08-12-2013 01:00:00 5.6 C 6.29 g/m*3 4.29 C 6.4 km/h
14 08-12-2013 01:05:00 5.6 C 6.29 g/m*3 3.81 C 8.1 km/h
15 08-12-2013 01:10:00 5.5 C 6.25 g/m*3 4.17 C 6.4 km/h
16 08-12-2013 01:15:00 5.4 C 6.21 g/m*3 4.06 C 6.4 km/h
17 08-12-2013 01:20:00 5.4 C 6.21 g/m*3 5.4 C 4.8 km/h
18 08-12-2013 01:25:00 5.4 C 6.28 g/m*3 5.4 C 4.8 km/h
19 08-12-2013 01:30:00 5.5 C 6.32 g/m*3 3.7 C 8.1 km/h
20 08-12-2013 01:35:00 5.6 C 6.29 g/m*3 4.29 C 6.4 km/h
21 08-12-2013 01:40:00 5.6 C 6.29 g/m*3 4.29 C 6.4 km/h
22 08-12-2013 01:45:00 5.7 C 6.33 g/m*3 4.4 C 6.4 km/h
23 08-12-2013 01:50:00 5.6 C 6.29 g/m*3 4.29 C 6.4 km/h
24 08-12-2013 01:55:00 5.6 C 6.36 g/m*3 3.11 C 11.3 km/h
25 08-12-2013 02:00:00 5.7 C 6.4 g/m*3 3.23 C 11.3 km/h
Sensor: Nr:Datum:Temp:Abs-Feuchte:Windchill:Wind:
Aussen-T/F 26 08-12-2013 02:05:00 5.7 C 6.4 g/m*3 5.7 C 4.8 km/h
27 08-12-2013 02:10:00 5.7 C 6.4 g/m*3 5.7 C 4.8 km/h
28 08-12-2013 02:15:00 5.7 C 6.4 g/m*3 3.93 C 8.1 km/h
29 08-12-2013 02:20:00 5.8 C 6.45 g/m*3 4.52 C 6.4 km/h
30 08-12-2013 02:25:00 5.7 C 6.4 g/m*3 4.4 C 6.4 km/h
31 08-12-2013 02:30:00 5.6 C 6.36 g/m*3 5.6 C 3.2 km/h
32 08-12-2013 02:35:00 5.4 C 6.28 g/m*3 5.4 C 3.2 km/h
33 08-12-2013 02:40:00 5.4 C 6.35 g/m*3 5.4 C 3.2 km/h
34 08-12-2013 02:45:00 5.3 C 6.31 g/m*3 5.3 C 3.2 km/h
35 08-12-2013 02:50:00 5.2 C 6.27 g/m*3 5.2 C 3.2 km/h
36 08-12-2013 02:55:00 5.1 C 6.29 g/m*3 5.1 C 3.2 km/h
37 08-12-2013 03:00:00 5.2 C 6.33 g/m*3 5.2 C 4.8 km/h
38 08-12-2013 03:05:00 5.3 C 6.31 g/m*3 5.3 C 4.8 km/h
39 08-12-2013 03:10:00 5.5 C 6.39 g/m*3 3.7 C 8.1 km/h
40 08-12-2013 03:15:00 5.7 C 6.4 g/m*3 5.7 C 4.8 km/h
41 08-12-2013 03:20:00 5.8 C 6.45 g/m*3 4.05 C 8.1 km/h
42 08-12-2013 03:25:00 5.7 C 6.4 g/m*3 5.7 C 4.8 km/h
43 08-12-2013 03:30:00 5.7 C 6.33 g/m*3 5.7 C 4.8 km/h
44 08-12-2013 03:35:00 5.8 C 6.38 g/m*3 5.8 C 3.2 km/h
45 08-12-2013 03:40:00 5.8 C 6.38 g/m*3 3.68 C 9.7 km/h
46 08-12-2013 03:45:00 5.8 C 6.38 g/m*3 4.05 C 8.1 km/h
47 08-12-2013 03:50:00 5.8 C 6.3 g/m*3 5.8 C 4.8 km/h
48 08-12-2013 03:55:00 5.8 C 6.3 g/m*3 3.68 C 9.7 km/h
49 08-12-2013 04:00:00 5.9 C 6.35 g/m*3 5.9 C 4.8 km/h
50 08-12-2013 04:05:00 5.9 C 6.35 g/m*3 5.9 C 3.2 km/h
Sensor: Nr:Datum:Temp:Abs-Feuchte:Windchill:Wind:
Aussen-T/F 51 08-12-2013 04:10:00 5.8 C 6.3 g/m*3 5.8 C 3.2 km/h
52 08-12-2013 04:15:00 5.8 C 6.3 g/m*3 4.52 C 6.4 km/h
53 08-12-2013 04:20:00 5.8 C 6.3 g/m*3 4.05 C 8.1 km/h
54 08-12-2013 04:25:00 5.8 C 6.3 g/m*3 5.8 C 4.8 km/h
55 08-12-2013 04:30:00 5.8 C 6.3 g/m*3 5.8 C 1.6 km/h
56 08-12-2013 04:35:00 5.7 C 6.33 g/m*3 5.7 C 1.6 km/h
57 08-12-2013 04:40:00 5.6 C 6.29 g/m*3 5.6 C 0 km/h
58 08-12-2013 04:45:00 5.5 C 6.32 g/m*3 5.5 C 0 km/h
59 08-12-2013 04:50:00 5.4 C 6.28 g/m*3 5.4 C 4.8 km/h
60 08-12-2013 04:55:00 5.3 C 6.24 g/m*3 5.3 C 1.6 km/h
61 08-12-2013 05:00:00 5.3 C 6.31 g/m*3 5.3 C 0 km/h
62 08-12-2013 05:05:00 5.2 C 6.27 g/m*3 5.2 C 1.6 km/h
63 08-12-2013 05:10:00 5.2 C 6.27 g/m*3 5.2 C 4.8 km/h
64 08-12-2013 05:15:00 5.3 C 6.31 g/m*3 3.08 C 9.7 km/h
65 08-12-2013 05:20:00 5.5 C 6.32 g/m*3 4.17 C 6.4 km/h
66 08-12-2013 05:25:00 5.7 C 6.4 g/m*3 3.56 C 9.7 km/h
67 08-12-2013 05:30:00 5.8 C 6.38 g/m*3 4.52 C 6.4 km/h
68 08-12-2013 05:35:00 5.8 C 6.38 g/m*3 4.05 C 8.1 km/h
69 08-12-2013 05:40:00 5.9 C 6.42 g/m*3 4.63 C 6.4 km/h
70 08-12-2013 05:45:00 6 C 6.46 g/m*3 3.6 C 11.3 km/h
71 08-12-2013 05:50:00 6 C 6.46 g/m*3 6 C 4.8 km/h
72 08-12-2013 05:55:00 5.9 C 6.42 g/m*3 5.9 C 3.2 km/h
73 08-12-2013 06:00:00 5.8 C 6.45 g/m*3 5.8 C 3.2 km/h
74 08-12-2013 06:05:00 5.9 C 6.42 g/m*3 3.48 C 11.3 km/h
75 08-12-2013 06:10:00 6.1 C 6.5 g/m*3 4.4 C 8.1 km/h
Sensor: Nr:Datum:Temp:Abs-Feuchte:Windchill:Wind:
Aussen-T/F 76 08-12-2013 06:15:00 6.1 C 6.5 g/m*3 6.1 C 3.2 km/h
77 08-12-2013 06:20:00 6 C 6.53 g/m*3 6 C 4.8 km/h
78 08-12-2013 06:25:00 6 C 6.46 g/m*3 4.28 C 8.1 km/h
79 08-12-2013 06:30:00 6 C 6.46 g/m*3 4.75 C 6.4 km/h
80 08-12-2013 06:35:00 6 C 6.46 g/m*3 4.75 C 6.4 km/h
81 08-12-2013 06:40:00 6.1 C 6.5 g/m*3 4.4 C 8.1 km/h
82 08-12-2013 06:45:00 6.2 C 6.55 g/m*3 4.98 C 6.4 km/h
83 08-12-2013 06:50:00 6.2 C 6.55 g/m*3 4.98 C 6.4 km/h
84 08-12-2013 06:55:00 6.2 C 6.55 g/m*3 4.98 C 6.4 km/h
85 08-12-2013 07:00:00 6.1 C 6.5 g/m*3 6.1 C 4.8 km/h
86 08-12-2013 07:05:00 6.2 C 6.55 g/m*3 6.2 C 1.6 km/h
87 08-12-2013 07:10:00 6.1 C 6.5 g/m*3 4.04 C 9.7 km/h
88 08-12-2013 07:15:00 6.1 C 6.5 g/m*3 6.1 C 4.8 km/h
89 08-12-2013 07:20:00 6.1 C 6.5 g/m*3 4.04 C 9.7 km/h
90 08-12-2013 07:25:00 6.1 C 6.5 g/m*3 4.86 C 6.4 km/h
91 08-12-2013 07:30:00 6.1 C 6.5 g/m*3 4.4 C 8.1 km/h
92 08-12-2013 07:35:00 6.1 C 6.5 g/m*3 4.86 C 6.4 km/h
93 08-12-2013 07:40:00 6.1 C 6.5 g/m*3 4.04 C 9.7 km/h
94 08-12-2013 07:45:00 6.1 C 6.58 g/m*3 4.04 C 9.7 km/h
95 08-12-2013 07:50:00 6.1 C 6.58 g/m*3 3.72 C 11.3 km/h
96 08-12-2013 07:55:00 6.1 C 6.58 g/m*3 4.04 C 9.7 km/h
97 08-12-2013 08:00:00 6.1 C 6.58 g/m*3 2.95 C 16.1 km/h
98 08-12-2013 08:05:00 6.1 C 6.58 g/m*3 3.72 C 11.3 km/h
99 08-12-2013 08:10:00 6.1 C 6.65 g/m*3 3.43 C 12.9 km/h
100 08-12-2013 08:15:00 6 C 6.6 g/m*3 3.92 C 9.7 km/h
Sensor: Nr:Datum:Temp:Abs-Feuchte:Windchill:Wind:
Aussen-T/F 101 08-12-2013 08:20:00 6 C 6.6 g/m*3 3.92 C 9.7 km/h
102 08-12-2013 08:25:00 5.9 C 6.56 g/m*3 4.17 C 8.1 km/h
103 08-12-2013 08:30:00 6 C 6.6 g/m*3 4.75 C 6.4 km/h
104 08-12-2013 08:35:00 6.1 C 6.65 g/m*3 4.04 C 9.7 km/h
105 08-12-2013 08:40:00 6.1 C 6.65 g/m*3 3.72 C 11.3 km/h
106 08-12-2013 08:45:00 6.1 C 6.65 g/m*3 4.4 C 8.1 km/h
107 08-12-2013 08:50:00 6.1 C 6.65 g/m*3 4.86 C 6.4 km/h
108 08-12-2013 08:55:00 6.2 C 6.69 g/m*3 4.15 C 9.7 km/h
109 08-12-2013 09:00:00 6.2 C 6.69 g/m*3 3.84 C 11.3 km/h
110 08-12-2013 09:05:00 6.3 C 6.66 g/m*3 4.27 C 9.7 km/h
111 08-12-2013 09:10:00 6.4 C 6.63 g/m*3 4.08 C 11.3 km/h
112 08-12-2013 09:15:00 6.6 C 6.64 g/m*3 4.04 C 12.9 km/h
113 08-12-2013 09:20:00 6.7 C 6.69 g/m*3 5.11 C 8.1 km/h
114 08-12-2013 09:25:00 6.7 C 6.69 g/m*3 4.17 C 12.9 km/h
115 08-12-2013 09:30:00 6.7 C 6.76 g/m*3 4.17 C 12.9 km/h
116 08-12-2013 09:35:00 6.6 C 6.72 g/m*3 4.63 C 9.7 km/h
117 08-12-2013 09:40:00 6.6 C 6.64 g/m*3 4.63 C 9.7 km/h
118 08-12-2013 09:45:00 6.7 C 6.69 g/m*3 4.44 C 11.3 km/h
119 08-12-2013 09:50:00 6.7 C 6.69 g/m*3 4.17 C 12.9 km/h
120 08-12-2013 09:55:00 6.6 C 6.64 g/m*3 4.99 C 8.1 km/h
121 08-12-2013 10:00:00 6.6 C 6.72 g/m*3 4.63 C 9.7 km/h
122 08-12-2013 10:05:00 6.5 C 6.67 g/m*3 5.33 C 6.4 km/h
123 08-12-2013 10:10:00 6.4 C 6.63 g/m*3 4.75 C 8.1 km/h
124 08-12-2013 10:15:00 6.3 C 6.59 g/m*3 6.3 C 4.8 km/h
125 08-12-2013 10:20:00 6.4 C 6.71 g/m*3 5.21 C 6.4 km/h
Sensor: Nr:Datum:Temp:Abs-Feuchte:Windchill:Wind:
Aussen-T/F 126 08-12-2013 10:25:00 6.5 C 6.75 g/m*3 3.67 C 14.5 km/h
127 08-12-2013 10:30:00 6.7 C 6.76 g/m*3 4.17 C 12.9 km/h
128 08-12-2013 10:35:00 6.8 C 6.81 g/m*3 4.87 C 9.7 km/h
129 08-12-2013 10:40:00 7 C 6.82 g/m*3 5.11 C 9.7 km/h
130 08-12-2013 10:45:00 7.1 C 6.86 g/m*3 4.65 C 12.9 km/h
131 08-12-2013 10:50:00 7.2 C 6.91 g/m*3 5.04 C 11.3 km/h
132 08-12-2013 10:55:00 7.3 C 6.87 g/m*3 4.9 C 12.9 km/h
133 08-12-2013 11:00:00 7.4 C 6.92 g/m*3 5.28 C 11.3 km/h
134 08-12-2013 11:05:00 7.4 C 6.92 g/m*3 4.56 C 16.1 km/h
135 08-12-2013 11:10:00 7.6 C 6.93 g/m*3 5.02 C 14.5 km/h
136 08-12-2013 11:15:00 7.7 C 6.89 g/m*3 5.38 C 12.9 km/h
137 08-12-2013 11:20:00 7.7 C 6.89 g/m*3 6.28 C 8.1 km/h
138 08-12-2013 11:25:00 7.7 C 6.89 g/m*3 5.94 C 9.7 km/h
139 08-12-2013 11:30:00 7.8 C 7.02 g/m*3 5.51 C 12.9 km/h
140 08-12-2013 11:35:00 7.8 C 6.94 g/m*3 5.27 C 14.5 km/h
141 08-12-2013 11:40:00 7.7 C 6.97 g/m*3 4.93 C 16.1 km/h
142 08-12-2013 11:45:00 7.8 C 7.02 g/m*3 5.06 C 16.1 km/h
143 08-12-2013 11:50:00 7.8 C 7.02 g/m*3 5.27 C 14.5 km/h
144 08-12-2013 11:55:00 7.8 C 7.02 g/m*3 5.77 C 11.3 km/h
145 08-12-2013 12:00:00 7.8 C 7.02 g/m*3 6.06 C 9.7 km/h
146 08-12-2013 12:05:00 7.8 C 7.02 g/m*3 5.27 C 14.5 km/h
147 08-12-2013 12:10:00 7.8 C 7.02 g/m*3 6.06 C 9.7 km/h
148 08-12-2013 12:15:00 7.9 C 6.98 g/m*3 4.98 C 17.7 km/h
149 08-12-2013 12:20:00 7.9 C 6.98 g/m*3 5.18 C 16.1 km/h
150 08-12-2013 12:25:00 8 C 7.03 g/m*3 5.3 C 16.1 km/h
Sensor: Nr:Datum:Temp:Abs-Feuchte:Windchill:Wind:
Aussen-T/F 151 08-12-2013 12:30:00 8 C 7.03 g/m*3 5.75 C 12.9 km/h
152 08-12-2013 12:35:00 8 C 7.03 g/m*3 5.52 C 14.5 km/h
153 08-12-2013 12:40:00 8 C 7.03 g/m*3 5.52 C 14.5 km/h
154 08-12-2013 12:45:00 7.9 C 6.98 g/m*3 4.63 C 20.9 km/h
155 08-12-2013 12:50:00 7.9 C 6.98 g/m*3 5.39 C 14.5 km/h
156 08-12-2013 12:55:00 7.9 C 6.98 g/m*3 6.18 C 9.7 km/h
157 08-12-2013 13:00:00 7.8 C 6.94 g/m*3 5.27 C 14.5 km/h
158 08-12-2013 13:05:00 7.8 C 7.02 g/m*3 6.06 C 9.7 km/h
159 08-12-2013 13:10:00 7.8 C 7.02 g/m*3 5.77 C 11.3 km/h
160 08-12-2013 13:15:00 7.8 C 7.02 g/m*3 5.77 C 11.3 km/h
161 08-12-2013 13:20:00 7.8 C 7.02 g/m*3 6.4 C 8.1 km/h
162 08-12-2013 13:25:00 7.7 C 7.05 g/m*3 5.65 C 11.3 km/h
163 08-12-2013 13:30:00 7.7 C 7.05 g/m*3 5.65 C 11.3 km/h
164 08-12-2013 13:35:00 7.6 C 7.09 g/m*3 6.6 C 6.4 km/h
165 08-12-2013 13:40:00 7.6 C 7.09 g/m*3 6.6 C 6.4 km/h
166 08-12-2013 13:45:00 7.6 C 7.01 g/m*3 5.53 C 11.3 km/h
167 08-12-2013 13:50:00 7.7 C 7.05 g/m*3 5.15 C 14.5 km/h
168 08-12-2013 13:55:00 7.7 C 7.05 g/m*3 6.28 C 8.1 km/h
169 08-12-2013 14:00:00 7.7 C 7.05 g/m*3 5.65 C 11.3 km/h
170 08-12-2013 14:05:00 7.7 C 7.05 g/m*3 6.28 C 8.1 km/h
171 08-12-2013 14:10:00 7.7 C 7.14 g/m*3 5.94 C 9.7 km/h
172 08-12-2013 14:15:00 7.7 C 7.14 g/m*3 6.28 C 8.1 km/h
173 08-12-2013 14:20:00 7.7 C 7.14 g/m*3 5.65 C 11.3 km/h
174 08-12-2013 14:25:00 7.7 C 7.05 g/m*3 6.71 C 6.4 km/h
175 08-12-2013 14:30:00 7.7 C 7.05 g/m*3 6.71 C 6.4 km/h
Sensor: Nr:Datum:Temp:Abs-Feuchte:Windchill:Wind:
Aussen-T/F 176 08-12-2013 14:35:00 7.7 C 7.05 g/m*3 6.28 C 8.1 km/h
177 08-12-2013 14:40:00 7.7 C 6.97 g/m*3 5.38 C 12.9 km/h
178 08-12-2013 14:45:00 7.8 C 7.02 g/m*3 6.4 C 8.1 km/h
179 08-12-2013 14:50:00 7.9 C 6.98 g/m*3 5.18 C 16.1 km/h
180 08-12-2013 14:55:00 7.9 C 6.98 g/m*3 5.89 C 11.3 km/h
181 08-12-2013 15:00:00 7.9 C 6.98 g/m*3 5.89 C 11.3 km/h
182 08-12-2013 15:05:00 8 C 6.94 g/m*3 6.01 C 11.3 km/h
183 08-12-2013 15:10:00 8.1 C 6.99 g/m*3 5.64 C 14.5 km/h
184 08-12-2013 15:15:00 8.1 C 6.99 g/m*3 5.87 C 12.9 km/h
185 08-12-2013 15:20:00 8.2 C 7.03 g/m*3 5.55 C 16.1 km/h
186 08-12-2013 15:25:00 8.1 C 6.99 g/m*3 5.64 C 14.5 km/h
187 08-12-2013 15:30:00 8.1 C 6.99 g/m*3 5.64 C 14.5 km/h
188 08-12-2013 15:35:00 8.1 C 6.99 g/m*3 5.43 C 16.1 km/h
189 08-12-2013 15:40:00 8.1 C 6.99 g/m*3 6.75 C 8.1 km/h
190 08-12-2013 15:45:00 8.1 C 6.99 g/m*3 7.17 C 6.4 km/h
191 08-12-2013 15:50:00 8.1 C 6.99 g/m*3 5.64 C 14.5 km/h
192 08-12-2013 15:55:00 8 C 6.94 g/m*3 7.06 C 6.4 km/h
193 08-12-2013 16:00:00 8 C 7.03 g/m*3 5.52 C 14.5 km/h
194 08-12-2013 16:05:00 7.9 C 6.98 g/m*3 5.18 C 16.1 km/h
195 08-12-2013 16:10:00 7.8 C 6.94 g/m*3 5.06 C 16.1 km/h
196 08-12-2013 16:15:00 7.8 C 7.02 g/m*3 5.27 C 14.5 km/h
197 08-12-2013 16:20:00 7.8 C 7.02 g/m*3 6.06 C 9.7 km/h
198 08-12-2013 16:25:00 7.8 C 7.02 g/m*3 5.77 C 11.3 km/h
199 08-12-2013 16:30:00 7.7 C 6.97 g/m*3 5.15 C 14.5 km/h
200 08-12-2013 16:35:00 7.6 C 6.93 g/m*3 5.53 C 11.3 km/h
Sensor: Nr:Datum:Temp:Abs-Feuchte:Windchill:Wind:
Aussen-T/F 201 08-12-2013 16:40:00 7.5 C 6.88 g/m*3 5.41 C 11.3 km/h
202 08-12-2013 16:45:00 7.4 C 6.92 g/m*3 5.02 C 12.9 km/h
203 08-12-2013 16:50:00 7.4 C 6.92 g/m*3 5.28 C 11.3 km/h
204 08-12-2013 16:55:00 7.3 C 6.87 g/m*3 5.47 C 9.7 km/h
205 08-12-2013 17:00:00 7.3 C 6.87 g/m*3 5.16 C 11.3 km/h
206 08-12-2013 17:05:00 7.3 C 6.87 g/m*3 5.16 C 11.3 km/h
207 08-12-2013 17:10:00 7.3 C 6.87 g/m*3 4.66 C 14.5 km/h
208 08-12-2013 17:15:00 7.3 C 6.87 g/m*3 4.66 C 14.5 km/h
209 08-12-2013 17:20:00 7.2 C 6.91 g/m*3 5.04 C 11.3 km/h
210 08-12-2013 17:25:00 7.3 C 6.95 g/m*3 4.66 C 14.5 km/h
211 08-12-2013 17:30:00 7.3 C 6.95 g/m*3 4.44 C 16.1 km/h
212 08-12-2013 17:35:00 7.3 C 6.87 g/m*3 4.66 C 14.5 km/h
213 08-12-2013 17:40:00 7.4 C 6.92 g/m*3 4.78 C 14.5 km/h
214 08-12-2013 17:45:00 7.4 C 6.92 g/m*3 4.17 C 19.3 km/h
215 08-12-2013 17:50:00 7.4 C 6.92 g/m*3 5.28 C 11.3 km/h
216 08-12-2013 17:55:00 7.3 C 6.87 g/m*3 4.66 C 14.5 km/h
217 08-12-2013 18:00:00 7.3 C 6.87 g/m*3 5.47 C 9.7 km/h
218 08-12-2013 18:05:00 7.2 C 6.91 g/m*3 5.04 C 11.3 km/h
219 08-12-2013 18:10:00 7.3 C 6.95 g/m*3 4.66 C 14.5 km/h
220 08-12-2013 18:15:00 7.3 C 6.95 g/m*3 4.9 C 12.9 km/h
221 08-12-2013 18:20:00 7.3 C 6.95 g/m*3 4.44 C 16.1 km/h
222 08-12-2013 18:25:00 7.3 C 6.95 g/m*3 4.44 C 16.1 km/h
223 08-12-2013 18:30:00 7.3 C 6.95 g/m*3 4.9 C 12.9 km/h
224 08-12-2013 18:35:00 7.4 C 6.92 g/m*3 4.56 C 16.1 km/h
225 08-12-2013 18:40:00 7.4 C 6.92 g/m*3 4.36 C 17.7 km/h
Sensor: Nr:Datum:Temp:Abs-Feuchte:Windchill:Wind:
Aussen-T/F 226 08-12-2013 18:45:00 7.4 C 7 g/m*3 5.58 C 9.7 km/h
227 08-12-2013 18:50:00 7.4 C 7 g/m*3 5.02 C 12.9 km/h
228 08-12-2013 18:55:00 7.4 C 7 g/m*3 5.02 C 12.9 km/h
229 08-12-2013 19:00:00 7.5 C 7.04 g/m*3 4.9 C 14.5 km/h
230 08-12-2013 19:05:00 7.5 C 7.04 g/m*3 5.14 C 12.9 km/h
231 08-12-2013 19:10:00 7.4 C 7 g/m*3 5.02 C 12.9 km/h
232 08-12-2013 19:15:00 7.4 C 7 g/m*3 5.02 C 12.9 km/h
233 08-12-2013 19:20:00 7.4 C 7 g/m*3 5.02 C 12.9 km/h
234 08-12-2013 19:25:00 7.4 C 7 g/m*3 5.93 C 8.1 km/h
235 08-12-2013 19:30:00 7.4 C 7 g/m*3 6.37 C 6.4 km/h
236 08-12-2013 19:35:00 7.4 C 7 g/m*3 5.28 C 11.3 km/h
237 08-12-2013 19:40:00 7.3 C 6.95 g/m*3 6.25 C 6.4 km/h
238 08-12-2013 19:45:00 7.3 C 6.95 g/m*3 5.81 C 8.1 km/h
239 08-12-2013 19:50:00 7.3 C 6.95 g/m*3 5.16 C 11.3 km/h
240 08-12-2013 19:55:00 7.3 C 6.95 g/m*3 6.25 C 6.4 km/h
241 08-12-2013 20:00:00 7.3 C 6.95 g/m*3 4.66 C 14.5 km/h
242 08-12-2013 20:05:00 7.4 C 7 g/m*3 5.28 C 11.3 km/h
243 08-12-2013 20:10:00 7.5 C 6.96 g/m*3 5.14 C 12.9 km/h
244 08-12-2013 20:15:00 7.6 C 7.01 g/m*3 4.81 C 16.1 km/h
245 08-12-2013 20:20:00 7.7 C 6.97 g/m*3 4.93 C 16.1 km/h
246 08-12-2013 20:25:00 7.9 C 6.98 g/m*3 4.8 C 19.3 km/h
247 08-12-2013 20:30:00 7.9 C 6.98 g/m*3 5.63 C 12.9 km/h
248 08-12-2013 20:35:00 7.9 C 6.98 g/m*3 4.98 C 17.7 km/h
249 08-12-2013 20:40:00 8 C 6.94 g/m*3 4.76 C 20.9 km/h
250 08-12-2013 20:45:00 8 C 6.94 g/m*3 5.75 C 12.9 km/h
Sensor: Nr:Datum:Temp:Abs-Feuchte:Windchill:Wind:
Aussen-T/F 251 08-12-2013 20:50:00 8.1 C 6.99 g/m*3 5.43 C 16.1 km/h
252 08-12-2013 20:55:00 8.1 C 6.99 g/m*3 4.73 C 22.5 km/h
253 08-12-2013 21:00:00 8.1 C 6.99 g/m*3 4.73 C 22.5 km/h
254 08-12-2013 21:05:00 8.1 C 6.99 g/m*3 4.89 C 20.9 km/h
255 08-12-2013 21:10:00 8.2 C 6.95 g/m*3 5.76 C 14.5 km/h
256 08-12-2013 21:15:00 8.3 C 7 g/m*3 5.14 C 20.9 km/h
257 08-12-2013 21:20:00 8.3 C 6.91 g/m*3 4.84 C 24.1 km/h
258 08-12-2013 21:25:00 8.3 C 6.91 g/m*3 5.89 C 14.5 km/h
259 08-12-2013 21:30:00 8.3 C 7 g/m*3 5.89 C 14.5 km/h
260 08-12-2013 21:35:00 8.2 C 6.95 g/m*3 4.86 C 22.5 km/h
261 08-12-2013 21:40:00 8.2 C 6.95 g/m*3 5.36 C 17.7 km/h
262 08-12-2013 21:45:00 8.2 C 6.95 g/m*3 5.36 C 17.7 km/h
263 08-12-2013 21:50:00 8.2 C 6.95 g/m*3 5.36 C 17.7 km/h
264 08-12-2013 21:55:00 8.2 C 6.95 g/m*3 5.99 C 12.9 km/h
265 08-12-2013 22:00:00 8.1 C 6.91 g/m*3 5.05 C 19.3 km/h
266 08-12-2013 22:05:00 8.2 C 6.95 g/m*3 5.76 C 14.5 km/h
267 08-12-2013 22:10:00 8.1 C 6.91 g/m*3 5.64 C 14.5 km/h
268 08-12-2013 22:15:00 8.1 C 6.91 g/m*3 6.13 C 11.3 km/h
269 08-12-2013 22:20:00 8.2 C 6.95 g/m*3 4.71 C 24.1 km/h
270 08-12-2013 22:25:00 8.2 C 6.95 g/m*3 6.25 C 11.3 km/h
271 08-12-2013 22:30:00 8.2 C 6.95 g/m*3 5.55 C 16.1 km/h
272 08-12-2013 22:35:00 8.1 C 6.91 g/m*3 5.43 C 16.1 km/h
273 08-12-2013 22:40:00 8.2 C 6.95 g/m*3 5.55 C 16.1 km/h
274 08-12-2013 22:45:00 8.1 C 6.99 g/m*3 6.13 C 11.3 km/h
275 08-12-2013 22:50:00 7.9 C 6.9 g/m*3 5.63 C 12.9 km/h
Sensor: Nr:Datum:Temp:Abs-Feuchte:Windchill:Wind:
Aussen-T/F 276 08-12-2013 22:55:00 7.8 C 6.94 g/m*3 5.77 C 11.3 km/h
277 08-12-2013 23:00:00 7.8 C 6.94 g/m*3 6.4 C 8.1 km/h
278 08-12-2013 23:05:00 7.7 C 6.97 g/m*3 5.94 C 9.7 km/h
279 08-12-2013 23:10:00 7.7 C 6.97 g/m*3 5.38 C 12.9 km/h
280 08-12-2013 23:15:00 7.7 C 6.97 g/m*3 5.38 C 12.9 km/h
281 08-12-2013 23:20:00 7.7 C 6.97 g/m*3 5.15 C 14.5 km/h
282 08-12-2013 23:25:00 7.7 C 6.97 g/m*3 5.38 C 12.9 km/h
283 08-12-2013 23:30:00 7.8 C 6.94 g/m*3 5.27 C 14.5 km/h
284 08-12-2013 23:35:00 7.9 C 6.98 g/m*3 5.39 C 14.5 km/h
285 08-12-2013 23:40:00 8 C 6.94 g/m*3 5.11 C 17.7 km/h
286 08-12-2013 23:45:00 8.1 C 6.99 g/m*3 5.43 C 16.1 km/h
287 08-12-2013 23:50:00 8.1 C 6.99 g/m*3 5.23 C 17.7 km/h
288 08-12-2013 23:55:00 8.1 C 6.99 g/m*3 5.64 C 14.5 km/h
289 09-12-2013 00:00:00 8 C 7.03 g/m*3 6.3 C 9.7 km/h
290 09-12-2013 00:05:00 7.9 C 6.98 g/m*3 6.94 C 6.4 km/h
291 09-12-2013 00:10:00 7.8 C 6.94 g/m*3 5.27 C 14.5 km/h
292 09-12-2013 00:15:00 7.8 C 6.94 g/m*3 5.51 C 12.9 km/h
293 09-12-2013 00:20:00 7.8 C 6.94 g/m*3 5.27 C 14.5 km/h
294 09-12-2013 00:25:00 7.9 C 6.98 g/m*3 5.63 C 12.9 km/h
295 09-12-2013 00:30:00 7.9 C 6.98 g/m*3 5.89 C 11.3 km/h
296 09-12-2013 00:35:00 7.9 C 6.98 g/m*3 4.98 C 17.7 km/h
297 09-12-2013 00:40:00 7.9 C 6.98 g/m*3 5.39 C 14.5 km/h
298 09-12-2013 00:45:00 7.9 C 6.98 g/m*3 5.39 C 14.5 km/h
299 09-12-2013 00:50:00 8.1 C 6.99 g/m*3 5.64 C 14.5 km/h
300 09-12-2013 00:55:00 8 C 6.94 g/m*3 6.64 C 8.1 km/h
Sensor: Nr:Datum:Temp:Abs-Feuchte:Windchill:Wind:
Aussen-T/F 301 09-12-2013 01:00:00 7.9 C 6.9 g/m*3 5.18 C 16.1 km/h
302 09-12-2013 01:05:00 8 C 6.94 g/m*3 4.45 C 24.1 km/h
303 09-12-2013 01:10:00 8 C 6.86 g/m*3 5.52 C 14.5 km/h
304 09-12-2013 01:15:00 8 C 6.94 g/m*3 6.3 C 9.7 km/h
305 09-12-2013 01:20:00 7.9 C 6.9 g/m*3 5.63 C 12.9 km/h
306 09-12-2013 01:25:00 7.8 C 6.86 g/m*3 5.27 C 14.5 km/h
307 09-12-2013 01:30:00 7.8 C 6.86 g/m*3 5.77 C 11.3 km/h
308 09-12-2013 01:35:00 7.7 C 6.81 g/m*3 4.73 C 17.7 km/h
309 09-12-2013 01:40:00 7.7 C 6.81 g/m*3 4.93 C 16.1 km/h
310 09-12-2013 01:45:00 7.7 C 6.81 g/m*3 5.38 C 12.9 km/h
311 09-12-2013 01:50:00 7.7 C 6.81 g/m*3 5.15 C 14.5 km/h
312 09-12-2013 01:55:00 7.7 C 6.73 g/m*3 4.55 C 19.3 km/h
313 09-12-2013 02:00:00 7.6 C 6.69 g/m*3 6.16 C 8.1 km/h
314 09-12-2013 02:05:00 7.6 C 6.69 g/m*3 5.82 C 9.7 km/h
315 09-12-2013 02:10:00 7.6 C 6.69 g/m*3 5.02 C 14.5 km/h
316 09-12-2013 02:15:00 7.6 C 6.69 g/m*3 4.42 C 19.3 km/h
317 09-12-2013 02:20:00 7.5 C 6.64 g/m*3 5.41 C 11.3 km/h
318 09-12-2013 02:25:00 7.4 C 6.6 g/m*3 5.02 C 12.9 km/h
319 09-12-2013 02:30:00 7.4 C 6.6 g/m*3 5.28 C 11.3 km/h
320 09-12-2013 02:35:00 7.4 C 6.6 g/m*3 5.28 C 11.3 km/h
321 09-12-2013 02:40:00 7.4 C 6.6 g/m*3 5.28 C 11.3 km/h
322 09-12-2013 02:45:00 7.3 C 6.56 g/m*3 5.47 C 9.7 km/h
323 09-12-2013 02:50:00 7.3 C 6.64 g/m*3 4.9 C 12.9 km/h
324 09-12-2013 02:55:00 7.2 C 6.59 g/m*3 5.69 C 8.1 km/h
325 09-12-2013 03:00:00 7.2 C 6.59 g/m*3 5.04 C 11.3 km/h
Sensor: Nr:Datum:Temp:Abs-Feuchte:Windchill:Wind:
Aussen-T/F 326 09-12-2013 03:05:00 7.1 C 6.55 g/m*3 5.23 C 9.7 km/h
327 09-12-2013 03:10:00 7 C 6.51 g/m*3 4.8 C 11.3 km/h
328 09-12-2013 03:15:00 7 C 6.51 g/m*3 4.53 C 12.9 km/h
329 09-12-2013 03:20:00 6.9 C 6.47 g/m*3 6.9 C 4.8 km/h
330 09-12-2013 03:25:00 6.8 C 6.42 g/m*3 5.67 C 6.4 km/h
331 09-12-2013 03:30:00 6.7 C 6.46 g/m*3 5.11 C 8.1 km/h
332 09-12-2013 03:35:00 6.7 C 6.46 g/m*3 4.75 C 9.7 km/h
333 09-12-2013 03:40:00 6.7 C 6.38 g/m*3 4.75 C 9.7 km/h
334 09-12-2013 03:45:00 6.8 C 6.42 g/m*3 4.56 C 11.3 km/h
335 09-12-2013 03:50:00 6.8 C 6.42 g/m*3 5.22 C 8.1 km/h
336 09-12-2013 03:55:00 6.8 C 6.35 g/m*3 4.56 C 11.3 km/h
337 09-12-2013 04:00:00 6.8 C 6.35 g/m*3 5.22 C 8.1 km/h
338 09-12-2013 04:05:00 6.8 C 6.35 g/m*3 5.22 C 8.1 km/h
339 09-12-2013 04:10:00 6.8 C 6.35 g/m*3 4.56 C 11.3 km/h
340 09-12-2013 04:15:00 6.7 C 6.31 g/m*3 5.56 C 6.4 km/h
341 09-12-2013 04:20:00 6.7 C 6.31 g/m*3 5.11 C 8.1 km/h
342 09-12-2013 04:25:00 6.8 C 6.27 g/m*3 5.67 C 6.4 km/h
343 09-12-2013 04:30:00 6.8 C 6.27 g/m*3 5.67 C 6.4 km/h
344 09-12-2013 04:35:00 6.8 C 6.27 g/m*3 4.87 C 9.7 km/h
345 09-12-2013 04:40:00 6.8 C 6.27 g/m*3 4.56 C 11.3 km/h
346 09-12-2013 04:45:00 6.8 C 6.27 g/m*3 4.87 C 9.7 km/h
347 09-12-2013 04:50:00 6.8 C 6.27 g/m*3 4.29 C 12.9 km/h
348 09-12-2013 04:55:00 6.8 C 6.27 g/m*3 4.56 C 11.3 km/h
349 09-12-2013 05:00:00 6.9 C 6.24 g/m*3 4.68 C 11.3 km/h
350 09-12-2013 05:05:00 6.9 C 6.24 g/m*3 4.41 C 12.9 km/h
Sensor: Nr:Datum:Temp:Abs-Feuchte:Windchill:Wind:
Aussen-T/F 351 09-12-2013 05:10:00 6.9 C 6.24 g/m*3 4.16 C 14.5 km/h
352 09-12-2013 05:15:00 6.8 C 6.19 g/m*3 4.87 C 9.7 km/h
353 09-12-2013 05:20:00 6.8 C 6.19 g/m*3 4.56 C 11.3 km/h
354 09-12-2013 05:25:00 6.8 C 6.19 g/m*3 4.56 C 11.3 km/h
355 09-12-2013 05:30:00 6.8 C 6.19 g/m*3 5.22 C 8.1 km/h
356 09-12-2013 05:35:00 6.7 C 6.15 g/m*3 4.44 C 11.3 km/h
357 09-12-2013 05:40:00 6.7 C 6.15 g/m*3 4.75 C 9.7 km/h
358 09-12-2013 05:45:00 6.7 C 6.15 g/m*3 3.69 C 16.1 km/h
359 09-12-2013 05:50:00 6.7 C 6.15 g/m*3 4.75 C 9.7 km/h
360 09-12-2013 05:55:00 6.7 C 6.15 g/m*3 2.94 C 22.5 km/h
361 09-12-2013 06:00:00 6.7 C 6.15 g/m*3 3.48 C 17.7 km/h
362 09-12-2013 06:05:00 6.7 C 6.15 g/m*3 4.44 C 11.3 km/h
363 09-12-2013 06:10:00 6.7 C 6.15 g/m*3 4.44 C 11.3 km/h
364 09-12-2013 06:15:00 6.7 C 6.15 g/m*3 3.48 C 17.7 km/h
365 09-12-2013 06:20:00 6.7 C 6.08 g/m*3 4.44 C 11.3 km/h
366 09-12-2013 06:25:00 6.7 C 6.15 g/m*3 4.75 C 9.7 km/h
367 09-12-2013 06:30:00 6.7 C 6.08 g/m*3 3.11 C 20.9 km/h
368 09-12-2013 06:35:00 6.6 C 6.11 g/m*3 4.32 C 11.3 km/h
369 09-12-2013 06:40:00 6.6 C 6.11 g/m*3 3.57 C 16.1 km/h
370 09-12-2013 06:45:00 6.5 C 6.07 g/m*3 3.04 C 19.3 km/h
371 09-12-2013 06:50:00 6.5 C 6.07 g/m*3 4.87 C 8.1 km/h
372 09-12-2013 06:55:00 6.4 C 6.04 g/m*3 3.8 C 12.9 km/h
373 09-12-2013 07:00:00 6.4 C 6.04 g/m*3 4.39 C 9.7 km/h
374 09-12-2013 07:05:00 6.4 C 6.04 g/m*3 5.21 C 6.4 km/h
375 09-12-2013 07:10:00 6.3 C 6 g/m*3 4.64 C 8.1 km/h
Sensor: Nr:Datum:Temp:Abs-Feuchte:Windchill:Wind:
Aussen-T/F 376 09-12-2013 07:15:00 6.3 C 6 g/m*3 5.1 C 6.4 km/h
377 09-12-2013 07:20:00 6.3 C 6.07 g/m*3 4.64 C 8.1 km/h
378 09-12-2013 07:25:00 6.3 C 6.07 g/m*3 4.64 C 8.1 km/h
379 09-12-2013 07:30:00 6.2 C 6.03 g/m*3 4.15 C 9.7 km/h
380 09-12-2013 07:35:00 6.3 C 6.07 g/m*3 4.27 C 9.7 km/h
381 09-12-2013 07:40:00 6.2 C 6.03 g/m*3 6.2 C 4.8 km/h
382 09-12-2013 07:45:00 6.1 C 6.06 g/m*3 4.04 C 9.7 km/h
383 09-12-2013 07:50:00 6.2 C 6.1 g/m*3 3.84 C 11.3 km/h
384 09-12-2013 07:55:00 6.2 C 6.1 g/m*3 4.15 C 9.7 km/h
385 09-12-2013 08:00:00 6.2 C 6.03 g/m*3 3.84 C 11.3 km/h
386 09-12-2013 08:05:00 6.2 C 6.03 g/m*3 3.84 C 11.3 km/h
387 09-12-2013 08:10:00 6.3 C 6.07 g/m*3 3.96 C 11.3 km/h
388 09-12-2013 08:15:00 6.5 C 6.07 g/m*3 3.23 C 17.7 km/h
389 09-12-2013 08:20:00 6.6 C 6.11 g/m*3 4.99 C 8.1 km/h
390 09-12-2013 08:25:00 6.6 C 6.11 g/m*3 3.36 C 17.7 km/h
391 09-12-2013 08:30:00 6.6 C 6.11 g/m*3 4.32 C 11.3 km/h
392 09-12-2013 08:35:00 6.7 C 6.15 g/m*3 4.75 C 9.7 km/h
393 09-12-2013 08:40:00 6.7 C 6.15 g/m*3 5.11 C 8.1 km/h
394 09-12-2013 08:45:00 6.7 C 6.08 g/m*3 3.69 C 16.1 km/h
395 09-12-2013 08:50:00 6.8 C 6.12 g/m*3 4.56 C 11.3 km/h
396 09-12-2013 08:55:00 6.8 C 6.12 g/m*3 4.87 C 9.7 km/h
397 09-12-2013 09:00:00 6.8 C 6.12 g/m*3 4.56 C 11.3 km/h
398 09-12-2013 09:05:00 6.9 C 6.08 g/m*3 4.68 C 11.3 km/h
399 09-12-2013 09:10:00 6.9 C 6.08 g/m*3 4.68 C 11.3 km/h
400 09-12-2013 09:15:00 6.9 C 6.08 g/m*3 3.94 C 16.1 km/h
Sensor: Nr:Datum:Temp:Abs-Feuchte:Windchill:Wind:
Aussen-T/F 401 09-12-2013 09:20:00 6.9 C 6.16 g/m*3 3.94 C 16.1 km/h
402 09-12-2013 09:25:00 6.9 C 6.08 g/m*3 4.68 C 11.3 km/h
403 09-12-2013 09:30:00 6.9 C 6.16 g/m*3 3.94 C 16.1 km/h
404 09-12-2013 09:35:00 6.9 C 6.08 g/m*3 4.41 C 12.9 km/h
405 09-12-2013 09:40:00 6.9 C 6.08 g/m*3 3.54 C 19.3 km/h
406 09-12-2013 09:45:00 6.9 C 6.08 g/m*3 3.73 C 17.7 km/h
407 09-12-2013 09:50:00 7 C 6.12 g/m*3 4.29 C 14.5 km/h
408 09-12-2013 09:55:00 7.1 C 6.16 g/m*3 4.19 C 16.1 km/h
409 09-12-2013 10:00:00 7.1 C 6.16 g/m*3 4.19 C 16.1 km/h
410 09-12-2013 10:05:00 7.1 C 6.16 g/m*3 5.23 C 9.7 km/h
411 09-12-2013 10:10:00 7.2 C 6.2 g/m*3 4.53 C 14.5 km/h
412 09-12-2013 10:15:00 7.2 C 6.2 g/m*3 4.31 C 16.1 km/h
413 09-12-2013 10:20:00 7.3 C 6.24 g/m*3 4.9 C 12.9 km/h
414 09-12-2013 10:25:00 7.3 C 6.16 g/m*3 4.05 C 19.3 km/h
415 09-12-2013 10:30:00 7.4 C 6.2 g/m*3 4.17 C 19.3 km/h
416 09-12-2013 10:35:00 7.4 C 6.2 g/m*3 4.78 C 14.5 km/h
417 09-12-2013 10:40:00 7.4 C 6.2 g/m*3 3.68 C 24.1 km/h
418 09-12-2013 10:45:00 7.4 C 6.2 g/m*3 4.56 C 16.1 km/h
419 09-12-2013 10:50:00 7.3 C 6.16 g/m*3 4.66 C 14.5 km/h
420 09-12-2013 10:55:00 7.3 C 6.16 g/m*3 4.66 C 14.5 km/h
421 09-12-2013 11:00:00 7.3 C 6.24 g/m*3 4.23 C 17.7 km/h
422 09-12-2013 11:05:00 7.3 C 6.24 g/m*3 5.81 C 8.1 km/h
423 09-12-2013 11:10:00 7.3 C 6.24 g/m*3 5.47 C 9.7 km/h
424 09-12-2013 11:15:00 7.3 C 6.24 g/m*3 6.25 C 6.4 km/h
425 09-12-2013 11:20:00 7.4 C 6.28 g/m*3 5.58 C 9.7 km/h
Sensor: Nr:Datum:Temp:Abs-Feuchte:Windchill:Wind:
Aussen-T/F 426 09-12-2013 11:25:00 7.4 C 6.28 g/m*3 5.02 C 12.9 km/h
427 09-12-2013 11:30:00 7.4 C 6.36 g/m*3 5.02 C 12.9 km/h
428 09-12-2013 11:35:00 7.5 C 6.4 g/m*3 6.05 C 8.1 km/h
429 09-12-2013 11:40:00 7.6 C 6.36 g/m*3 5.02 C 14.5 km/h
430 09-12-2013 11:45:00 7.7 C 6.41 g/m*3 4.55 C 19.3 km/h
431 09-12-2013 11:50:00 7.8 C 6.45 g/m*3 5.51 C 12.9 km/h
432 09-12-2013 11:55:00 7.9 C 6.49 g/m*3 5.39 C 14.5 km/h
433 09-12-2013 12:00:00 7.9 C 6.41 g/m*3 6.52 C 8.1 km/h
434 09-12-2013 12:05:00 8.1 C 6.57 g/m*3 7.17 C 6.4 km/h
435 09-12-2013 12:10:00 8.1 C 6.57 g/m*3 7.17 C 6.4 km/h
436 09-12-2013 12:15:00 8.1 C 6.57 g/m*3 6.13 C 11.3 km/h
437 09-12-2013 12:20:00 8.2 C 6.62 g/m*3 6.87 C 8.1 km/h
438 09-12-2013 12:25:00 8.3 C 6.66 g/m*3 7.41 C 6.4 km/h
439 09-12-2013 12:30:00 8.3 C 6.66 g/m*3 7.41 C 6.4 km/h
440 09-12-2013 12:35:00 8.3 C 6.66 g/m*3 6.37 C 11.3 km/h
441 09-12-2013 12:40:00 8.3 C 6.74 g/m*3 6.99 C 8.1 km/h
442 09-12-2013 12:45:00 8.3 C 6.74 g/m*3 6.66 C 9.7 km/h
443 09-12-2013 12:50:00 8.3 C 6.66 g/m*3 6.66 C 9.7 km/h
444 09-12-2013 12:55:00 8.4 C 6.79 g/m*3 8.4 C 4.8 km/h
445 09-12-2013 13:00:00 8.3 C 6.74 g/m*3 8.3 C 4.8 km/h
446 09-12-2013 13:05:00 8.3 C 6.74 g/m*3 6.99 C 8.1 km/h
447 09-12-2013 13:10:00 8.4 C 6.79 g/m*3 7.52 C 6.4 km/h
448 09-12-2013 13:15:00 8.4 C 6.7 g/m*3 6.49 C 11.3 km/h
449 09-12-2013 13:20:00 8.5 C 6.74 g/m*3 6.61 C 11.3 km/h
450 09-12-2013 13:25:00 8.5 C 6.74 g/m*3 6.9 C 9.7 km/h
Sensor: Nr:Datum:Temp:Abs-Feuchte:Windchill:Wind:
Aussen-T/F 451 09-12-2013 13:30:00 8.5 C 6.74 g/m*3 7.22 C 8.1 km/h
452 09-12-2013 13:35:00 8.5 C 6.74 g/m*3 6.61 C 11.3 km/h
453 09-12-2013 13:40:00 8.5 C 6.66 g/m*3 6.9 C 9.7 km/h
454 09-12-2013 13:45:00 8.4 C 6.7 g/m*3 7.11 C 8.1 km/h
455 09-12-2013 13:50:00 8.3 C 6.57 g/m*3 6.99 C 8.1 km/h
456 09-12-2013 13:55:00 8.3 C 6.66 g/m*3 6.12 C 12.9 km/h
457 09-12-2013 14:00:00 8.3 C 6.66 g/m*3 6.66 C 9.7 km/h
458 09-12-2013 14:05:00 8.2 C 6.62 g/m*3 6.25 C 11.3 km/h
459 09-12-2013 14:10:00 8.1 C 6.66 g/m*3 6.75 C 8.1 km/h
460 09-12-2013 14:15:00 8 C 6.53 g/m*3 6.3 C 9.7 km/h
461 09-12-2013 14:20:00 7.9 C 6.57 g/m*3 6.52 C 8.1 km/h
462 09-12-2013 14:25:00 7.8 C 6.53 g/m*3 6.06 C 9.7 km/h
463 09-12-2013 14:30:00 7.8 C 6.53 g/m*3 5.51 C 12.9 km/h
464 09-12-2013 14:35:00 7.8 C 6.53 g/m*3 5.77 C 11.3 km/h
465 09-12-2013 14:40:00 7.8 C 6.53 g/m*3 5.77 C 11.3 km/h
466 09-12-2013 14:45:00 7.9 C 6.57 g/m*3 5.63 C 12.9 km/h
467 09-12-2013 14:50:00 7.9 C 6.49 g/m*3 5.63 C 12.9 km/h
468 09-12-2013 14:55:00 7.9 C 6.49 g/m*3 5.18 C 16.1 km/h
469 09-12-2013 15:00:00 8 C 6.53 g/m*3 5.75 C 12.9 km/h
470 09-12-2013 15:05:00 8 C 6.53 g/m*3 6.01 C 11.3 km/h
471 09-12-2013 15:10:00 8 C 6.53 g/m*3 6.01 C 11.3 km/h
472 09-12-2013 15:15:00 8 C 6.53 g/m*3 6.01 C 11.3 km/h
473 09-12-2013 15:20:00 7.9 C 6.49 g/m*3 6.18 C 9.7 km/h
474 09-12-2013 15:25:00 7.9 C 6.57 g/m*3 6.18 C 9.7 km/h
475 09-12-2013 15:30:00 7.8 C 6.53 g/m*3 6.4 C 8.1 km/h
Sensor: Nr:Datum:Temp:Abs-Feuchte:Windchill:Wind:
Aussen-T/F 476 09-12-2013 15:35:00 7.8 C 6.53 g/m*3 5.77 C 11.3 km/h
477 09-12-2013 15:40:00 7.7 C 6.57 g/m*3 6.71 C 6.4 km/h
478 09-12-2013 15:45:00 7.7 C 6.57 g/m*3 6.71 C 6.4 km/h
479 09-12-2013 15:50:00 7.6 C 6.53 g/m*3 6.6 C 6.4 km/h
480 09-12-2013 15:55:00 7.5 C 6.48 g/m*3 6.48 C 6.4 km/h
481 09-12-2013 16:00:00 7.3 C 6.48 g/m*3 6.25 C 6.4 km/h
482 09-12-2013 16:05:00 7.3 C 6.48 g/m*3 6.25 C 6.4 km/h
483 09-12-2013 16:10:00 7.1 C 6.4 g/m*3 7.1 C 4.8 km/h
484 09-12-2013 16:15:00 6.8 C 6.42 g/m*3 6.8 C 4.8 km/h
485 09-12-2013 16:20:00 6.8 C 6.42 g/m*3 6.8 C 4.8 km/h
486 09-12-2013 16:25:00 6.7 C 6.38 g/m*3 6.7 C 4.8 km/h
487 09-12-2013 16:30:00 6.6 C 6.42 g/m*3 5.44 C 6.4 km/h
488 09-12-2013 16:35:00 6.6 C 6.42 g/m*3 6.6 C 4.8 km/h
489 09-12-2013 16:40:00 6.6 C 6.34 g/m*3 5.44 C 6.4 km/h
490 09-12-2013 16:45:00 6.5 C 6.37 g/m*3 6.5 C 4.8 km/h
491 09-12-2013 16:50:00 6.3 C 6.29 g/m*3 6.3 C 3.2 km/h
492 09-12-2013 16:55:00 6.2 C 6.32 g/m*3 6.2 C 4.8 km/h
493 09-12-2013 17:00:00 6.2 C 6.32 g/m*3 6.2 C 4.8 km/h
494 09-12-2013 17:05:00 6.2 C 6.32 g/m*3 6.2 C 4.8 km/h
495 09-12-2013 17:10:00 6 C 6.31 g/m*3 6 C 4.8 km/h
496 09-12-2013 17:15:00 6 C 6.31 g/m*3 4.28 C 8.1 km/h
497 09-12-2013 17:20:00 6.2 C 6.4 g/m*3 6.2 C 4.8 km/h
498 09-12-2013 17:25:00 6.3 C 6.37 g/m*3 5.1 C 6.4 km/h
499 09-12-2013 17:30:00 6.5 C 6.45 g/m*3 6.5 C 3.2 km/h
500 09-12-2013 17:35:00 6.4 C 6.33 g/m*3 6.4 C 4.8 km/h
Sensor: Nr:Datum:Temp:Abs-Feuchte:Windchill:Wind:
Aussen-T/F 501 09-12-2013 17:40:00 6.3 C 6.37 g/m*3 6.3 C 4.8 km/h
502 09-12-2013 17:45:00 6.3 C 6.37 g/m*3 6.3 C 4.8 km/h
503 09-12-2013 17:50:00 6.2 C 6.32 g/m*3 6.2 C 4.8 km/h
504 09-12-2013 17:55:00 6.2 C 6.32 g/m*3 6.2 C 4.8 km/h
505 09-12-2013 18:00:00 6.3 C 6.37 g/m*3 6.3 C 4.8 km/h
506 09-12-2013 18:05:00 6.3 C 6.37 g/m*3 6.3 C 4.8 km/h
507 09-12-2013 18:10:00 6.2 C 6.32 g/m*3 6.2 C 4.8 km/h
508 09-12-2013 18:15:00 6 C 6.31 g/m*3 6 C 4.8 km/h
509 09-12-2013 18:20:00 5.9 C 6.27 g/m*3 5.9 C 4.8 km/h
510 09-12-2013 18:25:00 5.9 C 6.35 g/m*3 5.9 C 4.8 km/h
511 09-12-2013 18:30:00 6 C 6.31 g/m*3 6 C 4.8 km/h
512 09-12-2013 18:35:00 6.1 C 6.36 g/m*3 4.86 C 6.4 km/h
513 09-12-2013 18:40:00 6.2 C 6.4 g/m*3 3.3 C 14.5 km/h
514 09-12-2013 18:45:00 6.3 C 6.37 g/m*3 3.68 C 12.9 km/h
515 09-12-2013 18:50:00 6.4 C 6.33 g/m*3 5.21 C 6.4 km/h
516 09-12-2013 18:55:00 6.4 C 6.33 g/m*3 6.4 C 4.8 km/h
517 09-12-2013 19:00:00 6.3 C 6.37 g/m*3 6.3 C 3.2 km/h
518 09-12-2013 19:05:00 6.3 C 6.37 g/m*3 6.3 C 3.2 km/h
519 09-12-2013 19:10:00 6.1 C 6.36 g/m*3 6.1 C 4.8 km/h
520 09-12-2013 19:15:00 5.9 C 6.27 g/m*3 5.9 C 3.2 km/h
521 09-12-2013 19:20:00 5.6 C 6.22 g/m*3 5.6 C 1.6 km/h
522 09-12-2013 19:25:00 5.3 C 6.17 g/m*3 5.3 C 1.6 km/h
523 09-12-2013 19:30:00 5.1 C 6.09 g/m*3 5.1 C 0 km/h
524 09-12-2013 19:35:00 4.9 C 6.08 g/m*3 4.9 C 1.6 km/h
525 09-12-2013 19:40:00 4.7 C 6 g/m*3 4.7 C 0 km/h
Sensor: Nr:Datum:Temp:Abs-Feuchte:Windchill:Wind:
Aussen-T/F 526 09-12-2013 19:45:00 4.6 C 6.02 g/m*3 4.6 C 0 km/h
527 09-12-2013 19:50:00 4.5 C 5.98 g/m*3 4.5 C 0 km/h
528 09-12-2013 19:55:00 4.4 C 6.01 g/m*3 4.4 C 0 km/h
529 09-12-2013 20:00:00 4.3 C 5.97 g/m*3 4.3 C 0 km/h
530 09-12-2013 20:05:00 4.3 C 5.97 g/m*3 4.3 C 0 km/h
531 09-12-2013 20:10:00 4.2 C 5.93 g/m*3 4.2 C 0 km/h
532 09-12-2013 20:15:00 4.1 C 5.89 g/m*3 4.1 C 0 km/h
533 09-12-2013 20:20:00 4 C 5.91 g/m*3 4 C 0 km/h
534 09-12-2013 20:25:00 3.9 C 5.87 g/m*3 3.9 C 1.6 km/h
535 09-12-2013 20:30:00 3.9 C 5.87 g/m*3 3.9 C 0 km/h
536 09-12-2013 20:35:00 3.8 C 5.83 g/m*3 3.8 C 0 km/h
537 09-12-2013 20:40:00 3.8 C 5.9 g/m*3 3.8 C 1.6 km/h
538 09-12-2013 20:45:00 3.8 C 5.9 g/m*3 3.8 C 0 km/h
539 09-12-2013 20:50:00 3.8 C 5.9 g/m*3 3.8 C 0 km/h
540 09-12-2013 20:55:00 3.8 C 5.9 g/m*3 3.8 C 1.6 km/h
541 09-12-2013 21:00:00 3.8 C 5.9 g/m*3 3.8 C 0 km/h
542 09-12-2013 21:05:00 3.7 C 5.86 g/m*3 3.7 C 1.6 km/h
543 09-12-2013 21:10:00 3.7 C 5.86 g/m*3 3.7 C 1.6 km/h
544 09-12-2013 21:15:00 3.7 C 5.86 g/m*3 3.7 C 1.6 km/h
545 09-12-2013 21:20:00 3.6 C 5.82 g/m*3 3.6 C 0 km/h
546 09-12-2013 21:25:00 3.5 C 5.78 g/m*3 3.5 C 0 km/h
547 09-12-2013 21:30:00 3.4 C 5.74 g/m*3 3.4 C 0 km/h
548 09-12-2013 21:35:00 3.3 C 5.7 g/m*3 3.3 C 0 km/h
549 09-12-2013 21:40:00 3.2 C 5.66 g/m*3 3.2 C 0 km/h
550 09-12-2013 21:45:00 3.1 C 5.63 g/m*3 3.1 C 0 km/h
Sensor: Nr:Datum:Temp:Abs-Feuchte:Windchill:Wind:
Aussen-T/F 551 09-12-2013 21:50:00 3.1 C 5.63 g/m*3 3.1 C 0 km/h
552 09-12-2013 21:55:00 3.1 C 5.63 g/m*3 3.1 C 0 km/h
553 09-12-2013 22:00:00 3 C 5.59 g/m*3 3 C 0 km/h
554 09-12-2013 22:05:00 2.9 C 5.61 g/m*3 2.9 C 0 km/h
555 09-12-2013 22:10:00 2.9 C 5.61 g/m*3 2.9 C 0 km/h
556 09-12-2013 22:15:00 2.9 C 5.61 g/m*3 2.9 C 0 km/h
557 09-12-2013 22:20:00 2.9 C 5.61 g/m*3 2.9 C 0 km/h
558 09-12-2013 22:25:00 2.8 C 5.57 g/m*3 2.8 C 0 km/h
559 09-12-2013 22:30:00 2.8 C 5.57 g/m*3 2.8 C 0 km/h
560 09-12-2013 22:35:00 2.7 C 5.54 g/m*3 2.7 C 0 km/h
561 09-12-2013 22:40:00 2.7 C 5.54 g/m*3 2.7 C 0 km/h
562 09-12-2013 22:45:00 2.7 C 5.54 g/m*3 2.7 C 0 km/h
563 09-12-2013 22:50:00 2.6 C 5.5 g/m*3 2.6 C 0 km/h
564 09-12-2013 22:55:00 2.6 C 5.5 g/m*3 2.6 C 0 km/h
565 09-12-2013 23:00:00 2.6 C 5.5 g/m*3 2.6 C 0 km/h
566 09-12-2013 23:05:00 2.5 C 5.46 g/m*3 2.5 C 0 km/h
567 09-12-2013 23:10:00 2.5 C 5.52 g/m*3 2.5 C 0 km/h
568 09-12-2013 23:15:00 2.5 C 5.52 g/m*3 2.5 C 0 km/h
569 09-12-2013 23:20:00 2.4 C 5.42 g/m*3 2.4 C 0 km/h
570 09-12-2013 23:25:00 2.3 C 5.39 g/m*3 2.3 C 0 km/h
571 09-12-2013 23:30:00 2.3 C 5.39 g/m*3 2.3 C 0 km/h
572 09-12-2013 23:35:00 2.3 C 5.39 g/m*3 2.3 C 0 km/h
573 09-12-2013 23:40:00 2.2 C 5.41 g/m*3 2.2 C 0 km/h
574 09-12-2013 23:45:00 2.2 C 5.35 g/m*3 2.2 C 0 km/h
575 09-12-2013 23:50:00 2.1 C 5.31 g/m*3 2.1 C 0 km/h
Sensor: Nr:Datum:Temp:Abs-Feuchte:Windchill:Wind:
Aussen-T/F 576 09-12-2013 23:55:00 2.1 C 5.37 g/m*3 2.1 C 0 km/h
577 10-12-2013 00:00:00 2.1 C 5.37 g/m*3 2.1 C 0 km/h
578 10-12-2013 00:05:00 2 C 5.33 g/m*3 2 C 0 km/h
579 10-12-2013 00:10:00 2 C 5.33 g/m*3 2 C 0 km/h
580 10-12-2013 00:15:00 2.1 C 5.37 g/m*3 2.1 C 0 km/h
581 10-12-2013 00:20:00 2 C 5.33 g/m*3 2 C 0 km/h
582 10-12-2013 00:25:00 1.9 C 5.3 g/m*3 1.9 C 0 km/h
583 10-12-2013 00:30:00 1.9 C 5.3 g/m*3 1.9 C 0 km/h
584 10-12-2013 00:35:00 1.8 C 5.26 g/m*3 1.8 C 0 km/h
585 10-12-2013 00:40:00 1.8 C 5.26 g/m*3 1.8 C 0 km/h
586 10-12-2013 00:45:00 1.8 C 5.26 g/m*3 1.8 C 0 km/h
587 10-12-2013 00:50:00 1.7 C 5.23 g/m*3 1.7 C 0 km/h
588 10-12-2013 00:55:00 1.7 C 5.23 g/m*3 1.7 C 0 km/h
589 10-12-2013 01:00:00 1.7 C 5.23 g/m*3 1.7 C 0 km/h
590 10-12-2013 01:05:00 1.7 C 5.23 g/m*3 1.7 C 0 km/h
591 10-12-2013 01:10:00 1.7 C 5.23 g/m*3 1.7 C 0 km/h
592 10-12-2013 01:15:00 1.6 C 5.19 g/m*3 1.6 C 0 km/h
593 10-12-2013 01:20:00 1.6 C 5.19 g/m*3 1.6 C 0 km/h
594 10-12-2013 01:25:00 1.6 C 5.19 g/m*3 1.6 C 0 km/h
595 10-12-2013 01:30:00 1.7 C 5.23 g/m*3 1.7 C 1.6 km/h
596 10-12-2013 01:35:00 1.7 C 5.23 g/m*3 1.7 C 1.6 km/h
597 10-12-2013 01:40:00 1.6 C 5.19 g/m*3 1.6 C 0 km/h
598 10-12-2013 01:45:00 1.6 C 5.19 g/m*3 1.6 C 1.6 km/h
599 10-12-2013 01:50:00 1.6 C 5.19 g/m*3 1.6 C 0 km/h
600 10-12-2013 01:55:00 1.4 C 5.12 g/m*3 1.4 C 0 km/h
Sensor: Nr:Datum:Temp:Abs-Feuchte:Windchill:Wind:
Aussen-T/F 601 10-12-2013 02:00:00 1.4 C 5.12 g/m*3 1.4 C 0 km/h
602 10-12-2013 02:05:00 1.3 C 5.09 g/m*3 1.3 C 0 km/h
603 10-12-2013 02:10:00 1.3 C 5.09 g/m*3 1.3 C 0 km/h
604 10-12-2013 02:15:00 1.2 C 5.05 g/m*3 1.2 C 0 km/h
605 10-12-2013 02:20:00 1.2 C 5.05 g/m*3 1.2 C 0 km/h
606 10-12-2013 02:25:00 1.3 C 5.14 g/m*3 1.3 C 0 km/h
607 10-12-2013 02:30:00 1.2 C 5.1 g/m*3 1.2 C 0 km/h
608 10-12-2013 02:35:00 1.2 C 5.1 g/m*3 1.2 C 0 km/h
609 10-12-2013 02:40:00 1.2 C 5.05 g/m*3 1.2 C 0 km/h
610 10-12-2013 02:45:00 1.1 C 5.02 g/m*3 1.1 C 0 km/h
611 10-12-2013 02:50:00 1.1 C 5.02 g/m*3 1.1 C 0 km/h
612 10-12-2013 02:55:00 1 C 4.98 g/m*3 1 C 0 km/h
613 10-12-2013 03:00:00 1 C 5.03 g/m*3 1 C 0 km/h
614 10-12-2013 03:05:00 1 C 5.03 g/m*3 1 C 0 km/h
615 10-12-2013 03:10:00 1 C 5.03 g/m*3 1 C 0 km/h
616 10-12-2013 03:15:00 1 C 5.03 g/m*3 1 C 0 km/h
617 10-12-2013 03:20:00 1 C 5.03 g/m*3 1 C 0 km/h
618 10-12-2013 03:25:00 1 C 5.03 g/m*3 1 C 0 km/h
619 10-12-2013 03:30:00 1.1 C 5.07 g/m*3 1.1 C 0 km/h
620 10-12-2013 03:35:00 1.2 C 5.1 g/m*3 1.2 C 1.6 km/h
621 10-12-2013 03:40:00 1.3 C 5.14 g/m*3 1.3 C 0 km/h
622 10-12-2013 03:45:00 1.3 C 5.14 g/m*3 1.3 C 0 km/h
623 10-12-2013 03:50:00 1.3 C 5.14 g/m*3 1.3 C 0 km/h
624 10-12-2013 03:55:00 1.3 C 5.14 g/m*3 1.3 C 0 km/h
625 10-12-2013 04:00:00 1.3 C 5.14 g/m*3 1.3 C 0 km/h
Sensor: Nr:Datum:Temp:Abs-Feuchte:Windchill:Wind:
Aussen-T/F 626 10-12-2013 04:05:00 1.3 C 5.14 g/m*3 1.3 C 0 km/h
627 10-12-2013 04:10:00 1.3 C 5.14 g/m*3 1.3 C 0 km/h
628 10-12-2013 04:15:00 1.3 C 5.14 g/m*3 1.3 C 0 km/h
629 10-12-2013 04:20:00 1.3 C 5.14 g/m*3 1.3 C 0 km/h
630 10-12-2013 04:25:00 1.4 C 5.17 g/m*3 1.4 C 0 km/h
631 10-12-2013 04:30:00 1.4 C 5.17 g/m*3 1.4 C 0 km/h
632 10-12-2013 04:35:00 1.5 C 5.21 g/m*3 1.5 C 0 km/h
633 10-12-2013 04:40:00 1.6 C 5.25 g/m*3 1.6 C 1.6 km/h
634 10-12-2013 04:45:00 1.6 C 5.25 g/m*3 1.6 C 0 km/h
635 10-12-2013 04:50:00 1.6 C 5.25 g/m*3 1.6 C 0 km/h
636 10-12-2013 04:55:00 1.6 C 5.25 g/m*3 1.6 C 0 km/h
637 10-12-2013 05:00:00 1.5 C 5.21 g/m*3 1.5 C 0 km/h
638 10-12-2013 05:05:00 1.5 C 5.21 g/m*3 1.5 C 0 km/h
639 10-12-2013 05:10:00 1.6 C 5.25 g/m*3 1.6 C 0 km/h
640 10-12-2013 05:15:00 1.6 C 5.25 g/m*3 1.6 C 1.6 km/h
641 10-12-2013 05:20:00 1.6 C 5.25 g/m*3 1.6 C 0 km/h
642 10-12-2013 05:25:00 1.6 C 5.25 g/m*3 1.6 C 0 km/h
643 10-12-2013 05:30:00 1.6 C 5.25 g/m*3 1.6 C 0 km/h
644 10-12-2013 05:35:00 1.6 C 5.25 g/m*3 1.6 C 0 km/h
645 10-12-2013 05:40:00 1.6 C 5.25 g/m*3 1.6 C 0 km/h
646 10-12-2013 05:45:00 1.6 C 5.25 g/m*3 1.6 C 0 km/h
647 10-12-2013 05:50:00 1.7 C 5.28 g/m*3 1.7 C 0 km/h
648 10-12-2013 05:55:00 1.6 C 5.25 g/m*3 1.6 C 1.6 km/h
649 10-12-2013 06:00:00 1.6 C 5.25 g/m*3 1.6 C 0 km/h
650 10-12-2013 06:05:00 1.6 C 5.25 g/m*3 1.6 C 0 km/h
Sensor: Nr:Datum:Temp:Abs-Feuchte:Windchill:Wind:
Aussen-T/F 651 10-12-2013 06:10:00 1.6 C 5.25 g/m*3 1.6 C 0 km/h
652 10-12-2013 06:15:00 1.6 C 5.25 g/m*3 1.6 C 0 km/h
653 10-12-2013 06:20:00 1.7 C 5.28 g/m*3 1.7 C 0 km/h
654 10-12-2013 06:25:00 1.6 C 5.25 g/m*3 1.6 C 1.6 km/h
655 10-12-2013 06:30:00 1.6 C 5.25 g/m*3 1.6 C 0 km/h
656 10-12-2013 06:35:00 1.7 C 5.28 g/m*3 1.7 C 0 km/h
657 10-12-2013 06:40:00 1.7 C 5.28 g/m*3 1.7 C 0 km/h
658 10-12-2013 06:45:00 1.7 C 5.28 g/m*3 1.7 C 0 km/h
659 10-12-2013 06:50:00 1.8 C 5.32 g/m*3 1.8 C 0 km/h
660 10-12-2013 06:55:00 1.8 C 5.32 g/m*3 1.8 C 1.6 km/h
661 10-12-2013 07:00:00 1.8 C 5.32 g/m*3 1.8 C 1.6 km/h
662 10-12-2013 07:05:00 1.8 C 5.32 g/m*3 1.8 C 3.2 km/h
663 10-12-2013 07:10:00 1.8 C 5.32 g/m*3 1.8 C 3.2 km/h
664 10-12-2013 07:15:00 1.7 C 5.28 g/m*3 1.7 C 1.6 km/h
665 10-12-2013 07:20:00 1.7 C 5.28 g/m*3 1.7 C 1.6 km/h
666 10-12-2013 07:25:00 1.7 C 5.28 g/m*3 1.7 C 0 km/h
667 10-12-2013 07:30:00 1.7 C 5.28 g/m*3 1.7 C 0 km/h
668 10-12-2013 07:35:00 1.7 C 5.28 g/m*3 1.7 C 1.6 km/h
669 10-12-2013 07:40:00 1.7 C 5.28 g/m*3 1.7 C 0 km/h
670 10-12-2013 07:45:00 1.7 C 5.28 g/m*3 1.7 C 1.6 km/h
671 10-12-2013 07:50:00 1.7 C 5.28 g/m*3 1.7 C 1.6 km/h
672 10-12-2013 07:55:00 1.7 C 5.28 g/m*3 1.7 C 0 km/h
673 10-12-2013 08:00:00 1.8 C 5.32 g/m*3 1.8 C 3.2 km/h
674 10-12-2013 08:05:00 1.8 C 5.32 g/m*3 1.8 C 1.6 km/h
675 10-12-2013 08:10:00 1.8 C 5.32 g/m*3 1.8 C 1.6 km/h
Sensor: Nr:Datum:Temp:Abs-Feuchte:Windchill:Wind:
Aussen-T/F 676 10-12-2013 08:15:00 1.8 C 5.32 g/m*3 1.8 C 0 km/h
677 10-12-2013 08:20:00 1.8 C 5.32 g/m*3 1.8 C 0 km/h
678 10-12-2013 08:25:00 1.8 C 5.32 g/m*3 1.8 C 0 km/h
679 10-12-2013 08:30:00 1.9 C 5.35 g/m*3 1.9 C 0 km/h
680 10-12-2013 08:35:00 1.9 C 5.35 g/m*3 1.9 C 1.6 km/h
681 10-12-2013 08:40:00 1.9 C 5.3 g/m*3 1.9 C 4.8 km/h
682 10-12-2013 08:45:00 1.9 C 5.3 g/m*3 1.9 C 1.6 km/h
683 10-12-2013 08:50:00 1.9 C 5.3 g/m*3 1.9 C 0 km/h
684 10-12-2013 08:55:00 1.9 C 5.3 g/m*3 1.9 C 0 km/h
685 10-12-2013 09:00:00 2 C 5.33 g/m*3 2 C 0 km/h
686 10-12-2013 09:05:00 2.1 C 5.37 g/m*3 2.1 C 0 km/h
687 10-12-2013 09:10:00 2.1 C 5.37 g/m*3 2.1 C 3.2 km/h
688 10-12-2013 09:15:00 2.2 C 5.41 g/m*3 2.2 C 0 km/h
689 10-12-2013 09:20:00 2.2 C 5.41 g/m*3 2.2 C 0 km/h
690 10-12-2013 09:25:00 2.3 C 5.44 g/m*3 2.3 C 1.6 km/h
691 10-12-2013 09:30:00 2.3 C 5.44 g/m*3 2.3 C 3.2 km/h
692 10-12-2013 09:35:00 2.3 C 5.44 g/m*3 2.3 C 3.2 km/h
693 10-12-2013 09:40:00 2.3 C 5.44 g/m*3 2.3 C 4.8 km/h
694 10-12-2013 09:45:00 2.4 C 5.48 g/m*3 0.59 C 6.4 km/h
695 10-12-2013 09:50:00 2.4 C 5.42 g/m*3 0.59 C 6.4 km/h
696 10-12-2013 09:55:00 2.4 C 5.48 g/m*3 2.4 C 4.8 km/h
697 10-12-2013 10:00:00 2.5 C 5.52 g/m*3 2.5 C 1.6 km/h
698 10-12-2013 10:05:00 2.6 C 5.56 g/m*3 2.6 C 0 km/h
699 10-12-2013 10:10:00 2.7 C 5.59 g/m*3 2.7 C 0 km/h
700 10-12-2013 10:15:00 2.7 C 5.59 g/m*3 2.7 C 0 km/h
Sensor: Nr:Datum:Temp:Abs-Feuchte:Windchill:Wind:
Aussen-T/F 701 10-12-2013 10:20:00 2.8 C 5.63 g/m*3 2.8 C 1.6 km/h
702 10-12-2013 10:25:00 3 C 5.71 g/m*3 3 C 0 km/h
703 10-12-2013 10:30:00 3.1 C 5.75 g/m*3 3.1 C 1.6 km/h
704 10-12-2013 10:35:00 3.2 C 5.79 g/m*3 3.2 C 1.6 km/h
705 10-12-2013 10:40:00 3.3 C 5.82 g/m*3 3.3 C 1.6 km/h
706 10-12-2013 10:45:00 3.3 C 5.82 g/m*3 3.3 C 3.2 km/h
707 10-12-2013 10:50:00 3.2 C 5.79 g/m*3 3.2 C 4.8 km/h
708 10-12-2013 10:55:00 3.2 C 5.79 g/m*3 3.2 C 3.2 km/h
709 10-12-2013 11:00:00 3.3 C 5.82 g/m*3 3.3 C 1.6 km/h
710 10-12-2013 11:05:00 3.4 C 5.86 g/m*3 3.4 C 1.6 km/h
711 10-12-2013 11:10:00 3.4 C 5.86 g/m*3 3.4 C 0 km/h
712 10-12-2013 11:15:00 3.4 C 5.86 g/m*3 3.4 C 0 km/h
713 10-12-2013 11:20:00 3.4 C 5.86 g/m*3 3.4 C 3.2 km/h
714 10-12-2013 11:25:00 3.5 C 5.9 g/m*3 3.5 C 3.2 km/h
715 10-12-2013 11:30:00 3.5 C 5.9 g/m*3 3.5 C 3.2 km/h
716 10-12-2013 11:35:00 3.6 C 5.94 g/m*3 3.6 C 4.8 km/h
717 10-12-2013 11:40:00 3.7 C 5.98 g/m*3 3.7 C 4.8 km/h
718 10-12-2013 11:45:00 3.7 C 5.98 g/m*3 3.7 C 4.8 km/h
719 10-12-2013 11:50:00 3.8 C 6.02 g/m*3 3.8 C 1.6 km/h
720 10-12-2013 11:55:00 3.8 C 6.02 g/m*3 3.8 C 1.6 km/h
721 10-12-2013 12:00:00 3.9 C 6.06 g/m*3 3.9 C 0 km/h
722 10-12-2013 12:05:00 4 C 6.1 g/m*3 4 C 3.2 km/h
723 10-12-2013 12:10:00 4.1 C 6.14 g/m*3 4.1 C 4.8 km/h
724 10-12-2013 12:15:00 4.2 C 6.19 g/m*3 4.2 C 4.8 km/h
725 10-12-2013 12:20:00 4.2 C 6.19 g/m*3 4.2 C 3.2 km/h
Sensor: Nr:Datum:Temp:Abs-Feuchte:Windchill:Wind:
Aussen-T/F 726 10-12-2013 12:25:00 4.4 C 6.2 g/m*3 4.4 C 3.2 km/h
727 10-12-2013 12:30:00 4.5 C 6.31 g/m*3 4.5 C 3.2 km/h
728 10-12-2013 12:35:00 4.6 C 6.29 g/m*3 2.64 C 8.1 km/h
729 10-12-2013 12:40:00 4.6 C 6.29 g/m*3 4.6 C 4.8 km/h
730 10-12-2013 12:45:00 4.6 C 6.29 g/m*3 4.6 C 4.8 km/h
731 10-12-2013 12:50:00 4.6 C 6.29 g/m*3 4.6 C 3.2 km/h
732 10-12-2013 12:55:00 4.6 C 6.29 g/m*3 4.6 C 4.8 km/h
733 10-12-2013 13:00:00 4.6 C 6.29 g/m*3 3.13 C 6.4 km/h
734 10-12-2013 13:05:00 4.7 C 6.26 g/m*3 4.7 C 3.2 km/h
735 10-12-2013 13:10:00 4.7 C 6.33 g/m*3 4.7 C 1.6 km/h
736 10-12-2013 13:15:00 4.8 C 6.37 g/m*3 4.8 C 1.6 km/h
737 10-12-2013 13:20:00 4.8 C 6.3 g/m*3 4.8 C 0 km/h
738 10-12-2013 13:25:00 4.9 C 6.35 g/m*3 4.9 C 1.6 km/h
739 10-12-2013 13:30:00 4.9 C 6.35 g/m*3 4.9 C 3.2 km/h
740 10-12-2013 13:35:00 5 C 6.39 g/m*3 5 C 1.6 km/h
741 10-12-2013 13:40:00 5.1 C 6.43 g/m*3 5.1 C 4.8 km/h
742 10-12-2013 13:45:00 5.1 C 6.43 g/m*3 5.1 C 3.2 km/h
743 10-12-2013 13:50:00 5.2 C 6.47 g/m*3 5.2 C 3.2 km/h
744 10-12-2013 13:55:00 5.3 C 6.52 g/m*3 5.3 C 1.6 km/h
745 10-12-2013 14:00:00 5.3 C 6.45 g/m*3 5.3 C 3.2 km/h
746 10-12-2013 14:05:00 5.3 C 6.45 g/m*3 5.3 C 3.2 km/h
747 10-12-2013 14:10:00 5.4 C 6.49 g/m*3 5.4 C 1.6 km/h
748 10-12-2013 14:15:00 5.5 C 6.53 g/m*3 5.5 C 0 km/h
749 10-12-2013 14:20:00 5.6 C 6.57 g/m*3 5.6 C 0 km/h
750 10-12-2013 14:25:00 5.6 C 6.57 g/m*3 5.6 C 0 km/h
Sensor: Nr:Datum:Temp:Abs-Feuchte:Windchill:Wind:
Aussen-T/F 751 10-12-2013 14:30:00 5.7 C 6.62 g/m*3 5.7 C 0 km/h
752 10-12-2013 14:35:00 5.7 C 6.62 g/m*3 5.7 C 0 km/h
753 10-12-2013 14:40:00 5.8 C 6.66 g/m*3 5.8 C 0 km/h
754 10-12-2013 14:45:00 5.8 C 6.66 g/m*3 5.8 C 0 km/h
755 10-12-2013 14:50:00 5.8 C 6.59 g/m*3 5.8 C 0 km/h
756 10-12-2013 14:55:00 5.8 C 6.59 g/m*3 5.8 C 0 km/h
757 10-12-2013 15:00:00 5.8 C 6.59 g/m*3 5.8 C 0 km/h
758 10-12-2013 15:05:00 5.7 C 6.55 g/m*3 5.7 C 0 km/h
759 10-12-2013 15:10:00 5.6 C 6.5 g/m*3 5.6 C 0 km/h
760 10-12-2013 15:15:00 5.4 C 6.42 g/m*3 5.4 C 0 km/h
761 10-12-2013 15:20:00 5.2 C 6.4 g/m*3 5.2 C 0 km/h
762 10-12-2013 15:25:00 5.2 C 6.4 g/m*3 5.2 C 1.6 km/h
763 10-12-2013 15:30:00 5.1 C 6.36 g/m*3 5.1 C 0 km/h
764 10-12-2013 15:35:00 4.9 C 6.35 g/m*3 4.9 C 0 km/h
765 10-12-2013 15:40:00 4.8 C 6.3 g/m*3 4.8 C 0 km/h
766 10-12-2013 15:45:00 4.8 C 6.3 g/m*3 4.8 C 0 km/h
767 10-12-2013 15:50:00 4.8 C 6.3 g/m*3 4.8 C 0 km/h
768 10-12-2013 15:55:00 4.7 C 6.33 g/m*3 4.7 C 1.6 km/h
769 10-12-2013 16:00:00 4.7 C 6.33 g/m*3 4.7 C 0 km/h
770 10-12-2013 16:05:00 4.7 C 6.33 g/m*3 4.7 C 0 km/h
771 10-12-2013 16:10:00 4.7 C 6.33 g/m*3 4.7 C 0 km/h
772 10-12-2013 16:15:00 4.7 C 6.33 g/m*3 4.7 C 0 km/h
773 10-12-2013 16:20:00 4.7 C 6.33 g/m*3 4.7 C 0 km/h
774 10-12-2013 16:25:00 4.6 C 6.29 g/m*3 4.6 C 0 km/h
775 10-12-2013 16:30:00 4.5 C 6.24 g/m*3 4.5 C 1.6 km/h
Sensor: Nr:Datum:Temp:Abs-Feuchte:Windchill:Wind:
Aussen-T/F 776 10-12-2013 16:35:00 4.4 C 6.2 g/m*3 4.4 C 0 km/h
777 10-12-2013 16:40:00 4.4 C 6.2 g/m*3 4.4 C 0 km/h
778 10-12-2013 16:45:00 4.4 C 6.2 g/m*3 4.4 C 0 km/h
779 10-12-2013 16:50:00 4.4 C 6.27 g/m*3 4.4 C 0 km/h
780 10-12-2013 16:55:00 4.4 C 6.27 g/m*3 4.4 C 0 km/h
781 10-12-2013 17:00:00 4.5 C 6.31 g/m*3 4.5 C 0 km/h
782 10-12-2013 17:05:00 4.5 C 6.31 g/m*3 4.5 C 0 km/h
783 10-12-2013 17:10:00 4.6 C 6.35 g/m*3 4.6 C 0 km/h
784 10-12-2013 17:15:00 4.7 C 6.39 g/m*3 4.7 C 0 km/h
785 10-12-2013 17:20:00 4.7 C 6.39 g/m*3 4.7 C 0 km/h
786 10-12-2013 17:25:00 4.7 C 6.39 g/m*3 4.7 C 0 km/h
787 10-12-2013 17:30:00 4.7 C 6.39 g/m*3 4.7 C 0 km/h
788 10-12-2013 17:35:00 4.7 C 6.39 g/m*3 4.7 C 1.6 km/h
789 10-12-2013 17:40:00 4.7 C 6.39 g/m*3 4.7 C 0 km/h
790 10-12-2013 17:45:00 4.8 C 6.44 g/m*3 4.8 C 0 km/h
791 10-12-2013 17:50:00 4.8 C 6.44 g/m*3 4.8 C 0 km/h
792 10-12-2013 17:55:00 4.8 C 6.44 g/m*3 4.8 C 0 km/h
793 10-12-2013 18:00:00 4.7 C 6.39 g/m*3 4.7 C 0 km/h
794 10-12-2013 18:05:00 4.8 C 6.44 g/m*3 4.8 C 0 km/h
795 10-12-2013 18:10:00 4.8 C 6.44 g/m*3 4.8 C 0 km/h
796 10-12-2013 18:15:00 4.8 C 6.44 g/m*3 4.8 C 0 km/h
797 10-12-2013 18:20:00 4.8 C 6.44 g/m*3 4.8 C 0 km/h
798 10-12-2013 18:25:00 4.8 C 6.44 g/m*3 4.8 C 0 km/h
799 10-12-2013 18:30:00 4.8 C 6.44 g/m*3 4.8 C 0 km/h
800 10-12-2013 18:35:00 4.8 C 6.44 g/m*3 4.8 C 0 km/h
Sensor: Nr:Datum:Temp:Abs-Feuchte:Windchill:Wind:
Aussen-T/F 801 10-12-2013 18:40:00 4.8 C 6.44 g/m*3 4.8 C 0 km/h
802 10-12-2013 18:45:00 4.8 C 6.44 g/m*3 4.8 C 0 km/h
803 10-12-2013 18:50:00 4.9 C 6.48 g/m*3 4.9 C 0 km/h
804 10-12-2013 18:55:00 4.9 C 6.48 g/m*3 4.9 C 0 km/h
805 10-12-2013 19:00:00 4.9 C 6.48 g/m*3 4.9 C 0 km/h
806 10-12-2013 19:05:00 4.9 C 6.48 g/m*3 4.9 C 0 km/h
807 10-12-2013 19:10:00 4.9 C 6.48 g/m*3 4.9 C 0 km/h
808 10-12-2013 19:15:00 4.9 C 6.48 g/m*3 4.9 C 0 km/h
809 10-12-2013 19:20:00 4.9 C 6.48 g/m*3 4.9 C 0 km/h
810 10-12-2013 19:25:00 4.9 C 6.48 g/m*3 4.9 C 0 km/h
811 10-12-2013 19:30:00 4.9 C 6.48 g/m*3 4.9 C 0 km/h
812 10-12-2013 19:35:00 4.9 C 6.48 g/m*3 4.9 C 0 km/h
813 10-12-2013 19:40:00 4.9 C 6.48 g/m*3 4.9 C 0 km/h
814 10-12-2013 19:45:00 4.9 C 6.48 g/m*3 4.9 C 0 km/h
815 10-12-2013 19:50:00 4.9 C 6.48 g/m*3 4.9 C 0 km/h
816 10-12-2013 19:55:00 4.9 C 6.48 g/m*3 4.9 C 0 km/h
817 10-12-2013 20:00:00 4.9 C 6.48 g/m*3 4.9 C 0 km/h
818 10-12-2013 20:05:00 4.9 C 6.48 g/m*3 4.9 C 0 km/h
819 10-12-2013 20:10:00 4.9 C 6.48 g/m*3 4.9 C 0 km/h
820 10-12-2013 20:15:00 4.9 C 6.48 g/m*3 4.9 C 0 km/h
821 10-12-2013 20:20:00 4.9 C 6.48 g/m*3 4.9 C 0 km/h
822 10-12-2013 20:25:00 4.9 C 6.48 g/m*3 4.9 C 0 km/h
823 10-12-2013 20:30:00 4.9 C 6.48 g/m*3 4.9 C 0 km/h
824 10-12-2013 20:35:00 4.8 C 6.44 g/m*3 4.8 C 0 km/h
825 10-12-2013 20:40:00 4.8 C 6.44 g/m*3 4.8 C 0 km/h
Sensor: Nr:Datum:Temp:Abs-Feuchte:Windchill:Wind:
Aussen-T/F 826 10-12-2013 20:45:00 4.8 C 6.44 g/m*3 4.8 C 0 km/h
827 10-12-2013 20:50:00 4.8 C 6.44 g/m*3 4.8 C 0 km/h
828 10-12-2013 20:55:00 4.7 C 6.39 g/m*3 4.7 C 0 km/h
829 10-12-2013 21:00:00 4.8 C 6.44 g/m*3 4.8 C 0 km/h
830 10-12-2013 21:05:00 4.7 C 6.39 g/m*3 4.7 C 0 km/h
831 10-12-2013 21:10:00 4.7 C 6.39 g/m*3 4.7 C 1.6 km/h
832 10-12-2013 21:15:00 4.6 C 6.35 g/m*3 4.6 C 0 km/h
833 10-12-2013 21:20:00 4.4 C 6.27 g/m*3 4.4 C 1.6 km/h
834 10-12-2013 21:25:00 4.3 C 6.23 g/m*3 4.3 C 1.6 km/h
835 10-12-2013 21:30:00 4.2 C 6.19 g/m*3 4.2 C 3.2 km/h
836 10-12-2013 21:35:00 4.2 C 6.19 g/m*3 4.2 C 3.2 km/h
837 10-12-2013 21:40:00 4.1 C 6.14 g/m*3 4.1 C 0 km/h
838 10-12-2013 21:45:00 4.1 C 6.14 g/m*3 4.1 C 3.2 km/h
839 10-12-2013 21:50:00 4 C 6.1 g/m*3 4 C 3.2 km/h
840 10-12-2013 21:55:00 3.9 C 6.06 g/m*3 3.9 C 1.6 km/h
841 10-12-2013 22:00:00 3.9 C 6.06 g/m*3 3.9 C 1.6 km/h
842 10-12-2013 22:05:00 3.9 C 6.06 g/m*3 3.9 C 1.6 km/h
843 10-12-2013 22:10:00 3.8 C 6.02 g/m*3 3.8 C 3.2 km/h
844 10-12-2013 22:15:00 3.8 C 6.02 g/m*3 3.8 C 3.2 km/h
845 10-12-2013 22:20:00 3.7 C 5.98 g/m*3 3.7 C 4.8 km/h
846 10-12-2013 22:25:00 3.6 C 5.94 g/m*3 3.6 C 3.2 km/h
847 10-12-2013 22:30:00 3.6 C 5.94 g/m*3 3.6 C 1.6 km/h
848 10-12-2013 22:35:00 3.6 C 6 g/m*3 3.6 C 3.2 km/h
849 10-12-2013 22:40:00 3.6 C 6 g/m*3 3.6 C 3.2 km/h
850 10-12-2013 22:45:00 3.5 C 5.96 g/m*3 3.5 C 3.2 km/h
Sensor: Nr:Datum:Temp:Abs-Feuchte:Windchill:Wind:
Aussen-T/F 851 10-12-2013 22:50:00 3.4 C 5.92 g/m*3 3.4 C 3.2 km/h
852 10-12-2013 22:55:00 3.4 C 5.92 g/m*3 3.4 C 3.2 km/h
853 10-12-2013 23:00:00 3.3 C 5.88 g/m*3 3.3 C 3.2 km/h
854 10-12-2013 23:05:00 3.3 C 5.88 g/m*3 3.3 C 1.6 km/h
855 10-12-2013 23:10:00 3.3 C 5.88 g/m*3 3.3 C 3.2 km/h
856 10-12-2013 23:15:00 3.3 C 5.88 g/m*3 3.3 C 0 km/h
857 10-12-2013 23:20:00 3.3 C 5.88 g/m*3 3.3 C 4.8 km/h
858 10-12-2013 23:25:00 3.3 C 5.88 g/m*3 3.3 C 3.2 km/h
859 10-12-2013 23:30:00 3.3 C 5.88 g/m*3 1.63 C 6.4 km/h
860 10-12-2013 23:35:00 3.2 C 5.85 g/m*3 3.2 C 4.8 km/h
861 10-12-2013 23:40:00 3.2 C 5.85 g/m*3 3.2 C 3.2 km/h
862 10-12-2013 23:45:00 3.2 C 5.85 g/m*3 3.2 C 1.6 km/h
863 10-12-2013 23:50:00 3.2 C 5.85 g/m*3 3.2 C 4.8 km/h
864 10-12-2013 23:55:00 3.2 C 5.85 g/m*3 3.2 C 1.6 km/h
865 11-12-2013 00:00:00 3.2 C 5.85 g/m*3 3.2 C 0 km/h
866 11-12-2013 00:05:00 3.1 C 5.81 g/m*3 3.1 C 3.2 km/h
867 11-12-2013 00:10:00 3.1 C 5.81 g/m*3 3.1 C 3.2 km/h
868 11-12-2013 00:15:00 3.1 C 5.81 g/m*3 3.1 C 0 km/h
869 11-12-2013 00:20:00 3.1 C 5.81 g/m*3 3.1 C 1.6 km/h
870 11-12-2013 00:25:00 3.1 C 5.81 g/m*3 3.1 C 1.6 km/h
871 11-12-2013 00:30:00 3 C 5.77 g/m*3 3 C 3.2 km/h
872 11-12-2013 00:35:00 3 C 5.77 g/m*3 3 C 4.8 km/h
873 11-12-2013 00:40:00 3 C 5.77 g/m*3 3 C 3.2 km/h
874 11-12-2013 00:45:00 2.9 C 5.73 g/m*3 2.9 C 3.2 km/h
875 11-12-2013 00:50:00 2.9 C 5.73 g/m*3 2.9 C 3.2 km/h
Sensor: Nr:Datum:Temp:Abs-Feuchte:Windchill:Wind:
Aussen-T/F 876 11-12-2013 00:55:00 2.9 C 5.73 g/m*3 2.9 C 3.2 km/h
877 11-12-2013 01:00:00 2.9 C 5.73 g/m*3 2.9 C 0 km/h
878 11-12-2013 01:05:00 2.9 C 5.73 g/m*3 2.9 C 3.2 km/h
879 11-12-2013 01:10:00 2.9 C 5.73 g/m*3 2.9 C 4.8 km/h
880 11-12-2013 01:15:00 2.8 C 5.69 g/m*3 1.05 C 6.4 km/h
881 11-12-2013 01:20:00 2.8 C 5.69 g/m*3 1.05 C 6.4 km/h
882 11-12-2013 01:25:00 2.8 C 5.75 g/m*3 1.05 C 6.4 km/h
883 11-12-2013 01:30:00 2.7 C 5.71 g/m*3 0.94 C 6.4 km/h
884 11-12-2013 01:35:00 2.7 C 5.71 g/m*3 2.7 C 3.2 km/h
885 11-12-2013 01:40:00 2.7 C 5.65 g/m*3 2.7 C 1.6 km/h
886 11-12-2013 01:45:00 2.7 C 5.65 g/m*3 2.7 C 0 km/h
887 11-12-2013 01:50:00 2.8 C 5.69 g/m*3 2.8 C 3.2 km/h
888 11-12-2013 01:55:00 2.8 C 5.69 g/m*3 2.8 C 1.6 km/h
889 11-12-2013 02:00:00 2.7 C 5.65 g/m*3 2.7 C 4.8 km/h
890 11-12-2013 02:05:00 2.7 C 5.65 g/m*3 0.94 C 6.4 km/h
891 11-12-2013 02:10:00 2.6 C 5.67 g/m*3 2.6 C 4.8 km/h
892 11-12-2013 02:15:00 2.5 C 5.63 g/m*3 2.5 C 1.6 km/h
893 11-12-2013 02:20:00 2.6 C 5.67 g/m*3 2.6 C 4.8 km/h
894 11-12-2013 02:25:00 2.6 C 5.67 g/m*3 2.6 C 3.2 km/h
895 11-12-2013 02:30:00 2.6 C 5.67 g/m*3 2.6 C 0 km/h
896 11-12-2013 02:35:00 2.5 C 5.63 g/m*3 2.5 C 1.6 km/h
897 11-12-2013 02:40:00 2.4 C 5.6 g/m*3 2.4 C 4.8 km/h
898 11-12-2013 02:45:00 2.4 C 5.54 g/m*3 0.59 C 6.4 km/h
899 11-12-2013 02:50:00 2.3 C 5.5 g/m*3 0.47 C 6.4 km/h
900 11-12-2013 02:55:00 2.3 C 5.5 g/m*3 2.3 C 4.8 km/h
Sensor: Nr:Datum:Temp:Abs-Feuchte:Windchill:Wind:
Aussen-T/F 901 11-12-2013 03:00:00 2.3 C 5.5 g/m*3 2.3 C 4.8 km/h
902 11-12-2013 03:05:00 2.2 C 5.52 g/m*3 2.2 C 3.2 km/h
903 11-12-2013 03:10:00 2.2 C 5.52 g/m*3 2.2 C 0 km/h
904 11-12-2013 03:15:00 2.2 C 5.52 g/m*3 2.2 C 1.6 km/h
905 11-12-2013 03:20:00 2.2 C 5.52 g/m*3 2.2 C 0 km/h
906 11-12-2013 03:25:00 2.3 C 5.56 g/m*3 2.3 C 3.2 km/h
907 11-12-2013 03:30:00 2.3 C 5.56 g/m*3 2.3 C 1.6 km/h
908 11-12-2013 03:35:00 2.3 C 5.56 g/m*3 2.3 C 3.2 km/h
909 11-12-2013 03:40:00 2.3 C 5.56 g/m*3 0.47 C 6.4 km/h
910 11-12-2013 03:45:00 2.2 C 5.52 g/m*3 2.2 C 4.8 km/h
911 11-12-2013 03:50:00 2.2 C 5.52 g/m*3 2.2 C 4.8 km/h
912 11-12-2013 03:55:00 2.2 C 5.52 g/m*3 2.2 C 3.2 km/h
913 11-12-2013 04:00:00 2.2 C 5.52 g/m*3 2.2 C 3.2 km/h
914 11-12-2013 04:05:00 2.2 C 5.52 g/m*3 2.2 C 1.6 km/h
915 11-12-2013 04:10:00 2.3 C 5.56 g/m*3 2.3 C 1.6 km/h
916 11-12-2013 04:15:00 2.3 C 5.56 g/m*3 2.3 C 3.2 km/h
917 11-12-2013 04:20:00 2.3 C 5.56 g/m*3 2.3 C 4.8 km/h
918 11-12-2013 04:25:00 2.3 C 5.56 g/m*3 2.3 C 1.6 km/h
919 11-12-2013 04:30:00 2.3 C 5.56 g/m*3 2.3 C 1.6 km/h
920 11-12-2013 04:35:00 2.3 C 5.56 g/m*3 2.3 C 4.8 km/h
921 11-12-2013 04:40:00 2.3 C 5.56 g/m*3 2.3 C 1.6 km/h
922 11-12-2013 04:45:00 2.3 C 5.56 g/m*3 2.3 C 1.6 km/h
923 11-12-2013 04:50:00 2.3 C 5.56 g/m*3 2.3 C 4.8 km/h
924 11-12-2013 04:55:00 2.3 C 5.56 g/m*3 2.3 C 4.8 km/h
925 11-12-2013 05:00:00 2.3 C 5.56 g/m*3 0.47 C 6.4 km/h
Sensor: Nr:Datum:Temp:Abs-Feuchte:Windchill:Wind:
Aussen-T/F 926 11-12-2013 05:05:00 2.2 C 5.52 g/m*3 2.2 C 4.8 km/h
927 11-12-2013 05:10:00 2.2 C 5.52 g/m*3 2.2 C 1.6 km/h
928 11-12-2013 05:15:00 2.2 C 5.52 g/m*3 2.2 C 0 km/h
929 11-12-2013 05:20:00 2.3 C 5.56 g/m*3 2.3 C 3.2 km/h
930 11-12-2013 05:25:00 2.3 C 5.56 g/m*3 2.3 C 4.8 km/h
931 11-12-2013 05:30:00 2.3 C 5.56 g/m*3 2.3 C 3.2 km/h
932 11-12-2013 05:35:00 2.3 C 5.56 g/m*3 2.3 C 3.2 km/h
933 11-12-2013 05:40:00 2.3 C 5.56 g/m*3 2.3 C 3.2 km/h
934 11-12-2013 05:45:00 2.3 C 5.56 g/m*3 2.3 C 4.8 km/h
935 11-12-2013 05:50:00 2.3 C 5.56 g/m*3 2.3 C 3.2 km/h
936 11-12-2013 05:55:00 2.3 C 5.56 g/m*3 2.3 C 3.2 km/h
937 11-12-2013 06:00:00 2.3 C 5.56 g/m*3 2.3 C 4.8 km/h
938 11-12-2013 06:05:00 2.3 C 5.56 g/m*3 2.3 C 4.8 km/h
939 11-12-2013 06:10:00 2.3 C 5.56 g/m*3 -0.07 C 8.1 km/h
940 11-12-2013 06:15:00 2.2 C 5.52 g/m*3 -0.18 C 8.1 km/h
941 11-12-2013 06:20:00 2.2 C 5.52 g/m*3 2.2 C 4.8 km/h
942 11-12-2013 06:25:00 2.2 C 5.52 g/m*3 2.2 C 4.8 km/h
943 11-12-2013 06:30:00 2.2 C 5.52 g/m*3 2.2 C 4.8 km/h
944 11-12-2013 06:35:00 2.2 C 5.52 g/m*3 2.2 C 3.2 km/h
945 11-12-2013 06:40:00 2.2 C 5.52 g/m*3 2.2 C 4.8 km/h
946 11-12-2013 06:45:00 2.2 C 5.52 g/m*3 2.2 C 0 km/h
947 11-12-2013 06:50:00 2.3 C 5.56 g/m*3 0.47 C 6.4 km/h
948 11-12-2013 06:55:00 2.3 C 5.56 g/m*3 2.3 C 4.8 km/h
949 11-12-2013 07:00:00 2.3 C 5.56 g/m*3 2.3 C 3.2 km/h
950 11-12-2013 07:05:00 2.3 C 5.56 g/m*3 2.3 C 4.8 km/h
Sensor: Nr:Datum:Temp:Abs-Feuchte:Windchill:Wind:
Aussen-T/F 951 11-12-2013 07:10:00 2.3 C 5.56 g/m*3 2.3 C 3.2 km/h
952 11-12-2013 07:15:00 2.3 C 5.56 g/m*3 2.3 C 3.2 km/h
953 11-12-2013 07:20:00 2.3 C 5.56 g/m*3 2.3 C 1.6 km/h
954 11-12-2013 07:25:00 2.3 C 5.56 g/m*3 2.3 C 1.6 km/h
955 11-12-2013 07:30:00 2.3 C 5.56 g/m*3 2.3 C 4.8 km/h
956 11-12-2013 07:35:00 2.3 C 5.56 g/m*3 2.3 C 4.8 km/h
957 11-12-2013 07:40:00 2.3 C 5.56 g/m*3 2.3 C 3.2 km/h
958 11-12-2013 07:45:00 2.3 C 5.56 g/m*3 0.47 C 6.4 km/h
959 11-12-2013 07:50:00 2.3 C 5.56 g/m*3 -0.07 C 8.1 km/h
960 11-12-2013 07:55:00 2.2 C 5.52 g/m*3 0.36 C 6.4 km/h
961 11-12-2013 08:00:00 2.2 C 5.52 g/m*3 2.2 C 0 km/h
962 11-12-2013 08:05:00 2.3 C 5.56 g/m*3 2.3 C 3.2 km/h
963 11-12-2013 08:10:00 2.3 C 5.56 g/m*3 2.3 C 3.2 km/h
964 11-12-2013 08:15:00 2.3 C 5.56 g/m*3 2.3 C 1.6 km/h
965 11-12-2013 08:20:00 2.3 C 5.56 g/m*3 2.3 C 4.8 km/h
966 11-12-2013 08:25:00 2.4 C 5.6 g/m*3 0.59 C 6.4 km/h
967 11-12-2013 08:30:00 2.4 C 5.6 g/m*3 0.05 C 8.1 km/h
968 11-12-2013 08:35:00 2.3 C 5.56 g/m*3 0.47 C 6.4 km/h
969 11-12-2013 08:40:00 2.4 C 5.6 g/m*3 0.05 C 8.1 km/h
970 11-12-2013 08:45:00 2.4 C 5.6 g/m*3 2.4 C 4.8 km/h
971 11-12-2013 08:50:00 2.4 C 5.6 g/m*3 2.4 C 3.2 km/h
972 11-12-2013 08:55:00 2.4 C 5.6 g/m*3 2.4 C 3.2 km/h
973 11-12-2013 09:00:00 2.5 C 5.63 g/m*3 2.5 C 4.8 km/h
974 11-12-2013 09:05:00 2.4 C 5.6 g/m*3 0.59 C 6.4 km/h
975 11-12-2013 09:10:00 2.4 C 5.6 g/m*3 0.59 C 6.4 km/h
Sensor: Nr:Datum:Temp:Abs-Feuchte:Windchill:Wind:
Aussen-T/F 976 11-12-2013 09:15:00 2.4 C 5.6 g/m*3 2.4 C 4.8 km/h
977 11-12-2013 09:20:00 2.4 C 5.6 g/m*3 2.4 C 4.8 km/h
978 11-12-2013 09:25:00 2.4 C 5.6 g/m*3 0.59 C 6.4 km/h
979 11-12-2013 09:30:00 2.4 C 5.6 g/m*3 0.59 C 6.4 km/h
980 11-12-2013 09:35:00 2.5 C 5.63 g/m*3 2.5 C 3.2 km/h
981 11-12-2013 09:40:00 2.5 C 5.63 g/m*3 2.5 C 1.6 km/h
982 11-12-2013 09:45:00 2.6 C 5.67 g/m*3 2.6 C 4.8 km/h
983 11-12-2013 09:50:00 2.6 C 5.67 g/m*3 2.6 C 1.6 km/h
984 11-12-2013 09:55:00 2.6 C 5.67 g/m*3 2.6 C 4.8 km/h
985 11-12-2013 10:00:00 2.6 C 5.67 g/m*3 2.6 C 4.8 km/h
986 11-12-2013 10:05:00 2.6 C 5.67 g/m*3 2.6 C 4.8 km/h
987 11-12-2013 10:10:00 2.6 C 5.67 g/m*3 2.6 C 3.2 km/h
988 11-12-2013 10:15:00 2.7 C 5.71 g/m*3 2.7 C 3.2 km/h
989 11-12-2013 10:20:00 2.7 C 5.71 g/m*3 2.7 C 4.8 km/h
990 11-12-2013 10:25:00 2.7 C 5.71 g/m*3 2.7 C 3.2 km/h
991 11-12-2013 10:30:00 2.8 C 5.75 g/m*3 2.8 C 4.8 km/h
992 11-12-2013 10:35:00 2.9 C 5.79 g/m*3 2.9 C 4.8 km/h
993 11-12-2013 10:40:00 2.9 C 5.79 g/m*3 2.9 C 4.8 km/h
994 11-12-2013 10:45:00 2.9 C 5.79 g/m*3 2.9 C 4.8 km/h
995 11-12-2013 10:50:00 2.9 C 5.79 g/m*3 2.9 C 4.8 km/h
996 11-12-2013 10:55:00 3 C 5.83 g/m*3 3 C 4.8 km/h
997 11-12-2013 11:00:00 3 C 5.77 g/m*3 1.28 C 6.4 km/h
998 11-12-2013 11:05:00 3.1 C 5.87 g/m*3 3.1 C 4.8 km/h
999 11-12-2013 11:10:00 3.1 C 5.87 g/m*3 3.1 C 3.2 km/h
1000 11-12-2013 11:15:00 3.2 C 5.85 g/m*3 0.58 C 9.7 km/h
Sensor: Nr:Datum:Temp:Abs-Feuchte:Windchill:Wind:
Aussen-T/F 1001 11-12-2013 11:20:00 3.2 C 5.85 g/m*3 1.51 C 6.4 km/h
1002 11-12-2013 11:25:00 3.2 C 5.85 g/m*3 3.2 C 4.8 km/h
1003 11-12-2013 11:30:00 3.3 C 5.88 g/m*3 1.63 C 6.4 km/h
1004 11-12-2013 11:35:00 3.3 C 5.88 g/m*3 3.3 C 4.8 km/h
1005 11-12-2013 11:40:00 3.3 C 5.88 g/m*3 3.3 C 4.8 km/h
1006 11-12-2013 11:45:00 3.4 C 5.92 g/m*3 3.4 C 4.8 km/h
1007 11-12-2013 11:50:00 3.4 C 5.92 g/m*3 3.4 C 4.8 km/h
1008 11-12-2013 11:55:00 3.4 C 5.92 g/m*3 3.4 C 4.8 km/h
1009 11-12-2013 12:00:00 3.5 C 5.96 g/m*3 3.5 C 3.2 km/h
1010 11-12-2013 12:05:00 3.6 C 6 g/m*3 3.6 C 1.6 km/h
1011 11-12-2013 12:10:00 3.7 C 6.04 g/m*3 3.7 C 1.6 km/h
1012 11-12-2013 12:15:00 3.8 C 6.09 g/m*3 3.8 C 3.2 km/h
1013 11-12-2013 12:20:00 3.8 C 6.09 g/m*3 3.8 C 4.8 km/h
1014 11-12-2013 12:25:00 3.8 C 6.09 g/m*3 3.8 C 3.2 km/h
1015 11-12-2013 12:30:00 3.8 C 6.09 g/m*3 3.8 C 1.6 km/h
1016 11-12-2013 12:35:00 3.9 C 6.13 g/m*3 3.9 C 3.2 km/h
1017 11-12-2013 12:40:00 3.9 C 6.06 g/m*3 3.9 C 1.6 km/h
1018 11-12-2013 12:45:00 4 C 6.1 g/m*3 4 C 1.6 km/h
1019 11-12-2013 12:50:00 4.1 C 6.21 g/m*3 4.1 C 3.2 km/h
1020 11-12-2013 12:55:00 4.1 C 6.14 g/m*3 4.1 C 4.8 km/h
1021 11-12-2013 13:00:00 4.1 C 6.14 g/m*3 4.1 C 3.2 km/h
1022 11-12-2013 13:05:00 4.2 C 6.19 g/m*3 4.2 C 4.8 km/h
1023 11-12-2013 13:10:00 4.2 C 6.19 g/m*3 4.2 C 3.2 km/h
1024 11-12-2013 13:15:00 4.2 C 6.19 g/m*3 4.2 C 0 km/h
1025 11-12-2013 13:20:00 4.3 C 6.23 g/m*3 4.3 C 1.6 km/h
Sensor: Nr:Datum:Temp:Abs-Feuchte:Windchill:Wind:
Aussen-T/F 1026 11-12-2013 13:25:00 4.3 C 6.23 g/m*3 4.3 C 0 km/h
1027 11-12-2013 13:30:00 4.4 C 6.27 g/m*3 4.4 C 0 km/h
1028 11-12-2013 13:35:00 4.4 C 6.27 g/m*3 4.4 C 0 km/h
1029 11-12-2013 13:40:00 4.5 C 6.31 g/m*3 4.5 C 1.6 km/h
1030 11-12-2013 13:45:00 4.6 C 6.35 g/m*3 4.6 C 0 km/h
1031 11-12-2013 13:50:00 4.6 C 6.35 g/m*3 4.6 C 0 km/h
1032 11-12-2013 13:55:00 4.7 C 6.39 g/m*3 4.7 C 0 km/h
1033 11-12-2013 14:00:00 4.7 C 6.39 g/m*3 4.7 C 1.6 km/h
1034 11-12-2013 14:05:00 4.7 C 6.39 g/m*3 4.7 C 3.2 km/h
1035 11-12-2013 14:10:00 4.7 C 6.39 g/m*3 4.7 C 0 km/h
1036 11-12-2013 14:15:00 4.7 C 6.39 g/m*3 4.7 C 1.6 km/h
1037 11-12-2013 14:20:00 4.7 C 6.39 g/m*3 4.7 C 1.6 km/h
1038 11-12-2013 14:25:00 4.7 C 6.39 g/m*3 4.7 C 1.6 km/h
1039 11-12-2013 14:30:00 4.7 C 6.39 g/m*3 4.7 C 0 km/h
1040 11-12-2013 14:35:00 4.7 C 6.39 g/m*3 4.7 C 0 km/h
1041 11-12-2013 14:40:00 4.7 C 6.39 g/m*3 4.7 C 0 km/h
1042 11-12-2013 14:45:00 4.8 C 6.44 g/m*3 4.8 C 0 km/h
1043 11-12-2013 14:50:00 4.8 C 6.44 g/m*3 4.8 C 0 km/h
1044 11-12-2013 14:55:00 4.8 C 6.44 g/m*3 4.8 C 0 km/h
1045 11-12-2013 15:00:00 4.8 C 6.44 g/m*3 4.8 C 0 km/h
1046 11-12-2013 15:05:00 4.8 C 6.37 g/m*3 4.8 C 3.2 km/h
1047 11-12-2013 15:10:00 4.8 C 6.44 g/m*3 4.8 C 0 km/h
1048 11-12-2013 15:15:00 4.8 C 6.44 g/m*3 4.8 C 1.6 km/h
1049 11-12-2013 15:20:00 4.8 C 6.44 g/m*3 4.8 C 0 km/h
1050 11-12-2013 15:25:00 4.9 C 6.48 g/m*3 4.9 C 0 km/h
Sensor: Nr:Datum:Temp:Abs-Feuchte:Windchill:Wind:
Aussen-T/F 1051 11-12-2013 15:30:00 4.9 C 6.48 g/m*3 4.9 C 0 km/h
1052 11-12-2013 15:35:00 5 C 6.52 g/m*3 5 C 0 km/h
1053 11-12-2013 15:40:00 5 C 6.52 g/m*3 5 C 0 km/h
1054 11-12-2013 15:45:00 5 C 6.52 g/m*3 5 C 0 km/h
1055 11-12-2013 15:50:00 5.1 C 6.57 g/m*3 5.1 C 0 km/h
1056 11-12-2013 15:55:00 5.1 C 6.57 g/m*3 5.1 C 0 km/h
1057 11-12-2013 16:00:00 5.2 C 6.61 g/m*3 5.2 C 0 km/h
1058 11-12-2013 16:05:00 5.2 C 6.61 g/m*3 5.2 C 0 km/h
1059 11-12-2013 16:10:00 5.2 C 6.61 g/m*3 5.2 C 0 km/h
1060 11-12-2013 16:15:00 5.2 C 6.61 g/m*3 5.2 C 0 km/h
1061 11-12-2013 16:20:00 5.3 C 6.65 g/m*3 5.3 C 0 km/h
1062 11-12-2013 16:25:00 5.3 C 6.65 g/m*3 5.3 C 0 km/h
1063 11-12-2013 16:30:00 5.3 C 6.65 g/m*3 5.3 C 0 km/h
1064 11-12-2013 16:35:00 5.3 C 6.65 g/m*3 5.3 C 0 km/h
1065 11-12-2013 16:40:00 5.3 C 6.65 g/m*3 5.3 C 0 km/h
1066 11-12-2013 16:45:00 5.3 C 6.65 g/m*3 5.3 C 0 km/h
1067 11-12-2013 16:50:00 5.3 C 6.65 g/m*3 5.3 C 0 km/h
1068 11-12-2013 16:55:00 5.4 C 6.7 g/m*3 5.4 C 0 km/h
1069 11-12-2013 17:00:00 5.4 C 6.7 g/m*3 5.4 C 0 km/h
1070 11-12-2013 17:05:00 5.4 C 6.7 g/m*3 5.4 C 1.6 km/h
1071 11-12-2013 17:10:00 5.4 C 6.7 g/m*3 5.4 C 0 km/h
1072 11-12-2013 17:15:00 5.4 C 6.7 g/m*3 5.4 C 3.2 km/h
1073 11-12-2013 17:20:00 5.4 C 6.7 g/m*3 5.4 C 0 km/h
1074 11-12-2013 17:25:00 5.4 C 6.7 g/m*3 5.4 C 0 km/h
1075 11-12-2013 17:30:00 5.4 C 6.7 g/m*3 5.4 C 0 km/h
Sensor: Nr:Datum:Temp:Abs-Feuchte:Windchill:Wind:
Aussen-T/F 1076 11-12-2013 17:35:00 5.5 C 6.74 g/m*3 5.5 C 1.6 km/h
1077 11-12-2013 17:40:00 5.5 C 6.74 g/m*3 5.5 C 0 km/h
1078 11-12-2013 17:45:00 5.5 C 6.74 g/m*3 5.5 C 0 km/h
1079 11-12-2013 17:50:00 5.5 C 6.74 g/m*3 5.5 C 0 km/h
1080 11-12-2013 17:55:00 5.5 C 6.74 g/m*3 5.5 C 0 km/h
1081 11-12-2013 18:00:00 5.5 C 6.74 g/m*3 5.5 C 0 km/h
1082 11-12-2013 18:05:00 5.5 C 6.74 g/m*3 5.5 C 0 km/h
1083 11-12-2013 18:10:00 5.4 C 6.7 g/m*3 5.4 C 0 km/h
1084 11-12-2013 18:15:00 5.4 C 6.7 g/m*3 5.4 C 0 km/h
1085 11-12-2013 18:20:00 5.4 C 6.7 g/m*3 5.4 C 0 km/h
1086 11-12-2013 18:25:00 5.4 C 6.7 g/m*3 5.4 C 0 km/h
1087 11-12-2013 18:30:00 5.4 C 6.63 g/m*3 5.4 C 0 km/h
1088 11-12-2013 18:35:00 5.4 C 6.7 g/m*3 5.4 C 0 km/h
1089 11-12-2013 18:40:00 5.4 C 6.7 g/m*3 5.4 C 0 km/h
1090 11-12-2013 18:45:00 5.4 C 6.7 g/m*3 5.4 C 0 km/h
1091 11-12-2013 18:50:00 5.4 C 6.7 g/m*3 5.4 C 0 km/h
1092 11-12-2013 18:55:00 5.4 C 6.63 g/m*3 5.4 C 1.6 km/h
1093 11-12-2013 19:00:00 5.4 C 6.63 g/m*3 5.4 C 0 km/h
1094 11-12-2013 19:05:00 5.4 C 6.63 g/m*3 5.4 C 0 km/h
1095 11-12-2013 19:10:00 5.3 C 6.58 g/m*3 5.3 C 0 km/h
1096 11-12-2013 19:15:00 5.3 C 6.58 g/m*3 5.3 C 0 km/h
1097 11-12-2013 19:20:00 5.3 C 6.58 g/m*3 5.3 C 1.6 km/h
1098 11-12-2013 19:25:00 5.3 C 6.58 g/m*3 5.3 C 1.6 km/h
1099 11-12-2013 19:30:00 5.3 C 6.58 g/m*3 5.3 C 4.8 km/h
1100 11-12-2013 19:35:00 5.3 C 6.58 g/m*3 5.3 C 4.8 km/h
Sensor: Nr:Datum:Temp:Abs-Feuchte:Windchill:Wind:
Aussen-T/F 1101 11-12-2013 19:40:00 5.3 C 6.58 g/m*3 5.3 C 1.6 km/h
1102 11-12-2013 19:45:00 5.2 C 6.54 g/m*3 5.2 C 1.6 km/h
1103 11-12-2013 19:50:00 5.2 C 6.54 g/m*3 5.2 C 3.2 km/h
1104 11-12-2013 19:55:00 5.2 C 6.54 g/m*3 5.2 C 1.6 km/h
1105 11-12-2013 20:00:00 5.2 C 6.54 g/m*3 5.2 C 3.2 km/h
1106 11-12-2013 20:05:00 5.2 C 6.54 g/m*3 5.2 C 0 km/h
1107 11-12-2013 20:10:00 5.2 C 6.54 g/m*3 5.2 C 0 km/h
1108 11-12-2013 20:15:00 5.2 C 6.54 g/m*3 5.2 C 3.2 km/h
1109 11-12-2013 20:20:00 5.2 C 6.54 g/m*3 5.2 C 3.2 km/h
1110 11-12-2013 20:25:00 5.1 C 6.5 g/m*3 5.1 C 0 km/h
1111 11-12-2013 20:30:00 5.1 C 6.5 g/m*3 5.1 C 1.6 km/h
1112 11-12-2013 20:35:00 5.1 C 6.5 g/m*3 5.1 C 0 km/h
1113 11-12-2013 20:40:00 5.1 C 6.5 g/m*3 5.1 C 0 km/h
1114 11-12-2013 20:45:00 5.1 C 6.43 g/m*3 5.1 C 0 km/h
1115 11-12-2013 20:50:00 5.1 C 6.43 g/m*3 5.1 C 3.2 km/h
1116 11-12-2013 20:55:00 5.1 C 6.43 g/m*3 5.1 C 3.2 km/h
1117 11-12-2013 21:00:00 5.1 C 6.43 g/m*3 3.23 C 8.1 km/h
1118 11-12-2013 21:05:00 5.1 C 6.43 g/m*3 5.1 C 0 km/h
1119 11-12-2013 21:10:00 5 C 6.39 g/m*3 5 C 0 km/h
1120 11-12-2013 21:15:00 5.1 C 6.5 g/m*3 5.1 C 0 km/h
1121 11-12-2013 21:20:00 5 C 6.46 g/m*3 5 C 0 km/h
1122 11-12-2013 21:25:00 5 C 6.46 g/m*3 5 C 0 km/h
1123 11-12-2013 21:30:00 5 C 6.46 g/m*3 5 C 0 km/h
1124 11-12-2013 21:35:00 5 C 6.46 g/m*3 3.59 C 6.4 km/h
1125 11-12-2013 21:40:00 4.9 C 6.35 g/m*3 4.9 C 4.8 km/h
Sensor: Nr:Datum:Temp:Abs-Feuchte:Windchill:Wind:
Aussen-T/F 1126 11-12-2013 21:45:00 4.9 C 6.35 g/m*3 4.9 C 3.2 km/h
1127 11-12-2013 21:50:00 4.9 C 6.35 g/m*3 2.99 C 8.1 km/h
1128 11-12-2013 21:55:00 4.9 C 6.35 g/m*3 4.9 C 1.6 km/h
1129 11-12-2013 22:00:00 4.9 C 6.41 g/m*3 4.9 C 1.6 km/h
1130 11-12-2013 22:05:00 4.9 C 6.41 g/m*3 4.9 C 3.2 km/h
1131 11-12-2013 22:10:00 4.9 C 6.41 g/m*3 4.9 C 3.2 km/h
1132 11-12-2013 22:15:00 4.8 C 6.37 g/m*3 4.8 C 0 km/h
1133 11-12-2013 22:20:00 4.8 C 6.37 g/m*3 4.8 C 1.6 km/h
1134 11-12-2013 22:25:00 4.8 C 6.37 g/m*3 4.8 C 3.2 km/h
1135 11-12-2013 22:30:00 4.8 C 6.37 g/m*3 4.8 C 1.6 km/h
1136 11-12-2013 22:35:00 4.8 C 6.3 g/m*3 2.87 C 8.1 km/h
1137 11-12-2013 22:40:00 4.8 C 6.3 g/m*3 4.8 C 3.2 km/h
1138 11-12-2013 22:45:00 4.8 C 6.3 g/m*3 4.8 C 4.8 km/h
1139 11-12-2013 22:50:00 4.8 C 6.3 g/m*3 4.8 C 3.2 km/h
1140 11-12-2013 22:55:00 4.7 C 6.26 g/m*3 4.7 C 0 km/h
1141 11-12-2013 23:00:00 4.7 C 6.26 g/m*3 4.7 C 3.2 km/h
1142 11-12-2013 23:05:00 4.7 C 6.26 g/m*3 4.7 C 3.2 km/h
1143 11-12-2013 23:10:00 4.7 C 6.26 g/m*3 4.7 C 4.8 km/h
1144 11-12-2013 23:15:00 4.7 C 6.26 g/m*3 2.76 C 8.1 km/h
1145 11-12-2013 23:20:00 4.7 C 6.26 g/m*3 4.7 C 4.8 km/h
1146 11-12-2013 23:25:00 4.7 C 6.26 g/m*3 2.37 C 9.7 km/h
1147 11-12-2013 23:30:00 4.7 C 6.26 g/m*3 4.7 C 4.8 km/h
1148 11-12-2013 23:35:00 4.6 C 6.22 g/m*3 4.6 C 1.6 km/h
1149 11-12-2013 23:40:00 4.6 C 6.22 g/m*3 4.6 C 1.6 km/h
1150 11-12-2013 23:45:00 4.6 C 6.22 g/m*3 4.6 C 4.8 km/h
Sensor: Nr:Datum:Temp:Abs-Feuchte:Windchill:Wind:
Aussen-T/F 1151 11-12-2013 23:50:00 4.6 C 6.22 g/m*3 4.6 C 3.2 km/h
1152 11-12-2013 23:55:00 4.6 C 6.22 g/m*3 4.6 C 0 km/h
1153 12-12-2013 00:00:00 4.6 C 6.22 g/m*3 4.6 C 3.2 km/h
1154 12-12-2013 00:05:00 4.5 C 6.18 g/m*3 4.5 C 0 km/h
1155 12-12-2013 00:10:00 4.5 C 6.18 g/m*3 4.5 C 1.6 km/h
1156 12-12-2013 00:15:00 4.5 C 6.18 g/m*3 4.5 C 0 km/h
1157 12-12-2013 00:20:00 4.5 C 6.18 g/m*3 4.5 C 0 km/h
1158 12-12-2013 00:25:00 4.5 C 6.18 g/m*3 4.5 C 1.6 km/h
1159 12-12-2013 00:30:00 4.4 C 6.14 g/m*3 4.4 C 3.2 km/h
1160 12-12-2013 00:35:00 4.4 C 6.14 g/m*3 4.4 C 1.6 km/h
1161 12-12-2013 00:40:00 4.4 C 6.14 g/m*3 4.4 C 3.2 km/h
1162 12-12-2013 00:45:00 4.4 C 6.14 g/m*3 4.4 C 1.6 km/h
1163 12-12-2013 00:50:00 4.4 C 6.14 g/m*3 4.4 C 0 km/h
1164 12-12-2013 00:55:00 4.4 C 6.14 g/m*3 4.4 C 1.6 km/h
1165 12-12-2013 01:00:00 4.4 C 6.14 g/m*3 4.4 C 0 km/h
1166 12-12-2013 01:05:00 4.4 C 6.14 g/m*3 4.4 C 0 km/h
1167 12-12-2013 01:10:00 4.4 C 6.14 g/m*3 4.4 C 0 km/h
1168 12-12-2013 01:15:00 4.3 C 6.1 g/m*3 4.3 C 4.8 km/h
1169 12-12-2013 01:20:00 4.3 C 6.1 g/m*3 4.3 C 4.8 km/h
1170 12-12-2013 01:25:00 4.3 C 6.1 g/m*3 4.3 C 3.2 km/h
1171 12-12-2013 01:30:00 4.3 C 6.1 g/m*3 4.3 C 3.2 km/h
1172 12-12-2013 01:35:00 4.3 C 6.1 g/m*3 4.3 C 1.6 km/h
1173 12-12-2013 01:40:00 4.3 C 6.1 g/m*3 4.3 C 3.2 km/h
1174 12-12-2013 01:45:00 4.3 C 6.1 g/m*3 2.78 C 6.4 km/h
1175 12-12-2013 01:50:00 4.3 C 6.1 g/m*3 4.3 C 3.2 km/h
Sensor: Nr:Datum:Temp:Abs-Feuchte:Windchill:Wind:
Aussen-T/F 1176 12-12-2013 01:55:00 4.3 C 6.1 g/m*3 4.3 C 4.8 km/h
1177 12-12-2013 02:00:00 4.3 C 6.1 g/m*3 4.3 C 3.2 km/h
1178 12-12-2013 02:05:00 4.3 C 6.1 g/m*3 4.3 C 0 km/h
1179 12-12-2013 02:10:00 4.3 C 6.1 g/m*3 4.3 C 0 km/h
1180 12-12-2013 02:15:00 4.3 C 6.1 g/m*3 4.3 C 3.2 km/h
1181 12-12-2013 02:20:00 4.3 C 6.1 g/m*3 4.3 C 3.2 km/h
1182 12-12-2013 02:25:00 4.3 C 6.1 g/m*3 4.3 C 3.2 km/h
1183 12-12-2013 02:30:00 4.2 C 6.06 g/m*3 4.2 C 1.6 km/h
1184 12-12-2013 02:35:00 4.3 C 6.1 g/m*3 4.3 C 0 km/h
1185 12-12-2013 02:40:00 4.2 C 6.06 g/m*3 4.2 C 0 km/h
1186 12-12-2013 02:45:00 4.2 C 6.06 g/m*3 4.2 C 1.6 km/h
1187 12-12-2013 02:50:00 4.2 C 6.06 g/m*3 4.2 C 3.2 km/h
1188 12-12-2013 02:55:00 4.2 C 6.06 g/m*3 4.2 C 1.6 km/h
1189 12-12-2013 03:00:00 4.3 C 6.16 g/m*3 4.3 C 0 km/h
1190 12-12-2013 03:05:00 4.2 C 6.06 g/m*3 4.2 C 0 km/h
1191 12-12-2013 03:10:00 4.3 C 6.16 g/m*3 4.3 C 0 km/h
1192 12-12-2013 03:15:00 4.3 C 6.16 g/m*3 4.3 C 0 km/h
1193 12-12-2013 03:20:00 4.3 C 6.16 g/m*3 4.3 C 1.6 km/h
1194 12-12-2013 03:25:00 4.3 C 6.1 g/m*3 4.3 C 0 km/h
1195 12-12-2013 03:30:00 4.3 C 6.1 g/m*3 4.3 C 0 km/h
1196 12-12-2013 03:35:00 4.3 C 6.1 g/m*3 4.3 C 0 km/h
1197 12-12-2013 03:40:00 4.3 C 6.1 g/m*3 4.3 C 0 km/h
1198 12-12-2013 03:45:00 4.3 C 6.1 g/m*3 4.3 C 0 km/h
1199 12-12-2013 03:50:00 4.3 C 6.1 g/m*3 4.3 C 0 km/h
1200 12-12-2013 03:55:00 4.3 C 6.1 g/m*3 4.3 C 0 km/h
Sensor: Nr:Datum:Temp:Abs-Feuchte:Windchill:Wind:
Aussen-T/F 1201 12-12-2013 04:00:00 4.3 C 6.1 g/m*3 4.3 C 0 km/h
1202 12-12-2013 04:05:00 4.3 C 6.1 g/m*3 4.3 C 1.6 km/h
1203 12-12-2013 04:10:00 4.3 C 6.1 g/m*3 4.3 C 0 km/h
1204 12-12-2013 04:15:00 4.3 C 6.1 g/m*3 4.3 C 1.6 km/h
1205 12-12-2013 04:20:00 4.3 C 6.1 g/m*3 4.3 C 1.6 km/h
1206 12-12-2013 04:25:00 4.3 C 6.1 g/m*3 4.3 C 3.2 km/h
1207 12-12-2013 04:30:00 4.3 C 6.1 g/m*3 4.3 C 0 km/h
1208 12-12-2013 04:35:00 4.3 C 6.1 g/m*3 4.3 C 0 km/h
1209 12-12-2013 04:40:00 4.3 C 6.1 g/m*3 4.3 C 1.6 km/h
1210 12-12-2013 04:45:00 4.3 C 6.1 g/m*3 4.3 C 3.2 km/h
1211 12-12-2013 04:50:00 4.3 C 6.1 g/m*3 4.3 C 3.2 km/h
1212 12-12-2013 04:55:00 4.3 C 6.1 g/m*3 4.3 C 4.8 km/h
1213 12-12-2013 05:00:00 4.3 C 6.1 g/m*3 2.29 C 8.1 km/h
1214 12-12-2013 05:05:00 4.3 C 6.1 g/m*3 4.3 C 1.6 km/h
1215 12-12-2013 05:10:00 4.3 C 6.1 g/m*3 4.3 C 0 km/h
1216 12-12-2013 05:15:00 4.3 C 6.1 g/m*3 4.3 C 0 km/h
1217 12-12-2013 05:20:00 4.3 C 6.1 g/m*3 4.3 C 0 km/h
1218 12-12-2013 05:25:00 4.2 C 6.06 g/m*3 4.2 C 0 km/h
1219 12-12-2013 05:30:00 4.3 C 6.1 g/m*3 4.3 C 1.6 km/h
1220 12-12-2013 05:35:00 4.3 C 6.1 g/m*3 4.3 C 0 km/h
1221 12-12-2013 05:40:00 4.2 C 6.06 g/m*3 4.2 C 1.6 km/h
1222 12-12-2013 05:45:00 4.3 C 6.1 g/m*3 4.3 C 0 km/h
1223 12-12-2013 05:50:00 4.2 C 6.06 g/m*3 4.2 C 1.6 km/h
1224 12-12-2013 05:55:00 4.2 C 6.06 g/m*3 4.2 C 0 km/h
1225 12-12-2013 06:00:00 4.2 C 6.06 g/m*3 4.2 C 0 km/h
Sensor: Nr:Datum:Temp:Abs-Feuchte:Windchill:Wind:
Aussen-T/F 1226 12-12-2013 06:05:00 4.2 C 6.06 g/m*3 4.2 C 3.2 km/h
1227 12-12-2013 06:10:00 4.2 C 6.06 g/m*3 4.2 C 3.2 km/h
1228 12-12-2013 06:15:00 4.2 C 6.06 g/m*3 4.2 C 1.6 km/h
1229 12-12-2013 06:20:00 4.2 C 6.06 g/m*3 4.2 C 1.6 km/h
1230 12-12-2013 06:25:00 4.1 C 6.02 g/m*3 4.1 C 1.6 km/h
1231 12-12-2013 06:30:00 4.1 C 6.02 g/m*3 4.1 C 1.6 km/h
1232 12-12-2013 06:35:00 4.1 C 6.02 g/m*3 4.1 C 1.6 km/h
1233 12-12-2013 06:40:00 4.1 C 6.02 g/m*3 4.1 C 3.2 km/h
1234 12-12-2013 06:45:00 4.1 C 6.02 g/m*3 2.05 C 8.1 km/h
1235 12-12-2013 06:50:00 4.1 C 6.02 g/m*3 4.1 C 4.8 km/h
1236 12-12-2013 06:55:00 4.1 C 6.02 g/m*3 2.55 C 6.4 km/h
1237 12-12-2013 07:00:00 4.1 C 6.02 g/m*3 4.1 C 0 km/h
1238 12-12-2013 07:05:00 4.1 C 5.95 g/m*3 2.55 C 6.4 km/h
1239 12-12-2013 07:10:00 4.1 C 5.95 g/m*3 2.55 C 6.4 km/h
1240 12-12-2013 07:15:00 4.1 C 5.95 g/m*3 2.55 C 6.4 km/h
1241 12-12-2013 07:20:00 4.1 C 5.95 g/m*3 4.1 C 1.6 km/h
1242 12-12-2013 07:25:00 4 C 5.91 g/m*3 4 C 0 km/h
1243 12-12-2013 07:30:00 4 C 5.91 g/m*3 4 C 4.8 km/h
1244 12-12-2013 07:35:00 4 C 5.91 g/m*3 4 C 0 km/h
1245 12-12-2013 07:40:00 4 C 5.91 g/m*3 4 C 3.2 km/h
1246 12-12-2013 07:45:00 4 C 5.91 g/m*3 4 C 3.2 km/h
1247 12-12-2013 07:50:00 3.9 C 5.87 g/m*3 3.9 C 3.2 km/h
1248 12-12-2013 07:55:00 3.9 C 5.87 g/m*3 3.9 C 3.2 km/h
1249 12-12-2013 08:00:00 3.9 C 5.87 g/m*3 3.9 C 1.6 km/h
1250 12-12-2013 08:05:00 3.9 C 5.87 g/m*3 3.9 C 3.2 km/h
Sensor: Nr:Datum:Temp:Abs-Feuchte:Windchill:Wind:
Aussen-T/F 1251 12-12-2013 08:10:00 3.9 C 5.87 g/m*3 3.9 C 1.6 km/h
1252 12-12-2013 08:15:00 3.9 C 5.87 g/m*3 3.9 C 0 km/h
1253 12-12-2013 08:20:00 3.8 C 5.77 g/m*3 3.8 C 0 km/h
1254 12-12-2013 08:25:00 3.8 C 5.77 g/m*3 3.8 C 0 km/h
1255 12-12-2013 08:30:00 3.8 C 5.77 g/m*3 3.8 C 3.2 km/h
1256 12-12-2013 08:35:00 3.8 C 5.83 g/m*3 3.8 C 4.8 km/h
1257 12-12-2013 08:40:00 3.9 C 5.87 g/m*3 3.9 C 4.8 km/h
1258 12-12-2013 08:45:00 3.8 C 5.77 g/m*3 3.8 C 3.2 km/h
1259 12-12-2013 08:50:00 3.8 C 5.77 g/m*3 3.8 C 4.8 km/h
1260 12-12-2013 08:55:00 3.9 C 5.87 g/m*3 3.9 C 4.8 km/h
1261 12-12-2013 09:00:00 3.9 C 5.87 g/m*3 3.9 C 4.8 km/h
1262 12-12-2013 09:05:00 3.9 C 5.87 g/m*3 2.32 C 6.4 km/h
1263 12-12-2013 09:10:00 3.9 C 5.87 g/m*3 3.9 C 4.8 km/h
1264 12-12-2013 09:15:00 3.9 C 5.81 g/m*3 2.32 C 6.4 km/h
1265 12-12-2013 09:20:00 3.9 C 5.81 g/m*3 3.9 C 4.8 km/h
1266 12-12-2013 09:25:00 3.9 C 5.81 g/m*3 3.9 C 0 km/h
1267 12-12-2013 09:30:00 3.9 C 5.81 g/m*3 3.9 C 4.8 km/h
1268 12-12-2013 09:35:00 3.9 C 5.75 g/m*3 2.32 C 6.4 km/h
1269 12-12-2013 09:40:00 3.9 C 5.81 g/m*3 3.9 C 3.2 km/h
1270 12-12-2013 09:45:00 4 C 5.79 g/m*3 4 C 3.2 km/h
1271 12-12-2013 09:50:00 3.9 C 5.75 g/m*3 3.9 C 4.8 km/h
1272 12-12-2013 09:55:00 4 C 5.79 g/m*3 4 C 4.8 km/h
1273 12-12-2013 10:00:00 4 C 5.79 g/m*3 4 C 3.2 km/h
1274 12-12-2013 10:05:00 4 C 5.79 g/m*3 4 C 0 km/h
1275 12-12-2013 10:10:00 4.1 C 5.82 g/m*3 2.55 C 6.4 km/h
Sensor: Nr:Datum:Temp:Abs-Feuchte:Windchill:Wind:
Aussen-T/F 1276 12-12-2013 10:15:00 4.1 C 5.82 g/m*3 2.55 C 6.4 km/h
1277 12-12-2013 10:20:00 4.1 C 5.76 g/m*3 4.1 C 3.2 km/h
1278 12-12-2013 10:25:00 4.1 C 5.82 g/m*3 4.1 C 3.2 km/h
1279 12-12-2013 10:30:00 4.1 C 5.76 g/m*3 4.1 C 1.6 km/h
1280 12-12-2013 10:35:00 4.1 C 5.76 g/m*3 4.1 C 3.2 km/h
1281 12-12-2013 10:40:00 4.2 C 5.8 g/m*3 4.2 C 4.8 km/h
1282 12-12-2013 10:45:00 4.2 C 5.8 g/m*3 4.2 C 3.2 km/h
1283 12-12-2013 10:50:00 4.2 C 5.8 g/m*3 4.2 C 0 km/h
1284 12-12-2013 10:55:00 4.2 C 5.8 g/m*3 4.2 C 4.8 km/h
1285 12-12-2013 11:00:00 4.2 C 5.8 g/m*3 4.2 C 3.2 km/h
1286 12-12-2013 11:05:00 4.2 C 5.8 g/m*3 4.2 C 4.8 km/h
1287 12-12-2013 11:10:00 4.2 C 5.8 g/m*3 4.2 C 4.8 km/h
1288 12-12-2013 11:15:00 4.2 C 5.8 g/m*3 2.67 C 6.4 km/h
1289 12-12-2013 11:20:00 4.2 C 5.8 g/m*3 4.2 C 4.8 km/h
1290 12-12-2013 11:25:00 4.3 C 5.84 g/m*3 4.3 C 4.8 km/h
1291 12-12-2013 11:30:00 4.3 C 5.84 g/m*3 4.3 C 4.8 km/h
1292 12-12-2013 11:35:00 4.3 C 5.84 g/m*3 2.78 C 6.4 km/h
1293 12-12-2013 11:40:00 4.3 C 5.84 g/m*3 4.3 C 4.8 km/h
1294 12-12-2013 11:45:00 4.3 C 5.84 g/m*3 4.3 C 3.2 km/h
1295 12-12-2013 11:50:00 4.3 C 5.84 g/m*3 4.3 C 1.6 km/h
1296 12-12-2013 11:55:00 4.4 C 5.88 g/m*3 4.4 C 1.6 km/h
1297 12-12-2013 12:00:00 4.4 C 5.88 g/m*3 4.4 C 3.2 km/h
1298 12-12-2013 12:05:00 4.4 C 5.88 g/m*3 4.4 C 3.2 km/h
1299 12-12-2013 12:10:00 4.5 C 5.92 g/m*3 4.5 C 1.6 km/h
1300 12-12-2013 12:15:00 4.6 C 5.96 g/m*3 4.6 C 4.8 km/h
Sensor: Nr:Datum:Temp:Abs-Feuchte:Windchill:Wind:
Aussen-T/F 1301 12-12-2013 12:20:00 4.6 C 5.96 g/m*3 4.6 C 0 km/h
1302 12-12-2013 12:25:00 4.6 C 5.96 g/m*3 4.6 C 3.2 km/h
1303 12-12-2013 12:30:00 4.7 C 6 g/m*3 4.7 C 4.8 km/h
1304 12-12-2013 12:35:00 4.7 C 6 g/m*3 4.7 C 4.8 km/h
1305 12-12-2013 12:40:00 4.6 C 5.89 g/m*3 4.6 C 4.8 km/h
1306 12-12-2013 12:45:00 4.7 C 6 g/m*3 4.7 C 1.6 km/h
1307 12-12-2013 12:50:00 4.7 C 6 g/m*3 4.7 C 3.2 km/h
1308 12-12-2013 12:55:00 4.7 C 6 g/m*3 4.7 C 3.2 km/h
1309 12-12-2013 13:00:00 4.7 C 6 g/m*3 4.7 C 3.2 km/h
1310 12-12-2013 13:05:00 4.7 C 6 g/m*3 3.25 C 6.4 km/h
1311 12-12-2013 13:10:00 4.7 C 5.93 g/m*3 4.7 C 4.8 km/h
1312 12-12-2013 13:15:00 4.7 C 5.93 g/m*3 3.25 C 6.4 km/h
1313 12-12-2013 13:20:00 4.8 C 6.04 g/m*3 3.36 C 6.4 km/h
1314 12-12-2013 13:25:00 4.8 C 5.97 g/m*3 2.87 C 8.1 km/h
1315 12-12-2013 13:30:00 4.8 C 5.97 g/m*3 3.36 C 6.4 km/h
1316 12-12-2013 13:35:00 4.8 C 6.04 g/m*3 3.36 C 6.4 km/h
1317 12-12-2013 13:40:00 4.8 C 5.97 g/m*3 4.8 C 4.8 km/h
1318 12-12-2013 13:45:00 4.8 C 5.97 g/m*3 3.36 C 6.4 km/h
1319 12-12-2013 13:50:00 4.9 C 6.08 g/m*3 4.9 C 3.2 km/h
1320 12-12-2013 13:55:00 4.9 C 6.08 g/m*3 4.9 C 3.2 km/h
1321 12-12-2013 14:00:00 4.9 C 6.08 g/m*3 4.9 C 0 km/h
1322 12-12-2013 14:05:00 4.9 C 6.01 g/m*3 4.9 C 3.2 km/h
1323 12-12-2013 14:10:00 4.9 C 6.08 g/m*3 4.9 C 0 km/h
1324 12-12-2013 14:15:00 4.9 C 6.08 g/m*3 4.9 C 0 km/h
1325 12-12-2013 14:20:00 5 C 6.12 g/m*3 5 C 3.2 km/h
Sensor: Nr:Datum:Temp:Abs-Feuchte:Windchill:Wind:
Aussen-T/F 1326 12-12-2013 14:25:00 5.1 C 6.09 g/m*3 5.1 C 1.6 km/h
1327 12-12-2013 14:30:00 5.1 C 6.09 g/m*3 3.71 C 6.4 km/h
1328 12-12-2013 14:35:00 5 C 6.05 g/m*3 5 C 3.2 km/h
1329 12-12-2013 14:40:00 5.1 C 6.09 g/m*3 5.1 C 4.8 km/h
1330 12-12-2013 14:45:00 5 C 6.05 g/m*3 5 C 4.8 km/h
1331 12-12-2013 14:50:00 5 C 6.05 g/m*3 5 C 0 km/h
1332 12-12-2013 14:55:00 5 C 6.05 g/m*3 5 C 0 km/h
1333 12-12-2013 15:00:00 5 C 6.05 g/m*3 5 C 3.2 km/h
1334 12-12-2013 15:05:00 5 C 6.05 g/m*3 5 C 3.2 km/h
1335 12-12-2013 15:10:00 4.9 C 6.01 g/m*3 4.9 C 3.2 km/h
1336 12-12-2013 15:15:00 5 C 6.05 g/m*3 5 C 3.2 km/h
1337 12-12-2013 15:20:00 4.9 C 6.01 g/m*3 4.9 C 1.6 km/h
1338 12-12-2013 15:25:00 4.9 C 6.01 g/m*3 4.9 C 3.2 km/h
1339 12-12-2013 15:30:00 4.8 C 5.97 g/m*3 4.8 C 4.8 km/h
1340 12-12-2013 15:35:00 4.7 C 5.93 g/m*3 4.7 C 4.8 km/h
1341 12-12-2013 15:40:00 4.6 C 5.96 g/m*3 4.6 C 4.8 km/h
1342 12-12-2013 15:45:00 4.4 C 5.88 g/m*3 4.4 C 3.2 km/h
1343 12-12-2013 15:50:00 4.4 C 5.88 g/m*3 4.4 C 4.8 km/h
1344 12-12-2013 15:55:00 4.3 C 5.84 g/m*3 4.3 C 4.8 km/h
1345 12-12-2013 16:00:00 4.2 C 5.86 g/m*3 2.67 C 6.4 km/h
1346 12-12-2013 16:05:00 4.1 C 5.82 g/m*3 4.1 C 4.8 km/h
1347 12-12-2013 16:10:00 4 C 5.79 g/m*3 4 C 3.2 km/h
1348 12-12-2013 16:15:00 3.9 C 5.75 g/m*3 3.9 C 3.2 km/h
1349 12-12-2013 16:20:00 3.8 C 5.71 g/m*3 3.8 C 4.8 km/h
1350 12-12-2013 16:25:00 3.8 C 5.71 g/m*3 3.8 C 4.8 km/h
Sensor: Nr:Datum:Temp:Abs-Feuchte:Windchill:Wind:
Aussen-T/F 1351 12-12-2013 16:30:00 3.8 C 5.77 g/m*3 3.8 C 1.6 km/h
1352 12-12-2013 16:35:00 3.8 C 5.77 g/m*3 3.8 C 4.8 km/h
1353 12-12-2013 16:40:00 3.7 C 5.73 g/m*3 3.7 C 4.8 km/h
1354 12-12-2013 16:45:00 3.7 C 5.73 g/m*3 3.7 C 3.2 km/h
1355 12-12-2013 16:50:00 3.7 C 5.73 g/m*3 2.09 C 6.4 km/h
1356 12-12-2013 16:55:00 3.6 C 5.69 g/m*3 3.6 C 4.8 km/h
1357 12-12-2013 17:00:00 3.6 C 5.69 g/m*3 3.6 C 3.2 km/h
1358 12-12-2013 17:05:00 3.6 C 5.69 g/m*3 1.98 C 6.4 km/h
1359 12-12-2013 17:10:00 3.6 C 5.69 g/m*3 3.6 C 4.8 km/h
1360 12-12-2013 17:15:00 3.6 C 5.69 g/m*3 3.6 C 4.8 km/h
1361 12-12-2013 17:20:00 3.6 C 5.69 g/m*3 3.6 C 3.2 km/h
1362 12-12-2013 17:25:00 3.6 C 5.69 g/m*3 3.6 C 0 km/h
1363 12-12-2013 17:30:00 3.6 C 5.69 g/m*3 3.6 C 3.2 km/h
1364 12-12-2013 17:35:00 3.6 C 5.69 g/m*3 3.6 C 1.6 km/h
1365 12-12-2013 17:40:00 3.6 C 5.69 g/m*3 3.6 C 1.6 km/h
1366 12-12-2013 17:45:00 3.6 C 5.69 g/m*3 3.6 C 0 km/h
1367 12-12-2013 17:50:00 3.6 C 5.69 g/m*3 3.6 C 3.2 km/h
1368 12-12-2013 17:55:00 3.6 C 5.69 g/m*3 3.6 C 1.6 km/h
1369 12-12-2013 18:00:00 3.6 C 5.69 g/m*3 3.6 C 3.2 km/h
1370 12-12-2013 18:05:00 3.6 C 5.69 g/m*3 3.6 C 1.6 km/h
1371 12-12-2013 18:10:00 3.6 C 5.69 g/m*3 3.6 C 0 km/h
1372 12-12-2013 18:15:00 3.6 C 5.69 g/m*3 3.6 C 0 km/h
1373 12-12-2013 18:20:00 3.6 C 5.69 g/m*3 3.6 C 0 km/h
1374 12-12-2013 18:25:00 3.6 C 5.69 g/m*3 3.6 C 0 km/h
1375 12-12-2013 18:30:00 3.6 C 5.69 g/m*3 3.6 C 0 km/h
Sensor: Nr:Datum:Temp:Abs-Feuchte:Windchill:Wind:
Aussen-T/F 1376 12-12-2013 18:35:00 3.6 C 5.69 g/m*3 3.6 C 0 km/h
1377 12-12-2013 18:40:00 3.6 C 5.69 g/m*3 3.6 C 0 km/h
1378 12-12-2013 18:45:00 3.6 C 5.69 g/m*3 3.6 C 0 km/h
1379 12-12-2013 18:50:00 3.6 C 5.69 g/m*3 3.6 C 0 km/h
1380 12-12-2013 18:55:00 3.6 C 5.69 g/m*3 3.6 C 3.2 km/h
1381 12-12-2013 19:00:00 3.6 C 5.69 g/m*3 3.6 C 1.6 km/h
1382 12-12-2013 19:05:00 3.6 C 5.69 g/m*3 3.6 C 0 km/h
1383 12-12-2013 19:10:00 3.6 C 5.69 g/m*3 3.6 C 3.2 km/h
1384 12-12-2013 19:15:00 3.6 C 5.69 g/m*3 3.6 C 0 km/h
1385 12-12-2013 19:20:00 3.6 C 5.69 g/m*3 3.6 C 0 km/h
1386 12-12-2013 19:25:00 3.5 C 5.66 g/m*3 3.5 C 0 km/h
1387 12-12-2013 19:30:00 3.5 C 5.66 g/m*3 3.5 C 0 km/h
1388 12-12-2013 19:35:00 3.5 C 5.66 g/m*3 3.5 C 0 km/h
1389 12-12-2013 19:40:00 3.5 C 5.66 g/m*3 3.5 C 0 km/h
1390 12-12-2013 19:45:00 3.5 C 5.66 g/m*3 3.5 C 0 km/h
1391 12-12-2013 19:50:00 3.5 C 5.66 g/m*3 3.5 C 0 km/h
1392 12-12-2013 19:55:00 3.5 C 5.66 g/m*3 3.5 C 0 km/h
1393 12-12-2013 20:00:00 3.5 C 5.72 g/m*3 3.5 C 0 km/h
1394 12-12-2013 20:05:00 3.5 C 5.72 g/m*3 3.5 C 0 km/h
1395 12-12-2013 20:10:00 3.5 C 5.72 g/m*3 3.5 C 0 km/h
1396 12-12-2013 20:15:00 3.5 C 5.72 g/m*3 3.5 C 0 km/h
1397 12-12-2013 20:20:00 3.5 C 5.72 g/m*3 3.5 C 0 km/h
1398 12-12-2013 20:25:00 3.5 C 5.72 g/m*3 3.5 C 0 km/h
1399 12-12-2013 20:30:00 3.5 C 5.72 g/m*3 3.5 C 0 km/h
1400 12-12-2013 20:35:00 3.5 C 5.72 g/m*3 3.5 C 0 km/h
Sensor: Nr:Datum:Temp:Abs-Feuchte:Windchill:Wind:
Aussen-T/F 1401 12-12-2013 20:40:00 3.5 C 5.72 g/m*3 3.5 C 0 km/h
1402 12-12-2013 20:45:00 3.6 C 5.76 g/m*3 3.6 C 0 km/h
1403 12-12-2013 20:50:00 3.6 C 5.76 g/m*3 3.6 C 0 km/h
1404 12-12-2013 20:55:00 3.6 C 5.76 g/m*3 3.6 C 0 km/h
1405 12-12-2013 21:00:00 3.6 C 5.76 g/m*3 3.6 C 0 km/h
1406 12-12-2013 21:05:00 3.6 C 5.76 g/m*3 3.6 C 0 km/h
1407 12-12-2013 21:10:00 3.6 C 5.76 g/m*3 3.6 C 0 km/h
1408 12-12-2013 21:15:00 3.6 C 5.76 g/m*3 3.6 C 0 km/h
1409 12-12-2013 21:20:00 3.6 C 5.76 g/m*3 3.6 C 0 km/h
1410 12-12-2013 21:25:00 3.6 C 5.76 g/m*3 3.6 C 0 km/h
1411 12-12-2013 21:30:00 3.6 C 5.76 g/m*3 3.6 C 0 km/h
1412 12-12-2013 21:35:00 3.6 C 5.76 g/m*3 3.6 C 0 km/h
1413 12-12-2013 21:40:00 3.6 C 5.76 g/m*3 3.6 C 0 km/h
1414 12-12-2013 21:45:00 3.6 C 5.76 g/m*3 3.6 C 0 km/h
1415 12-12-2013 21:50:00 3.6 C 5.76 g/m*3 3.6 C 0 km/h
1416 12-12-2013 21:55:00 3.7 C 5.8 g/m*3 3.7 C 0 km/h
1417 12-12-2013 22:00:00 3.7 C 5.8 g/m*3 3.7 C 0 km/h
1418 12-12-2013 22:05:00 3.7 C 5.8 g/m*3 3.7 C 0 km/h
1419 12-12-2013 22:10:00 3.7 C 5.8 g/m*3 3.7 C 0 km/h
1420 12-12-2013 22:15:00 3.6 C 5.76 g/m*3 3.6 C 0 km/h
1421 12-12-2013 22:20:00 3.6 C 5.76 g/m*3 3.6 C 0 km/h
1422 12-12-2013 22:25:00 3.6 C 5.76 g/m*3 3.6 C 0 km/h
1423 12-12-2013 22:30:00 3.6 C 5.76 g/m*3 3.6 C 0 km/h
1424 12-12-2013 22:35:00 3.6 C 5.76 g/m*3 3.6 C 0 km/h
1425 12-12-2013 22:40:00 3.6 C 5.76 g/m*3 3.6 C 0 km/h
Sensor: Nr:Datum:Temp:Abs-Feuchte:Windchill:Wind:
Aussen-T/F 1426 12-12-2013 22:45:00 3.6 C 5.76 g/m*3 3.6 C 0 km/h
1427 12-12-2013 22:50:00 3.5 C 5.72 g/m*3 3.5 C 0 km/h
1428 12-12-2013 22:55:00 3.4 C 5.68 g/m*3 3.4 C 0 km/h
1429 12-12-2013 23:00:00 3.4 C 5.68 g/m*3 3.4 C 0 km/h
1430 12-12-2013 23:05:00 3.5 C 5.66 g/m*3 3.5 C 1.6 km/h
1431 12-12-2013 23:10:00 3.5 C 5.66 g/m*3 3.5 C 0 km/h
1432 12-12-2013 23:15:00 3.5 C 5.66 g/m*3 3.5 C 0 km/h
1433 12-12-2013 23:20:00 3.5 C 5.72 g/m*3 3.5 C 0 km/h
1434 12-12-2013 23:25:00 3.6 C 5.76 g/m*3 3.6 C 0 km/h
1435 12-12-2013 23:30:00 3.6 C 5.69 g/m*3 3.6 C 1.6 km/h
1436 12-12-2013 23:35:00 3.5 C 5.66 g/m*3 3.5 C 1.6 km/h
1437 12-12-2013 23:40:00 3.5 C 5.66 g/m*3 3.5 C 0 km/h
1438 12-12-2013 23:45:00 3.5 C 5.66 g/m*3 3.5 C 0 km/h
1439 12-12-2013 23:50:00 3.5 C 5.66 g/m*3 3.5 C 0 km/h
1440 12-12-2013 23:55:00 3.5 C 5.6 g/m*3 3.5 C 3.2 km/h
1441 13-12-2013 00:00:00 3.4 C 5.56 g/m*3 3.4 C 0 km/h
1442 13-12-2013 00:05:00 3.4 C 5.56 g/m*3 3.4 C 0 km/h
1443 13-12-2013 00:10:00 3.4 C 5.56 g/m*3 3.4 C 4.8 km/h
1444 13-12-2013 00:15:00 3.4 C 5.56 g/m*3 3.4 C 0 km/h
1445 13-12-2013 00:20:00 3.3 C 5.52 g/m*3 3.3 C 0 km/h
1446 13-12-2013 00:25:00 3.3 C 5.52 g/m*3 3.3 C 4.8 km/h
1447 13-12-2013 00:30:00 3.3 C 5.52 g/m*3 3.3 C 3.2 km/h
1448 13-12-2013 00:35:00 3.3 C 5.46 g/m*3 1.63 C 6.4 km/h
1449 13-12-2013 00:40:00 3.3 C 5.46 g/m*3 1.63 C 6.4 km/h
1450 13-12-2013 00:45:00 3.3 C 5.46 g/m*3 1.11 C 8.1 km/h
Sensor: Nr:Datum:Temp:Abs-Feuchte:Windchill:Wind:
Aussen-T/F 1451 13-12-2013 00:50:00 3.3 C 5.46 g/m*3 1.63 C 6.4 km/h
1452 13-12-2013 00:55:00 3.2 C 5.42 g/m*3 0.99 C 8.1 km/h
1453 13-12-2013 01:00:00 3.2 C 5.42 g/m*3 1.51 C 6.4 km/h
1454 13-12-2013 01:05:00 3.2 C 5.42 g/m*3 1.51 C 6.4 km/h
1455 13-12-2013 01:10:00 3.2 C 5.42 g/m*3 1.51 C 6.4 km/h
1456 13-12-2013 01:15:00 3.1 C 5.39 g/m*3 1.4 C 6.4 km/h
1457 13-12-2013 01:20:00 3.1 C 5.39 g/m*3 1.4 C 6.4 km/h
1458 13-12-2013 01:25:00 3.1 C 5.33 g/m*3 1.4 C 6.4 km/h
1459 13-12-2013 01:30:00 2.9 C 5.26 g/m*3 1.17 C 6.4 km/h
1460 13-12-2013 01:35:00 2.9 C 5.32 g/m*3 2.9 C 4.8 km/h
1461 13-12-2013 01:40:00 2.8 C 5.28 g/m*3 2.8 C 4.8 km/h
1462 13-12-2013 01:45:00 2.8 C 5.28 g/m*3 1.05 C 6.4 km/h
1463 13-12-2013 01:50:00 2.8 C 5.28 g/m*3 2.8 C 4.8 km/h
1464 13-12-2013 01:55:00 2.8 C 5.28 g/m*3 2.8 C 4.8 km/h
1465 13-12-2013 02:00:00 2.8 C 5.28 g/m*3 1.05 C 6.4 km/h
1466 13-12-2013 02:05:00 2.7 C 5.3 g/m*3 2.7 C 3.2 km/h
1467 13-12-2013 02:10:00 2.7 C 5.3 g/m*3 0.4 C 8.1 km/h
1468 13-12-2013 02:15:00 2.7 C 5.3 g/m*3 -0.02 C 9.7 km/h
1469 13-12-2013 02:20:00 2.6 C 5.27 g/m*3 0.29 C 8.1 km/h
1470 13-12-2013 02:25:00 2.6 C 5.27 g/m*3 2.6 C 4.8 km/h
1471 13-12-2013 02:30:00 2.5 C 5.23 g/m*3 2.5 C 4.8 km/h
1472 13-12-2013 02:35:00 2.4 C 5.25 g/m*3 0.05 C 8.1 km/h
1473 13-12-2013 02:40:00 2.4 C 5.25 g/m*3 0.59 C 6.4 km/h
1474 13-12-2013 02:45:00 2.4 C 5.25 g/m*3 0.05 C 8.1 km/h
1475 13-12-2013 02:50:00 2.4 C 5.25 g/m*3 0.59 C 6.4 km/h
Sensor: Nr:Datum:Temp:Abs-Feuchte:Windchill:Wind:
Aussen-T/F 1476 13-12-2013 02:55:00 2.4 C 5.25 g/m*3 0.59 C 6.4 km/h
1477 13-12-2013 03:00:00 2.4 C 5.25 g/m*3 0.59 C 6.4 km/h
1478 13-12-2013 03:05:00 2.4 C 5.25 g/m*3 2.4 C 4.8 km/h
1479 13-12-2013 03:10:00 2.4 C 5.25 g/m*3 0.05 C 8.1 km/h
1480 13-12-2013 03:15:00 2.4 C 5.25 g/m*3 -0.37 C 9.7 km/h
1481 13-12-2013 03:20:00 2.4 C 5.25 g/m*3 0.05 C 8.1 km/h
1482 13-12-2013 03:25:00 2.4 C 5.25 g/m*3 0.05 C 8.1 km/h
1483 13-12-2013 03:30:00 2.4 C 5.25 g/m*3 0.59 C 6.4 km/h
1484 13-12-2013 03:35:00 2.4 C 5.25 g/m*3 -0.37 C 9.7 km/h
1485 13-12-2013 03:40:00 2.4 C 5.25 g/m*3 0.59 C 6.4 km/h
1486 13-12-2013 03:45:00 2.4 C 5.25 g/m*3 0.59 C 6.4 km/h
1487 13-12-2013 03:50:00 2.4 C 5.25 g/m*3 0.59 C 6.4 km/h
1488 13-12-2013 03:55:00 2.4 C 5.25 g/m*3 0.05 C 8.1 km/h
1489 13-12-2013 04:00:00 2.4 C 5.25 g/m*3 0.59 C 6.4 km/h
1490 13-12-2013 04:05:00 2.4 C 5.25 g/m*3 2.4 C 4.8 km/h
1491 13-12-2013 04:10:00 2.4 C 5.25 g/m*3 0.59 C 6.4 km/h
1492 13-12-2013 04:15:00 2.4 C 5.25 g/m*3 0.05 C 8.1 km/h
1493 13-12-2013 04:20:00 2.4 C 5.25 g/m*3 0.05 C 8.1 km/h
1494 13-12-2013 04:25:00 2.4 C 5.25 g/m*3 0.59 C 6.4 km/h
1495 13-12-2013 04:30:00 2.4 C 5.25 g/m*3 2.4 C 4.8 km/h
1496 13-12-2013 04:35:00 2.4 C 5.25 g/m*3 0.59 C 6.4 km/h
1497 13-12-2013 04:40:00 2.4 C 5.25 g/m*3 0.59 C 6.4 km/h
1498 13-12-2013 04:45:00 2.4 C 5.25 g/m*3 0.59 C 6.4 km/h
1499 13-12-2013 04:50:00 2.4 C 5.25 g/m*3 0.59 C 6.4 km/h
1500 13-12-2013 04:55:00 2.4 C 5.2 g/m*3 0.59 C 6.4 km/h
Sensor: Nr:Datum:Temp:Abs-Feuchte:Windchill:Wind:
Aussen-T/F 1501 13-12-2013 05:00:00 2.4 C 5.2 g/m*3 0.59 C 6.4 km/h
1502 13-12-2013 05:05:00 2.4 C 5.2 g/m*3 0.59 C 6.4 km/h
1503 13-12-2013 05:10:00 2.3 C 5.16 g/m*3 0.47 C 6.4 km/h
1504 13-12-2013 05:15:00 2.3 C 5.22 g/m*3 2.3 C 4.8 km/h
1505 13-12-2013 05:20:00 2.3 C 5.22 g/m*3 -0.07 C 8.1 km/h
1506 13-12-2013 05:25:00 2.3 C 5.22 g/m*3 -0.49 C 9.7 km/h
1507 13-12-2013 05:30:00 2.3 C 5.22 g/m*3 -0.07 C 8.1 km/h
1508 13-12-2013 05:35:00 2.3 C 5.22 g/m*3 0.47 C 6.4 km/h
1509 13-12-2013 05:40:00 2.3 C 5.22 g/m*3 -0.49 C 9.7 km/h
1510 13-12-2013 05:45:00 2.3 C 5.22 g/m*3 0.47 C 6.4 km/h
1511 13-12-2013 05:50:00 2.3 C 5.22 g/m*3 -0.49 C 9.7 km/h
1512 13-12-2013 05:55:00 2.3 C 5.22 g/m*3 -0.87 C 11.3 km/h
1513 13-12-2013 06:00:00 2.4 C 5.25 g/m*3 0.05 C 8.1 km/h
1514 13-12-2013 06:05:00 2.4 C 5.2 g/m*3 -1.07 C 12.9 km/h
1515 13-12-2013 06:10:00 2.3 C 5.16 g/m*3 -0.07 C 8.1 km/h
1516 13-12-2013 06:15:00 2.3 C 5.16 g/m*3 -0.49 C 9.7 km/h
1517 13-12-2013 06:20:00 2.3 C 5.22 g/m*3 2.3 C 3.2 km/h
1518 13-12-2013 06:25:00 2.3 C 5.22 g/m*3 0.47 C 6.4 km/h
1519 13-12-2013 06:30:00 2.3 C 5.22 g/m*3 -0.49 C 9.7 km/h
1520 13-12-2013 06:35:00 2.3 C 5.16 g/m*3 0.47 C 6.4 km/h
1521 13-12-2013 06:40:00 2.3 C 5.16 g/m*3 -0.49 C 9.7 km/h
1522 13-12-2013 06:45:00 2.3 C 5.16 g/m*3 0.47 C 6.4 km/h
1523 13-12-2013 06:50:00 2.2 C 5.13 g/m*3 0.36 C 6.4 km/h
1524 13-12-2013 06:55:00 2.2 C 5.18 g/m*3 2.2 C 4.8 km/h
1525 13-12-2013 07:00:00 2.2 C 5.18 g/m*3 0.36 C 6.4 km/h
Sensor: Nr:Datum:Temp:Abs-Feuchte:Windchill:Wind:
Aussen-T/F 1526 13-12-2013 07:05:00 2.2 C 5.18 g/m*3 -0.61 C 9.7 km/h
1527 13-12-2013 07:10:00 2.1 C 5.15 g/m*3 -0.73 C 9.7 km/h
1528 13-12-2013 07:15:00 2.1 C 5.15 g/m*3 -0.73 C 9.7 km/h
1529 13-12-2013 07:20:00 2.1 C 5.15 g/m*3 -0.3 C 8.1 km/h
1530 13-12-2013 07:25:00 2.1 C 5.15 g/m*3 -0.3 C 8.1 km/h
1531 13-12-2013 07:30:00 2.1 C 5.15 g/m*3 -0.73 C 9.7 km/h
1532 13-12-2013 07:35:00 2.1 C 5.15 g/m*3 -1.11 C 11.3 km/h
1533 13-12-2013 07:40:00 2.1 C 5.15 g/m*3 -0.3 C 8.1 km/h
1534 13-12-2013 07:45:00 2.1 C 5.15 g/m*3 -0.3 C 8.1 km/h
1535 13-12-2013 07:50:00 2.1 C 5.15 g/m*3 -0.3 C 8.1 km/h
1536 13-12-2013 07:55:00 2.1 C 5.15 g/m*3 2.1 C 4.8 km/h
1537 13-12-2013 08:00:00 2.1 C 5.15 g/m*3 2.1 C 4.8 km/h
1538 13-12-2013 08:05:00 2.1 C 5.15 g/m*3 0.24 C 6.4 km/h
1539 13-12-2013 08:10:00 2.1 C 5.15 g/m*3 -0.3 C 8.1 km/h
1540 13-12-2013 08:15:00 2.1 C 5.15 g/m*3 -0.3 C 8.1 km/h
1541 13-12-2013 08:20:00 2.1 C 5.15 g/m*3 2.1 C 4.8 km/h
1542 13-12-2013 08:25:00 2.1 C 5.15 g/m*3 2.1 C 3.2 km/h
1543 13-12-2013 08:30:00 2.1 C 5.15 g/m*3 -0.3 C 8.1 km/h
1544 13-12-2013 08:35:00 2.1 C 5.15 g/m*3 0.24 C 6.4 km/h
1545 13-12-2013 08:40:00 2.1 C 5.15 g/m*3 2.1 C 4.8 km/h
1546 13-12-2013 08:45:00 2 C 5.11 g/m*3 -0.42 C 8.1 km/h
1547 13-12-2013 08:50:00 2 C 5.11 g/m*3 0.13 C 6.4 km/h
1548 13-12-2013 08:55:00 2 C 5.11 g/m*3 0.13 C 6.4 km/h
1549 13-12-2013 09:00:00 2 C 5.11 g/m*3 2 C 4.8 km/h
1550 13-12-2013 09:05:00 2 C 5.11 g/m*3 2 C 4.8 km/h
Sensor: Nr:Datum:Temp:Abs-Feuchte:Windchill:Wind:
Aussen-T/F 1551 13-12-2013 09:10:00 2 C 5.11 g/m*3 -0.42 C 8.1 km/h
1552 13-12-2013 09:15:00 1.9 C 5.08 g/m*3 1.9 C 3.2 km/h
1553 13-12-2013 09:20:00 2 C 5.11 g/m*3 2 C 4.8 km/h
1554 13-12-2013 09:25:00 2 C 5.11 g/m*3 0.13 C 6.4 km/h
1555 13-12-2013 09:30:00 2 C 5.11 g/m*3 2 C 4.8 km/h
1556 13-12-2013 09:35:00 2.1 C 5.15 g/m*3 -0.3 C 8.1 km/h
1557 13-12-2013 09:40:00 2.1 C 5.15 g/m*3 2.1 C 4.8 km/h
1558 13-12-2013 09:45:00 2.1 C 5.15 g/m*3 2.1 C 4.8 km/h
1559 13-12-2013 09:50:00 2.2 C 5.13 g/m*3 2.2 C 4.8 km/h
1560 13-12-2013 09:55:00 2.2 C 5.13 g/m*3 2.2 C 4.8 km/h
1561 13-12-2013 10:00:00 2.2 C 5.13 g/m*3 -0.18 C 8.1 km/h
1562 13-12-2013 10:05:00 2.2 C 5.13 g/m*3 0.36 C 6.4 km/h
1563 13-12-2013 10:10:00 2.2 C 5.13 g/m*3 2.2 C 4.8 km/h
1564 13-12-2013 10:15:00 2.2 C 5.13 g/m*3 0.36 C 6.4 km/h
1565 13-12-2013 10:20:00 2.2 C 5.13 g/m*3 -0.18 C 8.1 km/h
1566 13-12-2013 10:25:00 2.2 C 5.13 g/m*3 -0.18 C 8.1 km/h
1567 13-12-2013 10:30:00 2.3 C 5.16 g/m*3 0.47 C 6.4 km/h
1568 13-12-2013 10:35:00 2.3 C 5.22 g/m*3 2.3 C 4.8 km/h
1569 13-12-2013 10:40:00 2.3 C 5.22 g/m*3 0.47 C 6.4 km/h
1570 13-12-2013 10:45:00 2.4 C 5.2 g/m*3 0.05 C 8.1 km/h
1571 13-12-2013 10:50:00 2.4 C 5.2 g/m*3 0.05 C 8.1 km/h
1572 13-12-2013 10:55:00 2.4 C 5.2 g/m*3 0.59 C 6.4 km/h
1573 13-12-2013 11:00:00 2.4 C 5.2 g/m*3 0.05 C 8.1 km/h
1574 13-12-2013 11:05:00 2.5 C 5.23 g/m*3 0.17 C 8.1 km/h
1575 13-12-2013 11:10:00 2.5 C 5.23 g/m*3 -0.26 C 9.7 km/h
Sensor: Nr:Datum:Temp:Abs-Feuchte:Windchill:Wind:
Aussen-T/F 1576 13-12-2013 11:15:00 2.5 C 5.23 g/m*3 0.17 C 8.1 km/h
1577 13-12-2013 11:20:00 2.6 C 5.27 g/m*3 0.82 C 6.4 km/h
1578 13-12-2013 11:25:00 2.6 C 5.21 g/m*3 0.29 C 8.1 km/h
1579 13-12-2013 11:30:00 2.6 C 5.21 g/m*3 0.82 C 6.4 km/h
1580 13-12-2013 11:35:00 2.7 C 5.24 g/m*3 0.4 C 8.1 km/h
1581 13-12-2013 11:40:00 2.7 C 5.3 g/m*3 0.4 C 8.1 km/h
1582 13-12-2013 11:45:00 2.8 C 5.28 g/m*3 1.05 C 6.4 km/h
1583 13-12-2013 11:50:00 2.8 C 5.28 g/m*3 1.05 C 6.4 km/h
1584 13-12-2013 11:55:00 2.8 C 5.28 g/m*3 0.52 C 8.1 km/h
1585 13-12-2013 12:00:00 2.8 C 5.28 g/m*3 1.05 C 6.4 km/h
1586 13-12-2013 12:05:00 2.8 C 5.28 g/m*3 0.52 C 8.1 km/h
1587 13-12-2013 12:10:00 2.8 C 5.28 g/m*3 1.05 C 6.4 km/h
1588 13-12-2013 12:15:00 2.9 C 5.32 g/m*3 2.9 C 4.8 km/h
1589 13-12-2013 12:20:00 2.9 C 5.32 g/m*3 0.64 C 8.1 km/h
1590 13-12-2013 12:25:00 2.9 C 5.32 g/m*3 1.17 C 6.4 km/h
1591 13-12-2013 12:30:00 3 C 5.35 g/m*3 3 C 4.8 km/h
1592 13-12-2013 12:35:00 3 C 5.35 g/m*3 1.28 C 6.4 km/h
1593 13-12-2013 12:40:00 3.1 C 5.33 g/m*3 1.4 C 6.4 km/h
1594 13-12-2013 12:45:00 3.1 C 5.33 g/m*3 1.4 C 6.4 km/h
1595 13-12-2013 12:50:00 3.1 C 5.33 g/m*3 1.4 C 6.4 km/h
1596 13-12-2013 12:55:00 3.2 C 5.36 g/m*3 3.2 C 4.8 km/h
1597 13-12-2013 13:00:00 3.2 C 5.36 g/m*3 3.2 C 4.8 km/h
1598 13-12-2013 13:05:00 3.2 C 5.36 g/m*3 1.51 C 6.4 km/h
1599 13-12-2013 13:10:00 3.2 C 5.36 g/m*3 1.51 C 6.4 km/h
1600 13-12-2013 13:15:00 3.2 C 5.36 g/m*3 0.99 C 8.1 km/h
Sensor: Nr:Datum:Temp:Abs-Feuchte:Windchill:Wind:
Aussen-T/F 1601 13-12-2013 13:20:00 3.2 C 5.36 g/m*3 1.51 C 6.4 km/h
1602 13-12-2013 13:25:00 3.2 C 5.36 g/m*3 1.51 C 6.4 km/h
1603 13-12-2013 13:30:00 3.2 C 5.36 g/m*3 3.2 C 4.8 km/h
1604 13-12-2013 13:35:00 3.2 C 5.36 g/m*3 1.51 C 6.4 km/h
1605 13-12-2013 13:40:00 3.2 C 5.36 g/m*3 1.51 C 6.4 km/h
1606 13-12-2013 13:45:00 3.2 C 5.36 g/m*3 1.51 C 6.4 km/h
1607 13-12-2013 13:50:00 3.2 C 5.36 g/m*3 3.2 C 4.8 km/h
1608 13-12-2013 13:55:00 3.2 C 5.36 g/m*3 3.2 C 3.2 km/h
1609 13-12-2013 14:00:00 3.3 C 5.4 g/m*3 3.3 C 4.8 km/h
1610 13-12-2013 14:05:00 3.3 C 5.4 g/m*3 3.3 C 3.2 km/h
1611 13-12-2013 14:10:00 3.3 C 5.4 g/m*3 3.3 C 1.6 km/h
1612 13-12-2013 14:15:00 3.4 C 5.44 g/m*3 3.4 C 3.2 km/h
1613 13-12-2013 14:20:00 3.4 C 5.44 g/m*3 3.4 C 3.2 km/h
1614 13-12-2013 14:25:00 3.4 C 5.44 g/m*3 3.4 C 3.2 km/h
1615 13-12-2013 14:30:00 3.4 C 5.44 g/m*3 3.4 C 3.2 km/h
1616 13-12-2013 14:35:00 3.5 C 5.47 g/m*3 3.5 C 3.2 km/h
1617 13-12-2013 14:40:00 3.6 C 5.51 g/m*3 3.6 C 0 km/h
1618 13-12-2013 14:45:00 3.6 C 5.51 g/m*3 3.6 C 4.8 km/h
1619 13-12-2013 14:50:00 3.6 C 5.45 g/m*3 3.6 C 3.2 km/h
1620 13-12-2013 14:55:00 3.6 C 5.45 g/m*3 3.6 C 4.8 km/h
1621 13-12-2013 15:00:00 3.6 C 5.45 g/m*3 3.6 C 3.2 km/h
1622 13-12-2013 15:05:00 3.6 C 5.45 g/m*3 1.98 C 6.4 km/h
1623 13-12-2013 15:10:00 3.6 C 5.45 g/m*3 1.98 C 6.4 km/h
1624 13-12-2013 15:15:00 3.5 C 5.41 g/m*3 1.86 C 6.4 km/h
1625 13-12-2013 15:20:00 3.4 C 5.37 g/m*3 3.4 C 4.8 km/h
Sensor: Nr:Datum:Temp:Abs-Feuchte:Windchill:Wind:
Aussen-T/F 1626 13-12-2013 15:25:00 3.4 C 5.37 g/m*3 1.75 C 6.4 km/h
1627 13-12-2013 15:30:00 3.3 C 5.34 g/m*3 1.11 C 8.1 km/h
1628 13-12-2013 15:35:00 3.3 C 5.34 g/m*3 3.3 C 3.2 km/h
1629 13-12-2013 15:40:00 3.3 C 5.4 g/m*3 3.3 C 4.8 km/h
1630 13-12-2013 15:45:00 3.2 C 5.36 g/m*3 3.2 C 4.8 km/h
1631 13-12-2013 15:50:00 3.2 C 5.36 g/m*3 3.2 C 1.6 km/h
1632 13-12-2013 15:55:00 3.2 C 5.36 g/m*3 3.2 C 1.6 km/h
1633 13-12-2013 16:00:00 3.2 C 5.36 g/m*3 3.2 C 3.2 km/h
1634 13-12-2013 16:05:00 3.2 C 5.36 g/m*3 3.2 C 3.2 km/h
1635 13-12-2013 16:10:00 3.2 C 5.36 g/m*3 3.2 C 1.6 km/h
1636 13-12-2013 16:15:00 3.2 C 5.36 g/m*3 3.2 C 4.8 km/h
1637 13-12-2013 16:20:00 3.1 C 5.33 g/m*3 3.1 C 1.6 km/h
1638 13-12-2013 16:25:00 3.1 C 5.33 g/m*3 3.1 C 1.6 km/h
1639 13-12-2013 16:30:00 3.1 C 5.33 g/m*3 3.1 C 0 km/h
1640 13-12-2013 16:35:00 3.1 C 5.33 g/m*3 3.1 C 3.2 km/h
1641 13-12-2013 16:40:00 3.1 C 5.33 g/m*3 3.1 C 3.2 km/h
1642 13-12-2013 16:45:00 3 C 5.35 g/m*3 3 C 1.6 km/h
1643 13-12-2013 16:50:00 3.1 C 5.39 g/m*3 3.1 C 0 km/h
1644 13-12-2013 16:55:00 3 C 5.35 g/m*3 3 C 1.6 km/h
1645 13-12-2013 17:00:00 2.9 C 5.32 g/m*3 2.9 C 4.8 km/h
1646 13-12-2013 17:05:00 2.9 C 5.32 g/m*3 2.9 C 0 km/h
1647 13-12-2013 17:10:00 2.9 C 5.32 g/m*3 2.9 C 0 km/h
1648 13-12-2013 17:15:00 2.9 C 5.32 g/m*3 2.9 C 3.2 km/h
1649 13-12-2013 17:20:00 2.8 C 5.28 g/m*3 2.8 C 3.2 km/h
1650 13-12-2013 17:25:00 2.8 C 5.28 g/m*3 2.8 C 1.6 km/h
Sensor: Nr:Datum:Temp:Abs-Feuchte:Windchill:Wind:
Aussen-T/F 1651 13-12-2013 17:30:00 2.8 C 5.28 g/m*3 2.8 C 0 km/h
1652 13-12-2013 17:35:00 2.8 C 5.28 g/m*3 2.8 C 1.6 km/h
1653 13-12-2013 17:40:00 2.8 C 5.28 g/m*3 2.8 C 1.6 km/h
1654 13-12-2013 17:45:00 2.8 C 5.28 g/m*3 2.8 C 0 km/h
1655 13-12-2013 17:50:00 2.8 C 5.28 g/m*3 2.8 C 3.2 km/h
1656 13-12-2013 17:55:00 2.8 C 5.28 g/m*3 2.8 C 0 km/h
1657 13-12-2013 18:00:00 2.8 C 5.34 g/m*3 2.8 C 0 km/h
1658 13-12-2013 18:05:00 2.8 C 5.34 g/m*3 2.8 C 0 km/h
1659 13-12-2013 18:10:00 2.9 C 5.37 g/m*3 2.9 C 1.6 km/h
1660 13-12-2013 18:15:00 2.9 C 5.37 g/m*3 2.9 C 1.6 km/h
1661 13-12-2013 18:20:00 2.9 C 5.37 g/m*3 2.9 C 0 km/h
1662 13-12-2013 18:25:00 2.9 C 5.37 g/m*3 2.9 C 1.6 km/h
1663 13-12-2013 18:30:00 2.9 C 5.37 g/m*3 2.9 C 3.2 km/h
1664 13-12-2013 18:35:00 3 C 5.41 g/m*3 3 C 0 km/h
1665 13-12-2013 18:40:00 2.9 C 5.37 g/m*3 2.9 C 0 km/h
1666 13-12-2013 18:45:00 2.9 C 5.37 g/m*3 2.9 C 1.6 km/h
1667 13-12-2013 18:50:00 2.9 C 5.32 g/m*3 2.9 C 3.2 km/h
1668 13-12-2013 18:55:00 2.9 C 5.32 g/m*3 2.9 C 1.6 km/h
1669 13-12-2013 19:00:00 2.9 C 5.32 g/m*3 2.9 C 3.2 km/h
1670 13-12-2013 19:05:00 2.9 C 5.32 g/m*3 2.9 C 0 km/h
1671 13-12-2013 19:10:00 2.9 C 5.32 g/m*3 2.9 C 1.6 km/h
1672 13-12-2013 19:15:00 2.9 C 5.32 g/m*3 2.9 C 4.8 km/h
1673 13-12-2013 19:20:00 2.9 C 5.32 g/m*3 2.9 C 3.2 km/h
1674 13-12-2013 19:25:00 2.8 C 5.28 g/m*3 2.8 C 3.2 km/h
1675 13-12-2013 19:30:00 2.8 C 5.22 g/m*3 1.05 C 6.4 km/h
Sensor: Nr:Datum:Temp:Abs-Feuchte:Windchill:Wind:
Aussen-T/F 1676 13-12-2013 19:35:00 2.7 C 5.19 g/m*3 2.7 C 4.8 km/h
1677 13-12-2013 19:40:00 2.7 C 5.19 g/m*3 2.7 C 3.2 km/h
1678 13-12-2013 19:45:00 2.6 C 5.15 g/m*3 2.6 C 3.2 km/h
1679 13-12-2013 19:50:00 2.6 C 5.15 g/m*3 2.6 C 4.8 km/h
1680 13-12-2013 19:55:00 2.5 C 5.12 g/m*3 2.5 C 3.2 km/h
1681 13-12-2013 20:00:00 2.5 C 5.12 g/m*3 2.5 C 3.2 km/h
1682 13-12-2013 20:05:00 2.5 C 5.12 g/m*3 2.5 C 0 km/h
1683 13-12-2013 20:10:00 2.5 C 5.17 g/m*3 2.5 C 0 km/h
1684 13-12-2013 20:15:00 2.5 C 5.17 g/m*3 2.5 C 1.6 km/h
1685 13-12-2013 20:20:00 2.5 C 5.17 g/m*3 2.5 C 0 km/h
1686 13-12-2013 20:25:00 2.5 C 5.17 g/m*3 2.5 C 0 km/h
1687 13-12-2013 20:30:00 2.6 C 5.21 g/m*3 2.6 C 4.8 km/h
1688 13-12-2013 20:35:00 2.6 C 5.21 g/m*3 2.6 C 3.2 km/h
1689 13-12-2013 20:40:00 2.6 C 5.21 g/m*3 2.6 C 0 km/h
1690 13-12-2013 20:45:00 2.6 C 5.21 g/m*3 2.6 C 0 km/h
1691 13-12-2013 20:50:00 2.6 C 5.27 g/m*3 2.6 C 3.2 km/h
1692 13-12-2013 20:55:00 2.7 C 5.3 g/m*3 2.7 C 1.6 km/h
1693 13-12-2013 21:00:00 2.7 C 5.3 g/m*3 2.7 C 0 km/h
1694 13-12-2013 21:05:00 2.7 C 5.3 g/m*3 2.7 C 0 km/h
1695 13-12-2013 21:10:00 2.7 C 5.3 g/m*3 2.7 C 0 km/h
1696 13-12-2013 21:15:00 2.7 C 5.3 g/m*3 2.7 C 3.2 km/h
1697 13-12-2013 21:20:00 2.7 C 5.3 g/m*3 2.7 C 3.2 km/h
1698 13-12-2013 21:25:00 2.7 C 5.3 g/m*3 2.7 C 3.2 km/h
1699 13-12-2013 21:30:00 2.7 C 5.3 g/m*3 2.7 C 4.8 km/h
1700 13-12-2013 21:35:00 2.7 C 5.3 g/m*3 2.7 C 1.6 km/h
Sensor: Nr:Datum:Temp:Abs-Feuchte:Windchill:Wind:
Aussen-T/F 1701 13-12-2013 21:40:00 2.7 C 5.24 g/m*3 2.7 C 4.8 km/h
1702 13-12-2013 21:45:00 2.6 C 5.21 g/m*3 2.6 C 4.8 km/h
1703 13-12-2013 21:50:00 2.6 C 5.21 g/m*3 2.6 C 4.8 km/h
1704 13-12-2013 21:55:00 2.5 C 5.17 g/m*3 2.5 C 3.2 km/h
1705 13-12-2013 22:00:00 2.5 C 5.17 g/m*3 2.5 C 1.6 km/h
1706 13-12-2013 22:05:00 2.4 C 5.14 g/m*3 2.4 C 4.8 km/h
1707 13-12-2013 22:10:00 2.4 C 5.2 g/m*3 2.4 C 3.2 km/h
1708 13-12-2013 22:15:00 2.4 C 5.2 g/m*3 2.4 C 3.2 km/h
1709 13-12-2013 22:20:00 2.4 C 5.2 g/m*3 2.4 C 4.8 km/h
1710 13-12-2013 22:25:00 2.4 C 5.2 g/m*3 2.4 C 3.2 km/h
1711 13-12-2013 22:30:00 2.4 C 5.2 g/m*3 2.4 C 0 km/h
1712 13-12-2013 22:35:00 2.4 C 5.2 g/m*3 0.59 C 6.4 km/h
1713 13-12-2013 22:40:00 2.4 C 5.14 g/m*3 0.59 C 6.4 km/h
1714 13-12-2013 22:45:00 2.5 C 5.17 g/m*3 0.71 C 6.4 km/h
1715 13-12-2013 22:50:00 2.5 C 5.17 g/m*3 0.71 C 6.4 km/h
1716 13-12-2013 22:55:00 2.4 C 5.14 g/m*3 -0.37 C 9.7 km/h
1717 13-12-2013 23:00:00 2.3 C 5.05 g/m*3 -0.49 C 9.7 km/h
1718 13-12-2013 23:05:00 2.3 C 5.05 g/m*3 -0.07 C 8.1 km/h
1719 13-12-2013 23:10:00 2.2 C 5.01 g/m*3 -0.18 C 8.1 km/h
1720 13-12-2013 23:15:00 2.1 C 5.04 g/m*3 2.1 C 3.2 km/h
1721 13-12-2013 23:20:00 2.1 C 5.04 g/m*3 2.1 C 1.6 km/h
1722 13-12-2013 23:25:00 2 C 5 g/m*3 2 C 0 km/h
1723 13-12-2013 23:30:00 2 C 5 g/m*3 0.13 C 6.4 km/h
1724 13-12-2013 23:35:00 2 C 5 g/m*3 2 C 1.6 km/h
1725 13-12-2013 23:40:00 2 C 5 g/m*3 2 C 1.6 km/h
Sensor: Nr:Datum:Temp:Abs-Feuchte:Windchill:Wind:
Aussen-T/F 1726 13-12-2013 23:45:00 2 C 5.06 g/m*3 0.13 C 6.4 km/h
1727 13-12-2013 23:50:00 2 C 5 g/m*3 -0.42 C 8.1 km/h
1728 13-12-2013 23:55:00 2 C 5 g/m*3 -0.42 C 8.1 km/h
1729 14-12-2013 00:00:00 1.9 C 4.97 g/m*3 -0.97 C 9.7 km/h
1730 14-12-2013 00:05:00 1.9 C 4.97 g/m*3 -0.54 C 8.1 km/h
1731 14-12-2013 00:10:00 1.9 C 4.97 g/m*3 -0.54 C 8.1 km/h
1732 14-12-2013 00:15:00 1.9 C 4.97 g/m*3 1.9 C 3.2 km/h
1733 14-12-2013 00:20:00 1.9 C 4.97 g/m*3 1.9 C 4.8 km/h
1734 14-12-2013 00:25:00 1.8 C 4.93 g/m*3 1.8 C 4.8 km/h
1735 14-12-2013 00:30:00 1.9 C 4.97 g/m*3 -0.54 C 8.1 km/h
1736 14-12-2013 00:35:00 1.9 C 4.97 g/m*3 0.01 C 6.4 km/h
1737 14-12-2013 00:40:00 1.9 C 4.97 g/m*3 0.01 C 6.4 km/h
1738 14-12-2013 00:45:00 1.9 C 4.97 g/m*3 1.9 C 3.2 km/h
1739 14-12-2013 00:50:00 1.9 C 4.97 g/m*3 0.01 C 6.4 km/h
1740 14-12-2013 00:55:00 1.9 C 4.97 g/m*3 1.9 C 4.8 km/h
1741 14-12-2013 01:00:00 1.9 C 4.97 g/m*3 0.01 C 6.4 km/h
1742 14-12-2013 01:05:00 1.9 C 4.97 g/m*3 1.9 C 3.2 km/h
1743 14-12-2013 01:10:00 2 C 5 g/m*3 -0.85 C 9.7 km/h
1744 14-12-2013 01:15:00 1.9 C 4.97 g/m*3 -0.97 C 9.7 km/h
1745 14-12-2013 01:20:00 1.9 C 4.97 g/m*3 -0.54 C 8.1 km/h
1746 14-12-2013 01:25:00 1.9 C 4.97 g/m*3 -0.54 C 8.1 km/h
1747 14-12-2013 01:30:00 1.9 C 4.97 g/m*3 -0.97 C 9.7 km/h
1748 14-12-2013 01:35:00 1.9 C 4.97 g/m*3 -0.54 C 8.1 km/h
1749 14-12-2013 01:40:00 1.9 C 4.97 g/m*3 -0.97 C 9.7 km/h
1750 14-12-2013 01:45:00 1.9 C 4.91 g/m*3 -0.54 C 8.1 km/h
Sensor: Nr:Datum:Temp:Abs-Feuchte:Windchill:Wind:
Aussen-T/F 1751 14-12-2013 01:50:00 1.8 C 4.93 g/m*3 -1.47 C 11.3 km/h
1752 14-12-2013 01:55:00 1.7 C 4.9 g/m*3 -1.59 C 11.3 km/h
1753 14-12-2013 02:00:00 1.7 C 4.9 g/m*3 1.7 C 4.8 km/h
1754 14-12-2013 02:05:00 1.7 C 4.95 g/m*3 1.7 C 1.6 km/h
1755 14-12-2013 02:10:00 1.6 C 4.92 g/m*3 1.6 C 3.2 km/h
1756 14-12-2013 02:15:00 1.6 C 4.92 g/m*3 1.6 C 3.2 km/h
1757 14-12-2013 02:20:00 1.6 C 4.92 g/m*3 1.6 C 3.2 km/h
1758 14-12-2013 02:25:00 1.6 C 4.92 g/m*3 1.6 C 4.8 km/h
1759 14-12-2013 02:30:00 1.6 C 4.92 g/m*3 1.6 C 4.8 km/h
1760 14-12-2013 02:35:00 1.6 C 4.92 g/m*3 -0.89 C 8.1 km/h
1761 14-12-2013 02:40:00 1.6 C 4.92 g/m*3 -0.33 C 6.4 km/h
1762 14-12-2013 02:45:00 1.6 C 4.92 g/m*3 -0.89 C 8.1 km/h
1763 14-12-2013 02:50:00 1.6 C 4.92 g/m*3 1.6 C 3.2 km/h
1764 14-12-2013 02:55:00 1.7 C 5.01 g/m*3 -0.22 C 6.4 km/h
1765 14-12-2013 03:00:00 1.6 C 4.97 g/m*3 1.6 C 4.8 km/h
1766 14-12-2013 03:05:00 1.6 C 4.97 g/m*3 1.6 C 4.8 km/h
1767 14-12-2013 03:10:00 1.7 C 5.01 g/m*3 -0.77 C 8.1 km/h
1768 14-12-2013 03:15:00 1.7 C 5.01 g/m*3 -0.22 C 6.4 km/h
1769 14-12-2013 03:20:00 1.7 C 5.01 g/m*3 -0.22 C 6.4 km/h
1770 14-12-2013 03:25:00 1.7 C 5.01 g/m*3 1.7 C 3.2 km/h
1771 14-12-2013 03:30:00 1.7 C 5.01 g/m*3 -0.22 C 6.4 km/h
1772 14-12-2013 03:35:00 1.7 C 5.01 g/m*3 1.7 C 4.8 km/h
1773 14-12-2013 03:40:00 1.8 C 5.04 g/m*3 1.8 C 3.2 km/h
1774 14-12-2013 03:45:00 1.8 C 5.04 g/m*3 1.8 C 1.6 km/h
1775 14-12-2013 03:50:00 1.8 C 5.04 g/m*3 1.8 C 1.6 km/h
Sensor: Nr:Datum:Temp:Abs-Feuchte:Windchill:Wind:
Aussen-T/F 1776 14-12-2013 03:55:00 1.8 C 5.04 g/m*3 1.8 C 1.6 km/h
1777 14-12-2013 04:00:00 1.8 C 5.04 g/m*3 1.8 C 0 km/h
1778 14-12-2013 04:05:00 1.9 C 5.08 g/m*3 1.9 C 1.6 km/h
1779 14-12-2013 04:10:00 1.9 C 5.08 g/m*3 1.9 C 1.6 km/h
1780 14-12-2013 04:15:00 1.9 C 5.08 g/m*3 1.9 C 0 km/h
1781 14-12-2013 04:20:00 1.9 C 5.08 g/m*3 1.9 C 0 km/h
1782 14-12-2013 04:25:00 1.9 C 5.08 g/m*3 1.9 C 0 km/h
1783 14-12-2013 04:30:00 1.9 C 5.08 g/m*3 1.9 C 0 km/h
1784 14-12-2013 04:35:00 1.9 C 5.08 g/m*3 1.9 C 0 km/h
1785 14-12-2013 04:40:00 2 C 5.11 g/m*3 2 C 0 km/h
1786 14-12-2013 04:45:00 2 C 5.11 g/m*3 2 C 0 km/h
1787 14-12-2013 04:50:00 2 C 5.11 g/m*3 2 C 0 km/h
1788 14-12-2013 04:55:00 2.1 C 5.2 g/m*3 2.1 C 0 km/h
1789 14-12-2013 05:00:00 2.1 C 5.2 g/m*3 2.1 C 0 km/h
1790 14-12-2013 05:05:00 2.1 C 5.2 g/m*3 2.1 C 0 km/h
1791 14-12-2013 05:10:00 2.1 C 5.2 g/m*3 2.1 C 0 km/h
1792 14-12-2013 05:15:00 2.1 C 5.2 g/m*3 2.1 C 0 km/h
1793 14-12-2013 05:20:00 2.1 C 5.2 g/m*3 2.1 C 0 km/h
1794 14-12-2013 05:25:00 2.2 C 5.24 g/m*3 2.2 C 0 km/h
1795 14-12-2013 05:30:00 2.2 C 5.24 g/m*3 2.2 C 0 km/h
1796 14-12-2013 05:35:00 2.2 C 5.24 g/m*3 2.2 C 0 km/h
1797 14-12-2013 05:40:00 2.2 C 5.24 g/m*3 2.2 C 0 km/h
1798 14-12-2013 05:45:00 2.3 C 5.27 g/m*3 2.3 C 0 km/h
1799 14-12-2013 05:50:00 2.3 C 5.27 g/m*3 2.3 C 0 km/h
1800 14-12-2013 05:55:00 2.3 C 5.27 g/m*3 2.3 C 0 km/h
Sensor: Nr:Datum:Temp:Abs-Feuchte:Windchill:Wind:
Aussen-T/F 1801 14-12-2013 06:00:00 2.3 C 5.27 g/m*3 2.3 C 3.2 km/h
1802 14-12-2013 06:05:00 2.3 C 5.27 g/m*3 2.3 C 0 km/h
1803 14-12-2013 06:10:00 2.3 C 5.27 g/m*3 2.3 C 3.2 km/h
1804 14-12-2013 06:15:00 2.4 C 5.31 g/m*3 2.4 C 1.6 km/h
1805 14-12-2013 06:20:00 2.4 C 5.31 g/m*3 2.4 C 1.6 km/h
1806 14-12-2013 06:25:00 2.5 C 5.35 g/m*3 2.5 C 1.6 km/h
1807 14-12-2013 06:30:00 2.6 C 5.38 g/m*3 2.6 C 3.2 km/h
1808 14-12-2013 06:35:00 2.6 C 5.38 g/m*3 0.82 C 6.4 km/h
1809 14-12-2013 06:40:00 2.8 C 5.46 g/m*3 0.52 C 8.1 km/h
1810 14-12-2013 06:45:00 2.8 C 5.46 g/m*3 -0.26 C 11.3 km/h
1811 14-12-2013 06:50:00 2.9 C 5.49 g/m*3 0.64 C 8.1 km/h
1812 14-12-2013 06:55:00 2.9 C 5.49 g/m*3 1.17 C 6.4 km/h
1813 14-12-2013 07:00:00 3 C 5.53 g/m*3 0.76 C 8.1 km/h
1814 14-12-2013 07:05:00 3.1 C 5.57 g/m*3 0.46 C 9.7 km/h
1815 14-12-2013 07:10:00 3.1 C 5.57 g/m*3 0.87 C 8.1 km/h
1816 14-12-2013 07:15:00 3.1 C 5.57 g/m*3 0.87 C 8.1 km/h
1817 14-12-2013 07:20:00 3.1 C 5.57 g/m*3 3.1 C 4.8 km/h
1818 14-12-2013 07:25:00 3.1 C 5.63 g/m*3 0.1 C 11.3 km/h
1819 14-12-2013 07:30:00 3 C 5.59 g/m*3 -0.34 C 12.9 km/h
1820 14-12-2013 07:35:00 3 C 5.59 g/m*3 -0.02 C 11.3 km/h
1821 14-12-2013 07:40:00 3 C 5.59 g/m*3 0.76 C 8.1 km/h
1822 14-12-2013 07:45:00 3 C 5.65 g/m*3 -0.02 C 11.3 km/h
1823 14-12-2013 07:50:00 3.1 C 5.69 g/m*3 0.46 C 9.7 km/h
1824 14-12-2013 07:55:00 3.1 C 5.63 g/m*3 -0.22 C 12.9 km/h
1825 14-12-2013 08:00:00 3.2 C 5.72 g/m*3 0.22 C 11.3 km/h
Sensor: Nr:Datum:Temp:Abs-Feuchte:Windchill:Wind:
Aussen-T/F 1826 14-12-2013 08:05:00 3.2 C 5.72 g/m*3 0.99 C 8.1 km/h
1827 14-12-2013 08:10:00 3.2 C 5.72 g/m*3 1.51 C 6.4 km/h
1828 14-12-2013 08:15:00 3.2 C 5.72 g/m*3 0.99 C 8.1 km/h
1829 14-12-2013 08:20:00 3.2 C 5.72 g/m*3 1.51 C 6.4 km/h
1830 14-12-2013 08:25:00 3.2 C 5.72 g/m*3 0.22 C 11.3 km/h
1831 14-12-2013 08:30:00 3.3 C 5.76 g/m*3 1.11 C 8.1 km/h
1832 14-12-2013 08:35:00 3.3 C 5.76 g/m*3 1.11 C 8.1 km/h
1833 14-12-2013 08:40:00 3.4 C 5.8 g/m*3 0.46 C 11.3 km/h
1834 14-12-2013 08:45:00 3.4 C 5.74 g/m*3 1.75 C 6.4 km/h
1835 14-12-2013 08:50:00 3.5 C 5.84 g/m*3 1.86 C 6.4 km/h
1836 14-12-2013 08:55:00 3.5 C 5.84 g/m*3 0.58 C 11.3 km/h
1837 14-12-2013 09:00:00 3.5 C 5.84 g/m*3 1.34 C 8.1 km/h
1838 14-12-2013 09:05:00 3.4 C 5.8 g/m*3 3.4 C 4.8 km/h
1839 14-12-2013 09:10:00 3.4 C 5.8 g/m*3 1.75 C 6.4 km/h
1840 14-12-2013 09:15:00 3.5 C 5.84 g/m*3 1.86 C 6.4 km/h
1841 14-12-2013 09:20:00 3.4 C 5.8 g/m*3 1.23 C 8.1 km/h
1842 14-12-2013 09:25:00 3.4 C 5.8 g/m*3 -0.4 C 16.1 km/h
1843 14-12-2013 09:30:00 3.4 C 5.8 g/m*3 -0.4 C 16.1 km/h
1844 14-12-2013 09:35:00 3.4 C 5.8 g/m*3 -0.14 C 14.5 km/h
1845 14-12-2013 09:40:00 3.4 C 5.8 g/m*3 0.46 C 11.3 km/h
1846 14-12-2013 09:45:00 3.5 C 5.84 g/m*3 0.94 C 9.7 km/h
1847 14-12-2013 10:00:00 3.6 C 5.88 g/m*3 1.98 C 6.4 km/h
1848 14-12-2013 10:05:00 3.7 C 5.92 g/m*3 1.58 C 8.1 km/h
1849 14-12-2013 10:10:00 3.7 C 5.92 g/m*3 2.09 C 6.4 km/h
1850 14-12-2013 10:15:00 3.7 C 5.92 g/m*3 1.18 C 9.7 km/h
Sensor: Nr:Datum:Temp:Abs-Feuchte:Windchill:Wind:
Aussen-T/F 1851 14-12-2013 10:20:00 3.7 C 5.92 g/m*3 0.82 C 11.3 km/h
1852 14-12-2013 10:25:00 3.7 C 5.92 g/m*3 0.23 C 14.5 km/h
1853 14-12-2013 10:30:00 3.8 C 5.96 g/m*3 0.63 C 12.9 km/h
1854 14-12-2013 10:35:00 3.8 C 5.96 g/m*3 0.94 C 11.3 km/h
1855 14-12-2013 10:40:00 3.8 C 5.9 g/m*3 0.94 C 11.3 km/h
1856 14-12-2013 10:45:00 3.8 C 5.9 g/m*3 1.29 C 9.7 km/h
1857 14-12-2013 10:50:00 3.8 C 5.9 g/m*3 1.7 C 8.1 km/h
1858 14-12-2013 10:55:00 3.8 C 5.96 g/m*3 1.7 C 8.1 km/h
1859 14-12-2013 11:00:00 3.8 C 5.96 g/m*3 1.7 C 8.1 km/h
1860 14-12-2013 11:05:00 3.8 C 5.96 g/m*3 3.8 C 4.8 km/h
1861 14-12-2013 11:10:00 3.8 C 5.96 g/m*3 0.94 C 11.3 km/h
1862 14-12-2013 11:15:00 3.9 C 6 g/m*3 1.06 C 11.3 km/h
1863 14-12-2013 11:20:00 4 C 6.04 g/m*3 1.18 C 11.3 km/h
1864 14-12-2013 11:25:00 4.1 C 6.02 g/m*3 0.24 C 17.7 km/h
1865 14-12-2013 11:30:00 4.2 C 6.06 g/m*3 0.36 C 17.7 km/h
1866 14-12-2013 11:35:00 4.3 C 6.1 g/m*3 2.78 C 6.4 km/h
1867 14-12-2013 11:40:00 4.3 C 6.1 g/m*3 2.29 C 8.1 km/h
1868 14-12-2013 11:45:00 4.4 C 6.14 g/m*3 4.4 C 3.2 km/h
1869 14-12-2013 11:50:00 4.4 C 6.14 g/m*3 2.9 C 6.4 km/h
1870 14-12-2013 11:55:00 4.4 C 6.14 g/m*3 4.4 C 4.8 km/h
1871 14-12-2013 12:00:00 4.5 C 6.18 g/m*3 2.13 C 9.7 km/h
1872 14-12-2013 12:05:00 4.5 C 6.11 g/m*3 2.13 C 9.7 km/h
1873 14-12-2013 12:10:00 4.6 C 6.22 g/m*3 1.34 C 14.5 km/h
1874 14-12-2013 12:15:00 4.6 C 6.15 g/m*3 1.91 C 11.3 km/h
1875 14-12-2013 12:20:00 4.7 C 6.19 g/m*3 2.37 C 9.7 km/h
Sensor: Nr:Datum:Temp:Abs-Feuchte:Windchill:Wind:
Aussen-T/F 1876 14-12-2013 12:25:00 4.7 C 6.19 g/m*3 1.73 C 12.9 km/h
1877 14-12-2013 12:30:00 4.8 C 6.24 g/m*3 2.87 C 8.1 km/h
1878 14-12-2013 12:35:00 4.9 C 6.28 g/m*3 2.27 C 11.3 km/h
1879 14-12-2013 12:40:00 4.9 C 6.28 g/m*3 1.7 C 14.5 km/h
1880 14-12-2013 12:45:00 5 C 6.32 g/m*3 3.59 C 6.4 km/h
1881 14-12-2013 12:50:00 5.1 C 6.36 g/m*3 3.71 C 6.4 km/h
1882 14-12-2013 12:55:00 5.1 C 6.36 g/m*3 3.23 C 8.1 km/h
1883 14-12-2013 13:00:00 5.1 C 6.36 g/m*3 3.71 C 6.4 km/h
1884 14-12-2013 13:05:00 5.2 C 6.4 g/m*3 3.82 C 6.4 km/h
1885 14-12-2013 13:10:00 5.1 C 6.36 g/m*3 2.51 C 11.3 km/h
1886 14-12-2013 13:15:00 5.1 C 6.36 g/m*3 3.23 C 8.1 km/h
1887 14-12-2013 13:20:00 5.1 C 6.36 g/m*3 3.23 C 8.1 km/h
1888 14-12-2013 13:25:00 5 C 6.32 g/m*3 3.11 C 8.1 km/h
1889 14-12-2013 13:30:00 5.1 C 6.36 g/m*3 2.84 C 9.7 km/h
1890 14-12-2013 13:35:00 5.1 C 6.36 g/m*3 2.22 C 12.9 km/h
1891 14-12-2013 13:40:00 5.1 C 6.36 g/m*3 3.71 C 6.4 km/h
1892 14-12-2013 13:45:00 5.2 C 6.4 g/m*3 3.34 C 8.1 km/h
1893 14-12-2013 13:50:00 5.2 C 6.4 g/m*3 3.82 C 6.4 km/h
1894 14-12-2013 13:55:00 5.3 C 6.45 g/m*3 3.46 C 8.1 km/h
1895 14-12-2013 14:00:00 5.3 C 6.45 g/m*3 2.75 C 11.3 km/h
1896 14-12-2013 14:05:00 5.4 C 6.42 g/m*3 2.08 C 16.1 km/h
1897 14-12-2013 14:10:00 5.5 C 6.46 g/m*3 2.99 C 11.3 km/h
1898 14-12-2013 14:15:00 5.6 C 6.5 g/m*3 3.44 C 9.7 km/h
1899 14-12-2013 14:20:00 5.6 C 6.5 g/m*3 3.81 C 8.1 km/h
1900 14-12-2013 14:25:00 5.6 C 6.5 g/m*3 3.44 C 9.7 km/h
Sensor: Nr:Datum:Temp:Abs-Feuchte:Windchill:Wind:
Aussen-T/F 1901 14-12-2013 14:30:00 5.6 C 6.5 g/m*3 3.44 C 9.7 km/h
1902 14-12-2013 14:35:00 5.7 C 6.55 g/m*3 5.7 C 4.8 km/h
1903 14-12-2013 14:40:00 5.7 C 6.48 g/m*3 3.93 C 8.1 km/h
1904 14-12-2013 14:45:00 5.6 C 6.43 g/m*3 5.6 C 4.8 km/h
1905 14-12-2013 14:50:00 5.6 C 6.43 g/m*3 3.44 C 9.7 km/h
1906 14-12-2013 14:55:00 5.6 C 6.43 g/m*3 3.81 C 8.1 km/h
1907 14-12-2013 15:00:00 5.6 C 6.43 g/m*3 5.6 C 4.8 km/h
1908 14-12-2013 15:05:00 5.5 C 6.39 g/m*3 5.5 C 4.8 km/h
1909 14-12-2013 15:10:00 5.5 C 6.39 g/m*3 3.32 C 9.7 km/h
1910 14-12-2013 15:15:00 5.4 C 6.42 g/m*3 5.4 C 4.8 km/h
1911 14-12-2013 15:20:00 5.4 C 6.42 g/m*3 3.58 C 8.1 km/h
1912 14-12-2013 15:25:00 5.4 C 6.42 g/m*3 5.4 C 4.8 km/h
1913 14-12-2013 15:30:00 5.4 C 6.42 g/m*3 3.58 C 8.1 km/h
1914 14-12-2013 15:35:00 5.4 C 6.42 g/m*3 4.06 C 6.4 km/h
1915 14-12-2013 15:40:00 5.4 C 6.42 g/m*3 3.58 C 8.1 km/h
1916 14-12-2013 15:45:00 5.4 C 6.35 g/m*3 4.06 C 6.4 km/h
1917 14-12-2013 15:50:00 5.4 C 6.42 g/m*3 4.06 C 6.4 km/h
1918 14-12-2013 15:55:00 5.4 C 6.35 g/m*3 4.06 C 6.4 km/h
1919 14-12-2013 16:00:00 5.4 C 6.42 g/m*3 5.4 C 4.8 km/h
1920 14-12-2013 16:05:00 5.4 C 6.42 g/m*3 4.06 C 6.4 km/h
1921 14-12-2013 16:10:00 5.3 C 6.38 g/m*3 5.3 C 4.8 km/h
1922 14-12-2013 16:15:00 5.3 C 6.38 g/m*3 5.3 C 4.8 km/h
1923 14-12-2013 16:20:00 5.3 C 6.31 g/m*3 3.08 C 9.7 km/h
1924 14-12-2013 16:25:00 5.3 C 6.31 g/m*3 3.94 C 6.4 km/h
1925 14-12-2013 16:30:00 5.3 C 6.31 g/m*3 5.3 C 4.8 km/h
Sensor: Nr:Datum:Temp:Abs-Feuchte:Windchill:Wind:
Aussen-T/F 1926 14-12-2013 16:35:00 5.4 C 6.35 g/m*3 5.4 C 4.8 km/h
1927 14-12-2013 16:40:00 5.4 C 6.42 g/m*3 4.06 C 6.4 km/h
1928 14-12-2013 16:45:00 5.4 C 6.35 g/m*3 3.58 C 8.1 km/h
1929 14-12-2013 16:50:00 5.5 C 6.39 g/m*3 2.7 C 12.9 km/h
1930 14-12-2013 16:55:00 5.5 C 6.39 g/m*3 5.5 C 4.8 km/h
1931 14-12-2013 17:00:00 5.6 C 6.43 g/m*3 3.44 C 9.7 km/h
1932 14-12-2013 17:05:00 5.6 C 6.36 g/m*3 3.44 C 9.7 km/h
1933 14-12-2013 17:10:00 5.4 C 6.35 g/m*3 4.06 C 6.4 km/h
1934 14-12-2013 17:15:00 5.4 C 6.35 g/m*3 5.4 C 4.8 km/h
1935 14-12-2013 17:20:00 5.3 C 6.31 g/m*3 5.3 C 4.8 km/h
1936 14-12-2013 17:25:00 5.1 C 6.29 g/m*3 5.1 C 4.8 km/h
1937 14-12-2013 17:30:00 4.8 C 6.17 g/m*3 4.8 C 3.2 km/h
1938 14-12-2013 17:35:00 4.6 C 6.09 g/m*3 4.6 C 3.2 km/h
1939 14-12-2013 17:40:00 4.2 C 5.99 g/m*3 4.2 C 3.2 km/h
1940 14-12-2013 17:45:00 3.9 C 5.87 g/m*3 3.9 C 3.2 km/h
1941 14-12-2013 17:50:00 3.7 C 5.86 g/m*3 3.7 C 4.8 km/h
1942 14-12-2013 17:55:00 3.6 C 5.82 g/m*3 3.6 C 3.2 km/h
1943 14-12-2013 18:00:00 3.4 C 5.74 g/m*3 3.4 C 3.2 km/h
1944 14-12-2013 18:05:00 3.3 C 5.76 g/m*3 3.3 C 3.2 km/h
1945 14-12-2013 18:10:00 3.2 C 5.72 g/m*3 3.2 C 4.8 km/h
1946 14-12-2013 18:15:00 3.2 C 5.72 g/m*3 3.2 C 3.2 km/h
1947 14-12-2013 18:20:00 3.1 C 5.69 g/m*3 3.1 C 3.2 km/h
1948 14-12-2013 18:25:00 3 C 5.65 g/m*3 3 C 3.2 km/h
1949 14-12-2013 18:30:00 3 C 5.71 g/m*3 3 C 3.2 km/h
1950 14-12-2013 18:35:00 3 C 5.71 g/m*3 3 C 3.2 km/h
Sensor: Nr:Datum:Temp:Abs-Feuchte:Windchill:Wind:
Aussen-T/F 1951 14-12-2013 18:40:00 3.1 C 5.75 g/m*3 3.1 C 4.8 km/h
1952 14-12-2013 18:45:00 2.9 C 5.67 g/m*3 2.9 C 1.6 km/h
1953 14-12-2013 18:50:00 2.9 C 5.67 g/m*3 2.9 C 3.2 km/h
1954 14-12-2013 18:55:00 2.8 C 5.63 g/m*3 2.8 C 3.2 km/h
1955 14-12-2013 19:00:00 2.8 C 5.63 g/m*3 2.8 C 3.2 km/h
1956 14-12-2013 19:05:00 2.8 C 5.63 g/m*3 2.8 C 3.2 km/h
1957 14-12-2013 19:10:00 3 C 5.77 g/m*3 3 C 4.8 km/h
1958 14-12-2013 19:15:00 3.4 C 5.92 g/m*3 1.23 C 8.1 km/h
1959 14-12-2013 19:20:00 3.7 C 6.04 g/m*3 1.18 C 9.7 km/h
1960 14-12-2013 19:25:00 4 C 6.1 g/m*3 0.6 C 14.5 km/h
1961 14-12-2013 19:30:00 4.2 C 6.12 g/m*3 1.77 C 9.7 km/h
1962 14-12-2013 19:35:00 4.2 C 6.12 g/m*3 2.17 C 8.1 km/h
1963 14-12-2013 19:40:00 4.3 C 6.1 g/m*3 2.78 C 6.4 km/h
1964 14-12-2013 19:45:00 4.4 C 6.14 g/m*3 2.01 C 9.7 km/h
1965 14-12-2013 19:50:00 4.2 C 5.99 g/m*3 4.2 C 4.8 km/h
1966 14-12-2013 19:55:00 4.2 C 5.99 g/m*3 1.77 C 9.7 km/h
1967 14-12-2013 20:00:00 4.1 C 5.95 g/m*3 4.1 C 4.8 km/h
1968 14-12-2013 20:05:00 4.1 C 5.95 g/m*3 2.55 C 6.4 km/h
1969 14-12-2013 20:10:00 4.1 C 5.95 g/m*3 2.55 C 6.4 km/h
1970 14-12-2013 20:15:00 4.2 C 5.99 g/m*3 4.2 C 4.8 km/h
1971 14-12-2013 20:20:00 4.1 C 5.95 g/m*3 4.1 C 4.8 km/h
1972 14-12-2013 20:25:00 4.1 C 5.95 g/m*3 2.05 C 8.1 km/h
1973 14-12-2013 20:30:00 3.9 C 5.81 g/m*3 2.32 C 6.4 km/h
1974 14-12-2013 20:35:00 3.9 C 5.87 g/m*3 3.9 C 4.8 km/h
1975 14-12-2013 20:40:00 3.8 C 5.83 g/m*3 3.8 C 4.8 km/h
Sensor: Nr:Datum:Temp:Abs-Feuchte:Windchill:Wind:
Aussen-T/F 1976 14-12-2013 20:45:00 3.7 C 5.8 g/m*3 2.09 C 6.4 km/h
1977 14-12-2013 20:50:00 3.6 C 5.76 g/m*3 3.6 C 4.8 km/h
1978 14-12-2013 20:55:00 3.6 C 5.82 g/m*3 3.6 C 4.8 km/h
1979 14-12-2013 21:00:00 3.6 C 5.82 g/m*3 3.6 C 4.8 km/h
1980 14-12-2013 21:05:00 3.7 C 5.86 g/m*3 3.7 C 4.8 km/h
1981 14-12-2013 21:10:00 3.8 C 5.83 g/m*3 1.7 C 8.1 km/h
1982 14-12-2013 21:15:00 3.8 C 5.83 g/m*3 1.7 C 8.1 km/h
1983 14-12-2013 21:20:00 3.8 C 5.83 g/m*3 3.8 C 4.8 km/h
1984 14-12-2013 21:25:00 3.8 C 5.83 g/m*3 3.8 C 4.8 km/h
1985 14-12-2013 21:30:00 3.9 C 5.87 g/m*3 2.32 C 6.4 km/h
1986 14-12-2013 21:35:00 3.9 C 5.81 g/m*3 2.32 C 6.4 km/h
1987 14-12-2013 21:40:00 3.8 C 5.77 g/m*3 1.7 C 8.1 km/h
1988 14-12-2013 21:45:00 3.9 C 5.81 g/m*3 2.32 C 6.4 km/h
1989 14-12-2013 21:50:00 3.9 C 5.81 g/m*3 1.41 C 9.7 km/h
1990 14-12-2013 21:55:00 4.1 C 5.82 g/m*3 2.55 C 6.4 km/h
1991 14-12-2013 22:00:00 3.8 C 5.71 g/m*3 3.8 C 4.8 km/h
1992 14-12-2013 22:05:00 3.7 C 5.73 g/m*3 1.18 C 9.7 km/h
1993 14-12-2013 22:10:00 3.8 C 5.77 g/m*3 2.21 C 6.4 km/h
1994 14-12-2013 22:15:00 3.9 C 5.81 g/m*3 3.9 C 4.8 km/h
1995 14-12-2013 22:20:00 3.9 C 5.81 g/m*3 1.82 C 8.1 km/h
1996 14-12-2013 22:25:00 4.2 C 5.93 g/m*3 2.17 C 8.1 km/h
1997 14-12-2013 22:30:00 4.3 C 5.97 g/m*3 2.29 C 8.1 km/h
1998 14-12-2013 22:35:00 4.5 C 5.98 g/m*3 1.79 C 11.3 km/h
1999 14-12-2013 22:40:00 4.7 C 6.06 g/m*3 1.21 C 16.1 km/h
2000 14-12-2013 22:45:00 4.7 C 6 g/m*3 1.21 C 16.1 km/h
Sensor: Nr:Datum:Temp:Abs-Feuchte:Windchill:Wind:
Aussen-T/F 2001 14-12-2013 22:50:00 4.7 C 6 g/m*3 1.73 C 12.9 km/h
2002 14-12-2013 22:55:00 4.7 C 6.06 g/m*3 2.03 C 11.3 km/h
2003 14-12-2013 23:00:00 4.7 C 6.06 g/m*3 0.78 C 19.3 km/h
2004 14-12-2013 23:05:00 4.7 C 6 g/m*3 0.78 C 19.3 km/h
2005 14-12-2013 23:10:00 4.7 C 6.06 g/m*3 1.21 C 16.1 km/h
2006 14-12-2013 23:15:00 4.7 C 6.06 g/m*3 1.73 C 12.9 km/h
2007 14-12-2013 23:20:00 4.7 C 6.06 g/m*3 1.73 C 12.9 km/h
2008 14-12-2013 23:25:00 4.7 C 6.06 g/m*3 1.46 C 14.5 km/h
2009 14-12-2013 23:30:00 4.8 C 6.04 g/m*3 0.9 C 19.3 km/h
2010 14-12-2013 23:35:00 4.8 C 6.1 g/m*3 2.87 C 8.1 km/h
2011 14-12-2013 23:40:00 4.8 C 6.1 g/m*3 1.85 C 12.9 km/h
2012 14-12-2013 23:45:00 4.9 C 6.08 g/m*3 2.27 C 11.3 km/h
2013 14-12-2013 23:50:00 4.9 C 6.08 g/m*3 1.97 C 12.9 km/h
2014 14-12-2013 23:55:00 4.9 C 6.08 g/m*3 3.48 C 6.4 km/h
2015 15-12-2013 00:00:00 5 C 6.12 g/m*3 5 C 4.8 km/h
2016 15-12-2013 00:05:00 5 C 6.05 g/m*3 2.39 C 11.3 km/h
2017 15-12-2013 00:10:00 5.1 C 6.09 g/m*3 3.23 C 8.1 km/h
2018 15-12-2013 00:15:00 5.1 C 6.09 g/m*3 1.09 C 20.9 km/h
2019 15-12-2013 00:20:00 5.1 C 6.09 g/m*3 2.84 C 9.7 km/h
2020 15-12-2013 00:25:00 5.1 C 6.09 g/m*3 2.22 C 12.9 km/h
2021 15-12-2013 00:30:00 5.1 C 6.09 g/m*3 2.51 C 11.3 km/h
2022 15-12-2013 00:35:00 5.1 C 6.09 g/m*3 3.71 C 6.4 km/h
2023 15-12-2013 00:40:00 5.1 C 6.09 g/m*3 5.1 C 4.8 km/h
2024 15-12-2013 00:45:00 5 C 6.05 g/m*3 5 C 3.2 km/h
2025 15-12-2013 00:50:00 4.9 C 6.01 g/m*3 3.48 C 6.4 km/h
Sensor: Nr:Datum:Temp:Abs-Feuchte:Windchill:Wind:
Aussen-T/F 2026 15-12-2013 00:55:00 4.9 C 6.01 g/m*3 4.9 C 4.8 km/h
2027 15-12-2013 01:00:00 4.9 C 6.08 g/m*3 4.9 C 4.8 km/h
2028 15-12-2013 01:05:00 4.9 C 6.08 g/m*3 4.9 C 4.8 km/h
2029 15-12-2013 01:10:00 4.9 C 6.08 g/m*3 3.48 C 6.4 km/h
2030 15-12-2013 01:15:00 4.9 C 6.08 g/m*3 4.9 C 3.2 km/h
2031 15-12-2013 01:20:00 4.9 C 6.08 g/m*3 2.99 C 8.1 km/h
2032 15-12-2013 01:25:00 4.9 C 6.08 g/m*3 3.48 C 6.4 km/h
2033 15-12-2013 01:30:00 4.9 C 6.08 g/m*3 3.48 C 6.4 km/h
2034 15-12-2013 01:35:00 4.9 C 6.08 g/m*3 3.48 C 6.4 km/h
2035 15-12-2013 01:40:00 4.9 C 6.08 g/m*3 3.48 C 6.4 km/h
2036 15-12-2013 01:45:00 4.9 C 6.08 g/m*3 2.27 C 11.3 km/h
2037 15-12-2013 01:50:00 4.9 C 6.08 g/m*3 3.48 C 6.4 km/h
2038 15-12-2013 01:55:00 4.9 C 6.08 g/m*3 4.9 C 3.2 km/h
2039 15-12-2013 02:00:00 4.9 C 6.08 g/m*3 4.9 C 0 km/h
2040 15-12-2013 02:05:00 4.9 C 6.08 g/m*3 4.9 C 3.2 km/h
2041 15-12-2013 02:10:00 4.9 C 6.08 g/m*3 4.9 C 4.8 km/h
2042 15-12-2013 02:15:00 5 C 6.12 g/m*3 3.59 C 6.4 km/h
2043 15-12-2013 02:20:00 5.1 C 6.16 g/m*3 3.71 C 6.4 km/h
2044 15-12-2013 02:25:00 5.1 C 6.16 g/m*3 3.71 C 6.4 km/h
2045 15-12-2013 02:30:00 5.1 C 6.16 g/m*3 5.1 C 3.2 km/h
2046 15-12-2013 02:35:00 5.1 C 6.16 g/m*3 5.1 C 3.2 km/h
2047 15-12-2013 02:40:00 5.1 C 6.16 g/m*3 5.1 C 4.8 km/h
2048 15-12-2013 02:45:00 5.1 C 6.09 g/m*3 2.84 C 9.7 km/h
2049 15-12-2013 02:50:00 5.1 C 6.09 g/m*3 3.23 C 8.1 km/h
2050 15-12-2013 02:55:00 5.1 C 6.16 g/m*3 3.23 C 8.1 km/h
Sensor: Nr:Datum:Temp:Abs-Feuchte:Windchill:Wind:
Aussen-T/F 2051 15-12-2013 03:00:00 5.1 C 6.16 g/m*3 5.1 C 3.2 km/h
2052 15-12-2013 03:05:00 5.1 C 6.16 g/m*3 5.1 C 3.2 km/h
2053 15-12-2013 03:10:00 5.2 C 6.2 g/m*3 5.2 C 3.2 km/h
2054 15-12-2013 03:15:00 5.2 C 6.13 g/m*3 5.2 C 3.2 km/h
2055 15-12-2013 03:20:00 5.2 C 6.13 g/m*3 5.2 C 3.2 km/h
2056 15-12-2013 03:25:00 5.2 C 6.2 g/m*3 5.2 C 1.6 km/h
2057 15-12-2013 03:30:00 5.1 C 6.16 g/m*3 2.84 C 9.7 km/h
2058 15-12-2013 03:35:00 5.2 C 6.2 g/m*3 5.2 C 3.2 km/h
2059 15-12-2013 03:40:00 5.1 C 6.16 g/m*3 3.23 C 8.1 km/h
2060 15-12-2013 03:45:00 5.2 C 6.13 g/m*3 3.82 C 6.4 km/h
2061 15-12-2013 03:50:00 5.2 C 6.13 g/m*3 3.34 C 8.1 km/h
2062 15-12-2013 03:55:00 5.2 C 6.13 g/m*3 5.2 C 4.8 km/h
2063 15-12-2013 04:00:00 5.2 C 6.13 g/m*3 5.2 C 4.8 km/h
2064 15-12-2013 04:05:00 5.2 C 6.13 g/m*3 5.2 C 3.2 km/h
2065 15-12-2013 04:10:00 5.2 C 6.13 g/m*3 5.2 C 4.8 km/h
2066 15-12-2013 04:15:00 5.3 C 6.1 g/m*3 3.94 C 6.4 km/h
2067 15-12-2013 04:20:00 5.3 C 6.1 g/m*3 5.3 C 3.2 km/h
2068 15-12-2013 04:25:00 5.3 C 6.1 g/m*3 5.3 C 3.2 km/h
2069 15-12-2013 04:30:00 5.3 C 6.17 g/m*3 5.3 C 1.6 km/h
2070 15-12-2013 04:35:00 5.1 C 6.09 g/m*3 5.1 C 1.6 km/h
2071 15-12-2013 04:40:00 4.9 C 6.08 g/m*3 4.9 C 1.6 km/h
2072 15-12-2013 04:45:00 4.8 C 6.1 g/m*3 4.8 C 3.2 km/h
2073 15-12-2013 04:50:00 4.7 C 6.06 g/m*3 4.7 C 3.2 km/h
2074 15-12-2013 04:55:00 4.6 C 6.02 g/m*3 4.6 C 1.6 km/h
2075 15-12-2013 05:00:00 4.4 C 6.01 g/m*3 4.4 C 3.2 km/h
Sensor: Nr:Datum:Temp:Abs-Feuchte:Windchill:Wind:
Aussen-T/F 2076 15-12-2013 05:05:00 4.3 C 5.97 g/m*3 4.3 C 4.8 km/h
2077 15-12-2013 05:10:00 4.3 C 6.03 g/m*3 4.3 C 4.8 km/h
2078 15-12-2013 05:15:00 4.4 C 6.01 g/m*3 2.01 C 9.7 km/h
2079 15-12-2013 05:20:00 4.7 C 6.06 g/m*3 4.7 C 4.8 km/h
2080 15-12-2013 05:25:00 4.9 C 6.08 g/m*3 2.61 C 9.7 km/h
2081 15-12-2013 05:30:00 5.2 C 6.13 g/m*3 2.07 C 14.5 km/h
2082 15-12-2013 05:35:00 5.2 C 6.13 g/m*3 2.96 C 9.7 km/h
2083 15-12-2013 05:40:00 5.3 C 6.17 g/m*3 3.46 C 8.1 km/h
2084 15-12-2013 05:45:00 5.4 C 6.14 g/m*3 4.06 C 6.4 km/h
2085 15-12-2013 05:50:00 5.4 C 6.14 g/m*3 4.06 C 6.4 km/h
2086 15-12-2013 05:55:00 5.4 C 6.07 g/m*3 4.06 C 6.4 km/h
2087 15-12-2013 06:00:00 5.4 C 6.07 g/m*3 5.4 C 3.2 km/h
2088 15-12-2013 06:05:00 5.4 C 6.07 g/m*3 5.4 C 4.8 km/h
2089 15-12-2013 06:10:00 5.4 C 6 g/m*3 2.08 C 16.1 km/h
2090 15-12-2013 06:15:00 5.6 C 6.08 g/m*3 4.29 C 6.4 km/h
2091 15-12-2013 06:20:00 5.7 C 6.05 g/m*3 4.4 C 6.4 km/h
2092 15-12-2013 06:25:00 5.7 C 5.98 g/m*3 4.4 C 6.4 km/h
2093 15-12-2013 06:30:00 5.7 C 5.98 g/m*3 5.7 C 4.8 km/h
2094 15-12-2013 06:35:00 5.8 C 5.95 g/m*3 4.05 C 8.1 km/h
2095 15-12-2013 06:40:00 5.7 C 6.05 g/m*3 5.7 C 3.2 km/h
2096 15-12-2013 06:45:00 5.5 C 6.04 g/m*3 5.5 C 1.6 km/h
2097 15-12-2013 06:50:00 5.3 C 5.89 g/m*3 3.08 C 9.7 km/h
2098 15-12-2013 06:55:00 5.5 C 5.83 g/m*3 2.99 C 11.3 km/h
2099 15-12-2013 07:00:00 5.6 C 5.87 g/m*3 5.6 C 4.8 km/h
2100 15-12-2013 07:05:00 5.6 C 5.94 g/m*3 3.81 C 8.1 km/h
Sensor: Nr:Datum:Temp:Abs-Feuchte:Windchill:Wind:
Aussen-T/F 2101 15-12-2013 07:10:00 5.5 C 5.97 g/m*3 5.5 C 0 km/h
2102 15-12-2013 07:15:00 5.3 C 5.89 g/m*3 5.3 C 0 km/h
2103 15-12-2013 07:20:00 5.2 C 5.92 g/m*3 5.2 C 3.2 km/h
2104 15-12-2013 07:25:00 5.1 C 5.95 g/m*3 5.1 C 3.2 km/h
2105 15-12-2013 07:30:00 4.9 C 5.87 g/m*3 4.9 C 3.2 km/h
2106 15-12-2013 07:35:00 4.9 C 5.94 g/m*3 4.9 C 0 km/h
2107 15-12-2013 07:40:00 4.8 C 5.9 g/m*3 4.8 C 3.2 km/h
2108 15-12-2013 07:45:00 4.8 C 5.97 g/m*3 4.8 C 1.6 km/h
2109 15-12-2013 07:50:00 4.8 C 5.83 g/m*3 4.8 C 4.8 km/h
2110 15-12-2013 07:55:00 4.9 C 5.87 g/m*3 4.9 C 1.6 km/h
2111 15-12-2013 08:00:00 4.9 C 5.94 g/m*3 4.9 C 0 km/h
2112 15-12-2013 08:05:00 4.9 C 5.94 g/m*3 4.9 C 3.2 km/h
2113 15-12-2013 08:10:00 4.8 C 5.97 g/m*3 4.8 C 1.6 km/h
2114 15-12-2013 08:15:00 4.8 C 5.97 g/m*3 4.8 C 0 km/h
2115 15-12-2013 08:20:00 4.8 C 5.97 g/m*3 4.8 C 0 km/h
2116 15-12-2013 08:25:00 4.8 C 5.97 g/m*3 4.8 C 1.6 km/h
2117 15-12-2013 08:30:00 4.8 C 5.9 g/m*3 4.8 C 3.2 km/h
2118 15-12-2013 08:35:00 4.9 C 5.87 g/m*3 4.9 C 1.6 km/h
2119 15-12-2013 08:40:00 4.9 C 6.01 g/m*3 4.9 C 0 km/h
2120 15-12-2013 08:45:00 4.9 C 6.01 g/m*3 4.9 C 1.6 km/h
2121 15-12-2013 08:50:00 4.8 C 6.04 g/m*3 4.8 C 0 km/h
2122 15-12-2013 08:55:00 4.8 C 6.1 g/m*3 4.8 C 0 km/h
2123 15-12-2013 09:00:00 4.8 C 6.04 g/m*3 4.8 C 1.6 km/h
2124 15-12-2013 09:05:00 4.8 C 5.97 g/m*3 4.8 C 1.6 km/h
2125 15-12-2013 09:10:00 4.9 C 5.94 g/m*3 3.48 C 6.4 km/h
Sensor: Nr:Datum:Temp:Abs-Feuchte:Windchill:Wind:
Aussen-T/F 2126 15-12-2013 09:15:00 5 C 5.91 g/m*3 5 C 1.6 km/h
2127 15-12-2013 09:20:00 5.1 C 6.02 g/m*3 5.1 C 0 km/h
2128 15-12-2013 09:25:00 5.2 C 5.92 g/m*3 3.34 C 8.1 km/h
2129 15-12-2013 09:30:00 5.3 C 5.82 g/m*3 3.46 C 8.1 km/h
2130 15-12-2013 09:35:00 5.6 C 5.87 g/m*3 3.11 C 11.3 km/h
2131 15-12-2013 09:40:00 5.8 C 5.95 g/m*3 4.52 C 6.4 km/h
2132 15-12-2013 09:45:00 6 C 5.81 g/m*3 3.6 C 11.3 km/h
2133 15-12-2013 09:50:00 6.3 C 5.85 g/m*3 2.98 C 17.7 km/h
2134 15-12-2013 09:55:00 6.6 C 5.81 g/m*3 3.79 C 14.5 km/h
2135 15-12-2013 10:00:00 6.6 C 5.89 g/m*3 6.6 C 4.8 km/h
2136 15-12-2013 10:05:00 6.5 C 5.85 g/m*3 5.33 C 6.4 km/h
2137 15-12-2013 10:10:00 6.5 C 5.85 g/m*3 5.33 C 6.4 km/h
2138 15-12-2013 10:15:00 6.5 C 5.77 g/m*3 6.5 C 4.8 km/h
2139 15-12-2013 10:20:00 6.6 C 5.81 g/m*3 5.44 C 6.4 km/h
2140 15-12-2013 10:25:00 6.6 C 5.81 g/m*3 4.63 C 9.7 km/h
2141 15-12-2013 10:30:00 6.7 C 5.85 g/m*3 4.75 C 9.7 km/h
2142 15-12-2013 10:35:00 6.7 C 5.77 g/m*3 5.11 C 8.1 km/h
2143 15-12-2013 10:40:00 6.8 C 5.81 g/m*3 4.29 C 12.9 km/h
2144 15-12-2013 10:45:00 6.8 C 5.81 g/m*3 4.29 C 12.9 km/h
2145 15-12-2013 10:50:00 6.8 C 5.81 g/m*3 4.04 C 14.5 km/h
2146 15-12-2013 10:55:00 6.8 C 5.81 g/m*3 4.04 C 14.5 km/h
2147 15-12-2013 11:00:00 6.8 C 5.81 g/m*3 4.56 C 11.3 km/h
2148 15-12-2013 11:05:00 6.8 C 5.81 g/m*3 4.87 C 9.7 km/h
2149 15-12-2013 11:10:00 6.8 C 5.81 g/m*3 4.29 C 12.9 km/h
2150 15-12-2013 11:15:00 6.8 C 5.81 g/m*3 4.04 C 14.5 km/h
Sensor: Nr:Datum:Temp:Abs-Feuchte:Windchill:Wind:
Aussen-T/F 2151 15-12-2013 11:20:00 6.8 C 5.81 g/m*3 4.56 C 11.3 km/h
2152 15-12-2013 11:25:00 6.9 C 5.77 g/m*3 3.94 C 16.1 km/h
2153 15-12-2013 11:30:00 6.9 C 5.85 g/m*3 4.16 C 14.5 km/h
2154 15-12-2013 11:35:00 7 C 5.81 g/m*3 4.29 C 14.5 km/h
2155 15-12-2013 11:40:00 7.1 C 5.85 g/m*3 4.19 C 16.1 km/h
2156 15-12-2013 11:45:00 7.1 C 5.85 g/m*3 4.41 C 14.5 km/h
2157 15-12-2013 11:50:00 7.2 C 5.89 g/m*3 4.77 C 12.9 km/h
2158 15-12-2013 11:55:00 7.2 C 5.81 g/m*3 4.77 C 12.9 km/h
2159 15-12-2013 12:00:00 7.3 C 5.85 g/m*3 4.66 C 14.5 km/h
2160 15-12-2013 12:05:00 7.4 C 5.88 g/m*3 5.28 C 11.3 km/h
2161 15-12-2013 12:10:00 7.5 C 5.84 g/m*3 4.68 C 16.1 km/h
2162 15-12-2013 12:15:00 7.6 C 5.88 g/m*3 5.26 C 12.9 km/h
2163 15-12-2013 12:20:00 7.7 C 5.84 g/m*3 4.38 C 20.9 km/h
2164 15-12-2013 12:25:00 7.8 C 5.88 g/m*3 5.27 C 14.5 km/h
2165 15-12-2013 12:30:00 7.8 C 5.96 g/m*3 5.77 C 11.3 km/h
2166 15-12-2013 12:35:00 7.8 C 5.79 g/m*3 4.68 C 19.3 km/h
2167 15-12-2013 12:40:00 7.8 C 5.88 g/m*3 5.27 C 14.5 km/h
2168 15-12-2013 12:45:00 7.8 C 5.88 g/m*3 5.06 C 16.1 km/h
2169 15-12-2013 12:50:00 7.9 C 5.83 g/m*3 5.39 C 14.5 km/h
2170 15-12-2013 12:55:00 7.9 C 5.91 g/m*3 4.47 C 22.5 km/h
2171 15-12-2013 13:00:00 8 C 5.95 g/m*3 4.6 C 22.5 km/h
2172 15-12-2013 13:05:00 8 C 5.87 g/m*3 5.52 C 14.5 km/h
2173 15-12-2013 13:10:00 8.1 C 5.91 g/m*3 5.43 C 16.1 km/h
2174 15-12-2013 13:15:00 8.2 C 5.95 g/m*3 6.54 C 9.7 km/h
2175 15-12-2013 13:20:00 8.3 C 5.9 g/m*3 5.31 C 19.3 km/h
Sensor: Nr:Datum:Temp:Abs-Feuchte:Windchill:Wind:
Aussen-T/F 2176 15-12-2013 13:25:00 8.3 C 5.82 g/m*3 5.68 C 16.1 km/h
2177 15-12-2013 13:30:00 8.3 C 5.82 g/m*3 5.68 C 16.1 km/h
2178 15-12-2013 13:35:00 8.3 C 5.82 g/m*3 6.37 C 11.3 km/h
2179 15-12-2013 13:40:00 8.3 C 5.82 g/m*3 5.31 C 19.3 km/h
2180 15-12-2013 13:45:00 8.3 C 5.9 g/m*3 6.37 C 11.3 km/h
2181 15-12-2013 13:50:00 8.3 C 5.9 g/m*3 5.89 C 14.5 km/h
2182 15-12-2013 13:55:00 8.2 C 5.86 g/m*3 6.87 C 8.1 km/h
2183 15-12-2013 14:00:00 8.2 C 5.95 g/m*3 6.87 C 8.1 km/h
2184 15-12-2013 14:05:00 8.1 C 5.91 g/m*3 6.75 C 8.1 km/h
2185 15-12-2013 14:10:00 8 C 5.95 g/m*3 6.3 C 9.7 km/h
2186 15-12-2013 14:15:00 7.9 C 6.08 g/m*3 6.94 C 6.4 km/h
2187 15-12-2013 14:20:00 7.9 C 6 g/m*3 6.52 C 8.1 km/h
2188 15-12-2013 14:25:00 7.8 C 6.04 g/m*3 6.83 C 6.4 km/h
2189 15-12-2013 14:30:00 7.9 C 6.08 g/m*3 6.18 C 9.7 km/h
2190 15-12-2013 14:35:00 7.9 C 5.91 g/m*3 5.89 C 11.3 km/h
2191 15-12-2013 14:40:00 8.1 C 6.07 g/m*3 6.75 C 8.1 km/h
2192 15-12-2013 14:45:00 8.1 C 6.24 g/m*3 8.1 C 4.8 km/h
2193 15-12-2013 14:50:00 7.7 C 6.16 g/m*3 7.7 C 3.2 km/h
2194 15-12-2013 14:55:00 7.4 C 6.04 g/m*3 7.4 C 3.2 km/h
2195 15-12-2013 15:00:00 7.2 C 6.12 g/m*3 7.2 C 3.2 km/h
2196 15-12-2013 15:05:00 7.2 C 6.12 g/m*3 5.69 C 8.1 km/h
2197 15-12-2013 15:10:00 7 C 6.12 g/m*3 7 C 3.2 km/h
2198 15-12-2013 15:15:00 6.8 C 6.12 g/m*3 6.8 C 3.2 km/h
2199 15-12-2013 15:20:00 6.6 C 6.11 g/m*3 6.6 C 3.2 km/h
2200 15-12-2013 15:25:00 6.3 C 6.07 g/m*3 6.3 C 3.2 km/h
Sensor: Nr:Datum:Temp:Abs-Feuchte:Windchill:Wind:
Aussen-T/F 2201 15-12-2013 15:30:00 6.2 C 6.1 g/m*3 6.2 C 3.2 km/h
2202 15-12-2013 15:35:00 6.1 C 6.14 g/m*3 6.1 C 3.2 km/h
2203 15-12-2013 15:41:00 5.9 C 6.13 g/m*3 5.9 C 4.8 km/h
2204 15-12-2013 15:45:00 5.8 C 6.09 g/m*3 5.8 C 3.2 km/h
2205 15-12-2013 15:50:00 5.8 C 6.02 g/m*3 5.8 C 3.2 km/h
2206 15-12-2013 15:55:00 5.8 C 6.09 g/m*3 5.8 C 3.2 km/h
2207 15-12-2013 16:00:00 5.6 C 6.08 g/m*3 5.6 C 1.6 km/h
2208 15-12-2013 16:05:00 5.4 C 6 g/m*3 5.4 C 3.2 km/h
2209 15-12-2013 16:10:00 5.3 C 5.96 g/m*3 5.3 C 4.8 km/h
2210 15-12-2013 16:15:00 5.3 C 6.03 g/m*3 5.3 C 4.8 km/h
2211 15-12-2013 16:20:00 5.2 C 5.99 g/m*3 5.2 C 3.2 km/h
2212 15-12-2013 16:25:00 5.1 C 5.95 g/m*3 5.1 C 4.8 km/h
2213 15-12-2013 16:30:00 5 C 5.84 g/m*3 5 C 3.2 km/h
2214 15-12-2013 16:35:00 4.9 C 5.87 g/m*3 4.9 C 3.2 km/h
2215 15-12-2013 16:40:00 4.9 C 5.87 g/m*3 4.9 C 3.2 km/h
2216 15-12-2013 16:45:00 4.8 C 5.83 g/m*3 4.8 C 4.8 km/h
2217 15-12-2013 16:50:00 4.7 C 5.86 g/m*3 4.7 C 1.6 km/h
2218 15-12-2013 16:55:00 4.7 C 5.86 g/m*3 4.7 C 1.6 km/h
2219 15-12-2013 17:00:00 4.7 C 5.86 g/m*3 4.7 C 3.2 km/h
2220 15-12-2013 17:05:00 4.8 C 5.77 g/m*3 4.8 C 4.8 km/h
2221 15-12-2013 17:10:00 4.8 C 5.83 g/m*3 4.8 C 3.2 km/h
2222 15-12-2013 17:15:00 4.6 C 5.76 g/m*3 4.6 C 3.2 km/h
2223 15-12-2013 17:20:00 4.4 C 5.68 g/m*3 4.4 C 3.2 km/h
2224 15-12-2013 17:25:00 4.3 C 5.71 g/m*3 4.3 C 1.6 km/h
2225 15-12-2013 17:30:00 4.4 C 5.81 g/m*3 4.4 C 3.2 km/h
Sensor: Nr:Datum:Temp:Abs-Feuchte:Windchill:Wind:
Aussen-T/F 2226 15-12-2013 17:35:00 4.3 C 5.71 g/m*3 4.3 C 3.2 km/h
2227 15-12-2013 17:40:00 4.3 C 5.77 g/m*3 4.3 C 1.6 km/h
2228 15-12-2013 17:45:00 4.2 C 5.73 g/m*3 4.2 C 0 km/h
2229 15-12-2013 17:50:00 4.2 C 5.73 g/m*3 4.2 C 3.2 km/h
2230 15-12-2013 17:55:00 4.2 C 5.8 g/m*3 4.2 C 0 km/h
2231 15-12-2013 18:00:00 4.3 C 5.84 g/m*3 4.3 C 0 km/h
2232 15-12-2013 18:05:00 4.3 C 5.9 g/m*3 4.3 C 1.6 km/h
2233 15-12-2013 18:10:00 4.4 C 5.94 g/m*3 4.4 C 3.2 km/h
2234 15-12-2013 18:15:00 4.6 C 6.02 g/m*3 4.6 C 1.6 km/h
2235 15-12-2013 18:20:00 4.6 C 5.96 g/m*3 4.6 C 0 km/h
2236 15-12-2013 18:25:00 4.7 C 6 g/m*3 4.7 C 0 km/h
2237 15-12-2013 18:30:00 4.7 C 6 g/m*3 4.7 C 3.2 km/h
2238 15-12-2013 18:38:00 4.7 C 5.93 g/m*3 4.7 C 0 km/h
2239 15-12-2013 18:40:00 4.6 C 5.89 g/m*3 4.6 C 0 km/h
2240 15-12-2013 18:45:00 4.5 C 5.85 g/m*3 4.5 C 1.6 km/h
2241 15-12-2013 18:50:00 4.4 C 5.81 g/m*3 4.4 C 0 km/h
2242 15-12-2013 18:55:00 4.4 C 5.81 g/m*3 4.4 C 0 km/h
2243 15-12-2013 19:00:00 4.2 C 5.73 g/m*3 4.2 C 1.6 km/h
2244 15-12-2013 19:05:00 4.1 C 5.7 g/m*3 4.1 C 0 km/h
2245 15-12-2013 19:10:00 3.9 C 5.68 g/m*3 3.9 C 0 km/h
2246 15-12-2013 19:15:00 3.8 C 5.65 g/m*3 3.8 C 3.2 km/h
2247 15-12-2013 19:20:00 3.7 C 5.61 g/m*3 3.7 C 1.6 km/h
2248 15-12-2013 19:25:00 3.6 C 5.57 g/m*3 3.6 C 0 km/h
2249 15-12-2013 19:30:00 3.4 C 5.56 g/m*3 3.4 C 0 km/h
2250 15-12-2013 19:35:00 3.3 C 5.52 g/m*3 3.3 C 1.6 km/h
Sensor: Nr:Datum:Temp:Abs-Feuchte:Windchill:Wind:
Aussen-T/F 2251 15-12-2013 19:40:00 3.2 C 5.48 g/m*3 3.2 C 0 km/h
2252 15-12-2013 19:45:00 3.1 C 5.45 g/m*3 3.1 C 0 km/h
2253 15-12-2013 19:50:00 3.1 C 5.51 g/m*3 3.1 C 1.6 km/h
2254 15-12-2013 19:55:00 3.1 C 5.51 g/m*3 3.1 C 0 km/h
2255 15-12-2013 20:00:00 3 C 5.47 g/m*3 3 C 0 km/h
2256 15-12-2013 20:05:00 2.9 C 5.43 g/m*3 2.9 C 0 km/h
2257 15-12-2013 20:10:00 2.8 C 5.4 g/m*3 2.8 C 0 km/h
2258 15-12-2013 20:15:00 2.8 C 5.4 g/m*3 2.8 C 0 km/h
2259 15-12-2013 20:20:00 2.7 C 5.42 g/m*3 2.7 C 0 km/h
2260 15-12-2013 20:25:00 2.7 C 5.42 g/m*3 2.7 C 0 km/h
2261 15-12-2013 20:30:00 2.7 C 5.42 g/m*3 2.7 C 1.6 km/h
2262 15-12-2013 20:35:00 2.6 C 5.38 g/m*3 2.6 C 1.6 km/h
2263 15-12-2013 20:40:00 2.5 C 5.29 g/m*3 2.5 C 0 km/h
2264 15-12-2013 20:45:00 2.4 C 5.25 g/m*3 2.4 C 0 km/h
2265 15-12-2013 20:50:00 2.3 C 5.27 g/m*3 2.3 C 0 km/h
2266 15-12-2013 20:55:00 2.3 C 5.27 g/m*3 2.3 C 0 km/h
2267 15-12-2013 21:00:00 2.4 C 5.31 g/m*3 2.4 C 0 km/h
2268 15-12-2013 21:05:00 2.3 C 5.27 g/m*3 2.3 C 0 km/h
2269 15-12-2013 21:10:00 2.3 C 5.27 g/m*3 2.3 C 0 km/h
2270 15-12-2013 21:15:00 2.2 C 5.24 g/m*3 2.2 C 0 km/h
2271 15-12-2013 21:20:00 2.1 C 5.2 g/m*3 2.1 C 0 km/h
2272 15-12-2013 21:25:00 2.1 C 5.2 g/m*3 2.1 C 1.6 km/h
2273 15-12-2013 21:30:00 2.1 C 5.26 g/m*3 2.1 C 0 km/h
2274 15-12-2013 21:35:00 2 C 5.22 g/m*3 2 C 0 km/h
2275 15-12-2013 21:40:00 1.9 C 5.13 g/m*3 1.9 C 0 km/h
Sensor: Nr:Datum:Temp:Abs-Feuchte:Windchill:Wind:
Aussen-T/F 2276 15-12-2013 21:45:00 1.9 C 5.19 g/m*3 1.9 C 1.6 km/h
2277 15-12-2013 21:50:00 1.9 C 5.19 g/m*3 1.9 C 0 km/h
2278 15-12-2013 21:55:00 1.9 C 5.19 g/m*3 1.9 C 0 km/h
2279 15-12-2013 22:00:00 1.8 C 5.1 g/m*3 1.8 C 0 km/h
2280 15-12-2013 22:05:00 1.7 C 5.06 g/m*3 1.7 C 0 km/h
2281 15-12-2013 22:10:00 1.6 C 5.08 g/m*3 1.6 C 0 km/h
2282 15-12-2013 22:15:00 1.6 C 5.08 g/m*3 1.6 C 0 km/h
2283 15-12-2013 22:20:00 1.6 C 5.08 g/m*3 1.6 C 0 km/h
2284 15-12-2013 22:25:00 1.5 C 5.05 g/m*3 1.5 C 0 km/h
2285 15-12-2013 22:30:00 1.4 C 5.01 g/m*3 1.4 C 0 km/h
2286 15-12-2013 22:35:00 1.4 C 5.01 g/m*3 1.4 C 1.6 km/h
2287 15-12-2013 22:40:00 1.3 C 4.98 g/m*3 1.3 C 0 km/h
2288 15-12-2013 22:45:00 1.3 C 4.98 g/m*3 1.3 C 1.6 km/h
2289 15-12-2013 22:50:00 1.3 C 4.98 g/m*3 1.3 C 1.6 km/h
2290 15-12-2013 22:55:00 1.3 C 4.98 g/m*3 1.3 C 1.6 km/h
2291 15-12-2013 23:00:00 1.3 C 4.98 g/m*3 1.3 C 0 km/h
2292 15-12-2013 23:05:00 1.2 C 4.95 g/m*3 1.2 C 0 km/h
2293 15-12-2013 23:10:00 1.3 C 5.03 g/m*3 1.3 C 0 km/h
2294 15-12-2013 23:15:00 1.2 C 5 g/m*3 1.2 C 0 km/h
2295 15-12-2013 23:20:00 1.2 C 5 g/m*3 1.2 C 0 km/h
2296 15-12-2013 23:25:00 1.2 C 4.95 g/m*3 1.2 C 0 km/h
2297 15-12-2013 23:30:00 1.2 C 4.95 g/m*3 1.2 C 1.6 km/h
2298 15-12-2013 23:35:00 1.2 C 5 g/m*3 1.2 C 0 km/h
2299 15-12-2013 23:40:00 1.2 C 5 g/m*3 1.2 C 0 km/h
2300 15-12-2013 23:45:00 1.2 C 5 g/m*3 1.2 C 0 km/h
Sensor: Nr:Datum:Temp:Abs-Feuchte:Windchill:Wind:
Aussen-T/F 2301 15-12-2013 23:50:00 1.2 C 5 g/m*3 1.2 C 0 km/h
2302 15-12-2013 23:55:00 1.2 C 5 g/m*3 1.2 C 0 km/h
2303 16-12-2013 00:00:00 1.1 C 4.96 g/m*3 1.1 C 0 km/h
2304 16-12-2013 00:05:00 1.1 C 4.96 g/m*3 1.1 C 0 km/h
2305 16-12-2013 00:10:00 1.1 C 4.96 g/m*3 1.1 C 1.6 km/h
2306 16-12-2013 00:15:00 0.9 C 4.9 g/m*3 0.9 C 0 km/h
2307 16-12-2013 00:20:00 0.9 C 4.9 g/m*3 0.9 C 1.6 km/h
2308 16-12-2013 00:25:00 1.2 C 5 g/m*3 1.2 C 3.2 km/h
2309 16-12-2013 00:30:00 1.3 C 5.03 g/m*3 1.3 C 1.6 km/h
2310 16-12-2013 00:35:00 1.2 C 5 g/m*3 1.2 C 0 km/h
2311 16-12-2013 00:40:00 1.1 C 4.96 g/m*3 1.1 C 0 km/h
2312 16-12-2013 00:45:00 0.9 C 4.9 g/m*3 0.9 C 0 km/h
2313 16-12-2013 00:50:00 0.9 C 4.9 g/m*3 0.9 C 0 km/h
2314 16-12-2013 00:55:00 0.9 C 4.9 g/m*3 0.9 C 0 km/h
2315 16-12-2013 01:00:00 0.9 C 4.9 g/m*3 0.9 C 0 km/h
2316 16-12-2013 01:05:00 0.9 C 4.9 g/m*3 0.9 C 0 km/h
2317 16-12-2013 01:10:00 0.9 C 4.9 g/m*3 0.9 C 0 km/h
2318 16-12-2013 01:15:00 0.9 C 4.9 g/m*3 0.9 C 0 km/h
2319 16-12-2013 01:20:00 0.9 C 4.9 g/m*3 0.9 C 0 km/h
2320 16-12-2013 01:25:00 0.8 C 4.86 g/m*3 0.8 C 0 km/h
2321 16-12-2013 01:30:00 0.7 C 4.83 g/m*3 0.7 C 0 km/h
2322 16-12-2013 01:35:00 0.7 C 4.83 g/m*3 0.7 C 0 km/h
2323 16-12-2013 01:40:00 0.7 C 4.83 g/m*3 0.7 C 0 km/h
2324 16-12-2013 01:45:00 0.7 C 4.83 g/m*3 0.7 C 0 km/h
2325 16-12-2013 01:50:00 0.7 C 4.83 g/m*3 0.7 C 0 km/h
Sensor: Nr:Datum:Temp:Abs-Feuchte:Windchill:Wind:
Aussen-T/F 2326 16-12-2013 01:55:00 0.6 C 4.8 g/m*3 0.6 C 0 km/h
2327 16-12-2013 02:00:00 0.6 C 4.8 g/m*3 0.6 C 0 km/h
2328 16-12-2013 02:05:00 0.6 C 4.8 g/m*3 0.6 C 0 km/h
2329 16-12-2013 02:10:00 0.4 C 4.73 g/m*3 0.4 C 0 km/h
2330 16-12-2013 02:15:00 0.4 C 4.73 g/m*3 0.4 C 0 km/h
2331 16-12-2013 02:20:00 0.4 C 4.73 g/m*3 0.4 C 0 km/h
2332 16-12-2013 02:25:00 0.4 C 4.73 g/m*3 0.4 C 0 km/h
2333 16-12-2013 02:30:00 0.4 C 4.73 g/m*3 0.4 C 0 km/h
2334 16-12-2013 02:35:00 0.4 C 4.73 g/m*3 0.4 C 0 km/h
2335 16-12-2013 02:40:00 0.4 C 4.73 g/m*3 0.4 C 0 km/h
2336 16-12-2013 02:45:00 0.5 C 4.76 g/m*3 0.5 C 1.6 km/h
2337 16-12-2013 02:50:00 0.5 C 4.76 g/m*3 0.5 C 3.2 km/h
2338 16-12-2013 02:55:00 0.7 C 4.83 g/m*3 0.7 C 3.2 km/h
2339 16-12-2013 03:00:00 0.7 C 4.83 g/m*3 0.7 C 1.6 km/h
2340 16-12-2013 03:05:00 0.6 C 4.8 g/m*3 0.6 C 3.2 km/h
2341 16-12-2013 03:10:00 0.5 C 4.76 g/m*3 0.5 C 1.6 km/h
2342 16-12-2013 03:15:00 0.4 C 4.73 g/m*3 0.4 C 0 km/h
2343 16-12-2013 03:20:00 0.4 C 4.73 g/m*3 0.4 C 0 km/h
2344 16-12-2013 03:25:00 0.3 C 4.7 g/m*3 0.3 C 1.6 km/h
2345 16-12-2013 03:30:00 0.3 C 4.7 g/m*3 0.3 C 0 km/h
2346 16-12-2013 03:35:00 0.2 C 4.67 g/m*3 0.2 C 0 km/h
2347 16-12-2013 03:40:00 0.2 C 4.67 g/m*3 0.2 C 0 km/h
2348 16-12-2013 03:45:00 0.2 C 4.67 g/m*3 0.2 C 0 km/h
2349 16-12-2013 03:50:00 0.1 C 4.63 g/m*3 0.1 C 0 km/h
2350 16-12-2013 03:55:00 0 C 4.6 g/m*3 0 C 0 km/h
Sensor: Nr:Datum:Temp:Abs-Feuchte:Windchill:Wind:
Aussen-T/F 2351 16-12-2013 04:00:00 0 C 4.6 g/m*3 0 C 0 km/h
2352 16-12-2013 04:05:00 0 C 4.6 g/m*3 0 C 0 km/h
2353 16-12-2013 04:10:00 0 C 4.6 g/m*3 0 C 0 km/h
2354 16-12-2013 04:15:00 -0.1 C 4.57 g/m*3 -0.1 C 0 km/h
2355 16-12-2013 04:20:00 -0.1 C 4.57 g/m*3 -0.1 C 0 km/h
2356 16-12-2013 04:25:00 -0.1 C 4.57 g/m*3 -0.1 C 0 km/h
2357 16-12-2013 04:30:00 -0.1 C 4.57 g/m*3 -0.1 C 0 km/h
2358 16-12-2013 04:35:00 -0.1 C 4.57 g/m*3 -0.1 C 0 km/h
2359 16-12-2013 04:40:00 -0.1 C 4.57 g/m*3 -0.1 C 0 km/h
2360 16-12-2013 04:45:00 -0.1 C 4.57 g/m*3 -0.1 C 0 km/h
2361 16-12-2013 04:50:00 0.1 C 4.68 g/m*3 0.1 C 0 km/h
2362 16-12-2013 04:55:00 0.2 C 4.72 g/m*3 0.2 C 1.6 km/h
2363 16-12-2013 05:00:00 0.2 C 4.72 g/m*3 0.2 C 1.6 km/h
2364 16-12-2013 05:05:00 0.2 C 4.72 g/m*3 0.2 C 0 km/h
2365 16-12-2013 05:10:00 0.2 C 4.72 g/m*3 0.2 C 0 km/h
2366 16-12-2013 05:15:00 0.3 C 4.75 g/m*3 0.3 C 0 km/h
2367 16-12-2013 05:20:00 0.3 C 4.75 g/m*3 0.3 C 0 km/h
2368 16-12-2013 05:25:00 0.4 C 4.78 g/m*3 0.4 C 0 km/h
2369 16-12-2013 05:30:00 0.4 C 4.78 g/m*3 0.4 C 0 km/h
2370 16-12-2013 05:35:00 0.4 C 4.78 g/m*3 0.4 C 0 km/h
2371 16-12-2013 05:40:00 0.3 C 4.75 g/m*3 0.3 C 0 km/h
2372 16-12-2013 05:45:00 0.3 C 4.75 g/m*3 0.3 C 0 km/h
2373 16-12-2013 05:50:00 0.2 C 4.67 g/m*3 0.2 C 0 km/h
2374 16-12-2013 05:55:00 0.3 C 4.75 g/m*3 0.3 C 1.6 km/h
2375 16-12-2013 06:00:00 0.3 C 4.75 g/m*3 0.3 C 1.6 km/h
Sensor: Nr:Datum:Temp:Abs-Feuchte:Windchill:Wind:
Aussen-T/F 2376 16-12-2013 06:05:00 0.3 C 4.75 g/m*3 0.3 C 0 km/h
2377 16-12-2013 06:10:00 0.3 C 4.75 g/m*3 0.3 C 0 km/h
2378 16-12-2013 06:15:00 0.3 C 4.7 g/m*3 0.3 C 1.6 km/h
2379 16-12-2013 06:20:00 0.2 C 4.67 g/m*3 0.2 C 0 km/h
2380 16-12-2013 06:25:00 0 C 4.6 g/m*3 0 C 0 km/h
2381 16-12-2013 06:30:00 -0.1 C 4.57 g/m*3 -0.1 C 0 km/h
2382 16-12-2013 06:35:00 -0.4 C 4.52 g/m*3 -0.4 C 0 km/h
2383 16-12-2013 06:40:00 -0.3 C 4.56 g/m*3 -0.3 C 0 km/h
2384 16-12-2013 06:45:00 -0.3 C 4.56 g/m*3 -0.3 C 0 km/h
2385 16-12-2013 06:50:00 -0.3 C 4.56 g/m*3 -0.3 C 1.6 km/h
2386 16-12-2013 07:45:00 -0.3 C 4.56 g/m*3 -0.3 C 0 km/h
2387 16-12-2013 07:50:00 -0.3 C 4.56 g/m*3 -0.3 C 0 km/h
2388 16-12-2013 07:55:00 -0.3 C 4.56 g/m*3 -0.3 C 0 km/h
2389 16-12-2013 08:00:00 -0.3 C 4.56 g/m*3 -0.3 C 0 km/h
2390 16-12-2013 08:05:00 -0.3 C 4.56 g/m*3 -0.3 C 0 km/h
2391 16-12-2013 08:10:00 -0.4 C 4.52 g/m*3 -0.4 C 0 km/h
2392 16-12-2013 08:15:00 -0.4 C 4.48 g/m*3 -0.4 C 0 km/h
2393 16-12-2013 08:20:00 -0.4 C 4.52 g/m*3 -0.4 C 1.6 km/h
2394 16-12-2013 08:25:00 -0.3 C 4.56 g/m*3 -0.3 C 0 km/h
2395 16-12-2013 08:30:00 -0.2 C 4.59 g/m*3 -0.2 C 3.2 km/h
2396 16-12-2013 08:35:00 -0.3 C 4.56 g/m*3 -0.3 C 1.6 km/h
2397 16-12-2013 08:40:00 -0.3 C 4.56 g/m*3 -0.3 C 0 km/h
2398 16-12-2013 08:45:00 -0.3 C 4.56 g/m*3 -0.3 C 0 km/h
2399 16-12-2013 08:50:00 -0.3 C 4.56 g/m*3 -0.3 C 3.2 km/h
2400 16-12-2013 08:55:00 -0.2 C 4.59 g/m*3 -0.2 C 0 km/h
Sensor: Nr:Datum:Temp:Abs-Feuchte:Windchill:Wind:
Aussen-T/F 2401 16-12-2013 09:00:00 -0.2 C 4.59 g/m*3 -0.2 C 0 km/h
2402 16-12-2013 09:05:00 -0.2 C 4.59 g/m*3 -0.2 C 0 km/h
2403 16-12-2013 09:10:00 -0.3 C 4.56 g/m*3 -0.3 C 0 km/h
2404 16-12-2013 09:15:00 -0.3 C 4.56 g/m*3 -0.3 C 0 km/h
2405 16-12-2013 09:20:00 -0.3 C 4.56 g/m*3 -0.3 C 0 km/h
2406 16-12-2013 09:25:00 -0.3 C 4.56 g/m*3 -0.3 C 0 km/h
2407 16-12-2013 09:30:00 -0.4 C 4.52 g/m*3 -0.4 C 0 km/h
2408 16-12-2013 09:35:00 -0.4 C 4.52 g/m*3 -0.4 C 0 km/h
2409 16-12-2013 09:40:00 -0.4 C 4.52 g/m*3 -0.4 C 0 km/h
2410 16-12-2013 09:45:00 -0.3 C 4.56 g/m*3 -0.3 C 0 km/h
2411 16-12-2013 09:50:00 -0.3 C 4.56 g/m*3 -0.3 C 1.6 km/h
2412 16-12-2013 09:55:00 -0.2 C 4.59 g/m*3 -0.2 C 1.6 km/h
2413 16-12-2013 10:00:00 0 C 4.65 g/m*3 0 C 0 km/h
2414 16-12-2013 10:05:00 0 C 4.65 g/m*3 0 C 0 km/h
2415 16-12-2013 10:10:00 0.1 C 4.68 g/m*3 0.1 C 1.6 km/h
2416 16-12-2013 10:15:00 0.1 C 4.68 g/m*3 0.1 C 0 km/h
2417 16-12-2013 10:20:00 0.2 C 4.72 g/m*3 0.2 C 1.6 km/h
2418 16-12-2013 10:25:00 0.2 C 4.72 g/m*3 0.2 C 0 km/h
2419 16-12-2013 10:30:00 0.3 C 4.75 g/m*3 0.3 C 1.6 km/h
2420 16-12-2013 10:35:00 0.4 C 4.78 g/m*3 0.4 C 0 km/h
2421 16-12-2013 10:40:00 0.5 C 4.81 g/m*3 0.5 C 0 km/h
2422 16-12-2013 10:45:00 0.6 C 4.85 g/m*3 0.6 C 0 km/h
2423 16-12-2013 10:50:00 0.7 C 4.88 g/m*3 0.7 C 0 km/h
2424 16-12-2013 10:55:00 0.7 C 4.88 g/m*3 0.7 C 0 km/h
2425 16-12-2013 11:00:00 0.8 C 4.91 g/m*3 0.8 C 0 km/h
Sensor: Nr:Datum:Temp:Abs-Feuchte:Windchill:Wind:
Aussen-T/F 2426 16-12-2013 11:05:00 0.9 C 4.95 g/m*3 0.9 C 0 km/h
2427 16-12-2013 11:10:00 0.9 C 4.95 g/m*3 0.9 C 0 km/h
2428 16-12-2013 11:15:00 1 C 4.98 g/m*3 1 C 0 km/h
2429 16-12-2013 11:20:00 1.1 C 4.96 g/m*3 1.1 C 0 km/h
2430 16-12-2013 11:25:00 1.1 C 4.96 g/m*3 1.1 C 0 km/h
2431 16-12-2013 11:30:00 1.2 C 5 g/m*3 1.2 C 0 km/h
2432 16-12-2013 11:35:00 1.3 C 5.03 g/m*3 1.3 C 0 km/h
2433 16-12-2013 11:40:00 1.5 C 5.1 g/m*3 1.5 C 0 km/h
2434 16-12-2013 11:45:00 1.6 C 5.14 g/m*3 1.6 C 0 km/h
2435 16-12-2013 11:50:00 1.7 C 5.17 g/m*3 1.7 C 0 km/h
2436 16-12-2013 11:55:00 1.8 C 5.21 g/m*3 1.8 C 1.6 km/h
2437 16-12-2013 12:00:00 1.8 C 5.21 g/m*3 1.8 C 1.6 km/h
2438 16-12-2013 12:05:00 1.9 C 5.24 g/m*3 1.9 C 1.6 km/h
2439 16-12-2013 12:10:00 2 C 5.28 g/m*3 2 C 0 km/h
2440 16-12-2013 12:15:00 2.1 C 5.31 g/m*3 2.1 C 3.2 km/h
2441 16-12-2013 12:20:00 2.2 C 5.35 g/m*3 2.2 C 3.2 km/h
2442 16-12-2013 12:25:00 2.3 C 5.39 g/m*3 2.3 C 1.6 km/h
2443 16-12-2013 12:30:00 2.4 C 5.42 g/m*3 2.4 C 0 km/h
2444 16-12-2013 12:35:00 2.5 C 5.46 g/m*3 2.5 C 0 km/h
2445 16-12-2013 12:40:00 2.5 C 5.4 g/m*3 2.5 C 1.6 km/h
2446 16-12-2013 12:45:00 2.6 C 5.44 g/m*3 2.6 C 1.6 km/h
2447 16-12-2013 12:50:00 2.7 C 5.48 g/m*3 2.7 C 3.2 km/h
2448 16-12-2013 12:55:00 2.8 C 5.51 g/m*3 2.8 C 0 km/h
2449 16-12-2013 13:00:00 2.9 C 5.49 g/m*3 2.9 C 3.2 km/h
2450 16-12-2013 13:05:00 3.1 C 5.63 g/m*3 3.1 C 3.2 km/h
Sensor: Nr:Datum:Temp:Abs-Feuchte:Windchill:Wind:
Aussen-T/F 2451 16-12-2013 13:10:00 3.2 C 5.6 g/m*3 3.2 C 3.2 km/h
2452 16-12-2013 13:15:00 3.2 C 5.6 g/m*3 3.2 C 1.6 km/h
2453 16-12-2013 13:20:00 3.2 C 5.6 g/m*3 3.2 C 3.2 km/h
2454 16-12-2013 13:25:00 3.2 C 5.6 g/m*3 3.2 C 3.2 km/h
2455 16-12-2013 13:30:00 3.3 C 5.7 g/m*3 3.3 C 3.2 km/h
2456 16-12-2013 13:35:00 3.3 C 5.64 g/m*3 3.3 C 1.6 km/h
2457 16-12-2013 13:40:00 3.5 C 5.72 g/m*3 3.5 C 3.2 km/h
2458 16-12-2013 13:45:00 3.7 C 5.8 g/m*3 3.7 C 3.2 km/h
2459 16-12-2013 13:50:00 3.7 C 5.8 g/m*3 3.7 C 3.2 km/h
2460 16-12-2013 13:55:00 3.7 C 5.8 g/m*3 3.7 C 1.6 km/h
2461 16-12-2013 14:00:00 3.8 C 5.83 g/m*3 3.8 C 3.2 km/h
2462 16-12-2013 14:05:00 3.9 C 5.81 g/m*3 3.9 C 3.2 km/h
2463 16-12-2013 14:10:00 4 C 5.91 g/m*3 4 C 4.8 km/h
2464 16-12-2013 14:15:00 4.1 C 5.89 g/m*3 4.1 C 3.2 km/h
2465 16-12-2013 14:20:00 4.1 C 5.89 g/m*3 4.1 C 1.6 km/h
2466 16-12-2013 14:25:00 4.1 C 5.89 g/m*3 4.1 C 4.8 km/h
2467 16-12-2013 14:30:00 4.1 C 5.89 g/m*3 4.1 C 3.2 km/h
2468 16-12-2013 14:35:00 4.1 C 5.89 g/m*3 4.1 C 3.2 km/h
2469 16-12-2013 14:40:00 4.3 C 5.97 g/m*3 4.3 C 4.8 km/h
2470 16-12-2013 14:45:00 4.4 C 6.01 g/m*3 4.4 C 3.2 km/h
2471 16-12-2013 14:50:00 4.6 C 6.09 g/m*3 4.6 C 4.8 km/h
2472 16-12-2013 14:55:00 4.6 C 6.02 g/m*3 4.6 C 4.8 km/h
2473 16-12-2013 15:00:00 4.7 C 6.06 g/m*3 4.7 C 4.8 km/h
2474 16-12-2013 15:05:00 4.7 C 6.06 g/m*3 4.7 C 3.2 km/h
2475 16-12-2013 15:10:00 4.6 C 6.02 g/m*3 4.6 C 3.2 km/h
Sensor: Nr:Datum:Temp:Abs-Feuchte:Windchill:Wind:
Aussen-T/F 2476 16-12-2013 15:15:00 4.5 C 5.98 g/m*3 4.5 C 1.6 km/h
2477 16-12-2013 15:20:00 4.4 C 6.01 g/m*3 4.4 C 3.2 km/h
2478 16-12-2013 15:25:00 4.4 C 6.01 g/m*3 4.4 C 3.2 km/h
2479 16-12-2013 15:30:00 4.4 C 6.01 g/m*3 4.4 C 4.8 km/h
2480 16-12-2013 15:35:00 4.4 C 6.01 g/m*3 4.4 C 1.6 km/h
2481 16-12-2013 15:40:00 4.4 C 6.01 g/m*3 4.4 C 3.2 km/h
2482 16-12-2013 15:45:00 4.5 C 6.05 g/m*3 4.5 C 3.2 km/h
2483 16-12-2013 15:50:00 4.4 C 6.01 g/m*3 4.4 C 1.6 km/h
2484 16-12-2013 15:55:00 4.5 C 6.05 g/m*3 4.5 C 3.2 km/h
2485 16-12-2013 16:00:00 4.6 C 6.02 g/m*3 4.6 C 3.2 km/h
2486 16-12-2013 16:05:00 4.7 C 6.06 g/m*3 4.7 C 3.2 km/h
2487 16-12-2013 16:10:00 4.6 C 5.96 g/m*3 4.6 C 3.2 km/h
2488 16-12-2013 16:15:00 4.4 C 5.94 g/m*3 4.4 C 3.2 km/h
2489 16-12-2013 16:20:00 4.2 C 5.86 g/m*3 4.2 C 3.2 km/h
2490 16-12-2013 16:25:00 4.1 C 5.82 g/m*3 4.1 C 3.2 km/h
2491 16-12-2013 16:30:00 4 C 5.85 g/m*3 4 C 3.2 km/h
2492 16-12-2013 16:35:00 4 C 5.85 g/m*3 4 C 3.2 km/h
2493 16-12-2013 16:40:00 3.8 C 5.77 g/m*3 3.8 C 1.6 km/h
2494 16-12-2013 16:45:00 3.7 C 5.67 g/m*3 3.7 C 3.2 km/h
2495 16-12-2013 16:50:00 3.6 C 5.69 g/m*3 3.6 C 1.6 km/h
2496 16-12-2013 16:55:00 3.4 C 5.62 g/m*3 3.4 C 0 km/h
2497 16-12-2013 17:00:00 3.4 C 5.68 g/m*3 3.4 C 3.2 km/h
2498 16-12-2013 17:05:00 3.4 C 5.68 g/m*3 3.4 C 1.6 km/h
2499 16-12-2013 17:10:00 3.3 C 5.64 g/m*3 3.3 C 0 km/h
2500 16-12-2013 17:15:00 3.2 C 5.6 g/m*3 3.2 C 3.2 km/h
Sensor: Nr:Datum:Temp:Abs-Feuchte:Windchill:Wind:
Aussen-T/F 2501 16-12-2013 17:20:00 3.2 C 5.6 g/m*3 3.2 C 3.2 km/h
2502 16-12-2013 17:25:00 3.3 C 5.7 g/m*3 3.3 C 3.2 km/h
2503 16-12-2013 17:30:00 3.2 C 5.6 g/m*3 3.2 C 0 km/h
2504 16-12-2013 17:35:00 3.1 C 5.57 g/m*3 3.1 C 1.6 km/h
2505 16-12-2013 17:40:00 3.1 C 5.57 g/m*3 3.1 C 3.2 km/h
2506 16-12-2013 17:45:00 3.2 C 5.66 g/m*3 3.2 C 0 km/h
2507 16-12-2013 17:50:00 3.2 C 5.6 g/m*3 3.2 C 0 km/h
2508 16-12-2013 17:55:00 3.1 C 5.57 g/m*3 3.1 C 0 km/h
2509 16-12-2013 18:00:00 3 C 5.53 g/m*3 3 C 0 km/h
2510 16-12-2013 18:05:00 2.9 C 5.55 g/m*3 2.9 C 1.6 km/h
2511 16-12-2013 18:10:00 2.9 C 5.49 g/m*3 2.9 C 3.2 km/h
2512 16-12-2013 18:15:00 2.7 C 5.42 g/m*3 2.7 C 1.6 km/h
2513 16-12-2013 18:20:00 2.7 C 5.42 g/m*3 2.7 C 0 km/h
2514 16-12-2013 18:25:00 2.6 C 5.38 g/m*3 2.6 C 0 km/h
2515 16-12-2013 18:30:00 2.5 C 5.4 g/m*3 2.5 C 0 km/h
2516 16-12-2013 18:35:00 2.5 C 5.4 g/m*3 2.5 C 0 km/h
2517 16-12-2013 18:40:00 2.4 C 5.31 g/m*3 2.4 C 1.6 km/h
2518 16-12-2013 18:45:00 2.3 C 5.33 g/m*3 2.3 C 0 km/h
2519 16-12-2013 18:50:00 2.2 C 5.29 g/m*3 2.2 C 0 km/h
2520 16-12-2013 18:55:00 2.2 C 5.29 g/m*3 2.2 C 0 km/h
2521 16-12-2013 19:00:00 2.2 C 5.35 g/m*3 2.2 C 0 km/h
2522 16-12-2013 19:05:00 2.2 C 5.35 g/m*3 2.2 C 0 km/h
2523 16-12-2013 19:10:00 2.3 C 5.39 g/m*3 2.3 C 0 km/h
2524 16-12-2013 19:15:00 2.3 C 5.39 g/m*3 2.3 C 0 km/h
2525 16-12-2013 19:20:00 2.4 C 5.42 g/m*3 2.4 C 1.6 km/h
Sensor: Nr:Datum:Temp:Abs-Feuchte:Windchill:Wind:
Aussen-T/F 2526 16-12-2013 19:25:00 2.3 C 5.39 g/m*3 2.3 C 0 km/h
2527 16-12-2013 19:30:00 2.3 C 5.39 g/m*3 2.3 C 0 km/h
2528 16-12-2013 19:35:00 2.3 C 5.39 g/m*3 2.3 C 0 km/h
2529 16-12-2013 19:40:00 2.4 C 5.42 g/m*3 2.4 C 0 km/h
2530 16-12-2013 19:45:00 2.3 C 5.39 g/m*3 2.3 C 0 km/h
2531 16-12-2013 19:50:00 2.3 C 5.39 g/m*3 2.3 C 0 km/h
2532 16-12-2013 19:55:00 2.2 C 5.35 g/m*3 2.2 C 0 km/h
2533 16-12-2013 20:00:00 2.1 C 5.26 g/m*3 2.1 C 0 km/h
2534 16-12-2013 20:05:00 2.1 C 5.31 g/m*3 2.1 C 0 km/h
2535 16-12-2013 20:10:00 2 C 5.28 g/m*3 2 C 0 km/h
2536 16-12-2013 20:15:00 1.9 C 5.24 g/m*3 1.9 C 1.6 km/h
2537 16-12-2013 20:20:00 1.9 C 5.24 g/m*3 1.9 C 0 km/h
2538 16-12-2013 20:25:00 1.8 C 5.21 g/m*3 1.8 C 3.2 km/h
2539 16-12-2013 20:30:00 1.8 C 5.21 g/m*3 1.8 C 1.6 km/h
2540 16-12-2013 20:35:00 1.7 C 5.17 g/m*3 1.7 C 0 km/h
2541 16-12-2013 20:40:00 1.7 C 5.17 g/m*3 1.7 C 1.6 km/h
2542 16-12-2013 20:45:00 1.5 C 5.05 g/m*3 1.5 C 0 km/h
2543 16-12-2013 20:50:00 1.4 C 5.07 g/m*3 1.4 C 3.2 km/h
2544 16-12-2013 20:55:00 1.5 C 5.1 g/m*3 1.5 C 0 km/h
2545 16-12-2013 21:00:00 1.5 C 5.1 g/m*3 1.5 C 0 km/h
2546 16-12-2013 21:05:00 1.4 C 5.07 g/m*3 1.4 C 0 km/h
2547 16-12-2013 21:10:00 1.3 C 5.03 g/m*3 1.3 C 0 km/h
2548 16-12-2013 21:15:00 1.2 C 5 g/m*3 1.2 C 0 km/h
2549 16-12-2013 21:20:00 1.2 C 5 g/m*3 1.2 C 0 km/h
2550 16-12-2013 21:25:00 1.1 C 4.96 g/m*3 1.1 C 0 km/h
Sensor: Nr:Datum:Temp:Abs-Feuchte:Windchill:Wind:
Aussen-T/F 2551 16-12-2013 21:30:00 1 C 4.93 g/m*3 1 C 0 km/h
2552 16-12-2013 21:35:00 0.9 C 4.9 g/m*3 0.9 C 0 km/h
2553 16-12-2013 21:40:00 0.8 C 4.86 g/m*3 0.8 C 0 km/h
2554 16-12-2013 21:45:00 0.8 C 4.86 g/m*3 0.8 C 0 km/h
2555 16-12-2013 21:50:00 0.9 C 4.95 g/m*3 0.9 C 0 km/h
2556 16-12-2013 21:55:00 1.1 C 5.02 g/m*3 1.1 C 0 km/h
2557 16-12-2013 22:00:00 1.2 C 5.05 g/m*3 1.2 C 0 km/h
2558 16-12-2013 22:05:00 1.2 C 5.05 g/m*3 1.2 C 0 km/h
2559 16-12-2013 22:10:00 1.1 C 5.02 g/m*3 1.1 C 1.6 km/h
2560 16-12-2013 22:15:00 1.1 C 5.02 g/m*3 1.1 C 0 km/h
2561 16-12-2013 22:20:00 1 C 4.98 g/m*3 1 C 0 km/h
2562 16-12-2013 22:25:00 0.9 C 4.95 g/m*3 0.9 C 1.6 km/h
2563 16-12-2013 22:30:00 0.8 C 4.91 g/m*3 0.8 C 0 km/h
2564 16-12-2013 22:35:00 0.7 C 4.88 g/m*3 0.7 C 3.2 km/h
2565 16-12-2013 22:40:00 0.7 C 4.88 g/m*3 0.7 C 1.6 km/h
2566 16-12-2013 22:45:00 0.7 C 4.88 g/m*3 0.7 C 0 km/h
2567 16-12-2013 22:50:00 0.6 C 4.85 g/m*3 0.6 C 0 km/h
2568 16-12-2013 22:55:00 0.6 C 4.85 g/m*3 0.6 C 1.6 km/h
2569 16-12-2013 23:00:00 0.7 C 4.88 g/m*3 0.7 C 0 km/h
2570 16-12-2013 23:05:00 0.8 C 4.91 g/m*3 0.8 C 0 km/h
2571 16-12-2013 23:10:00 0.8 C 4.91 g/m*3 0.8 C 0 km/h
2572 16-12-2013 23:15:00 0.8 C 4.91 g/m*3 0.8 C 0 km/h
2573 16-12-2013 23:20:00 0.7 C 4.88 g/m*3 0.7 C 0 km/h
2574 16-12-2013 23:25:00 0.7 C 4.88 g/m*3 0.7 C 0 km/h
2575 16-12-2013 23:30:00 0.6 C 4.85 g/m*3 0.6 C 0 km/h
Sensor: Nr:Datum:Temp:Abs-Feuchte:Windchill:Wind:
Aussen-T/F 2576 16-12-2013 23:35:00 0.5 C 4.81 g/m*3 0.5 C 0 km/h
2577 16-12-2013 23:40:00 0.4 C 4.78 g/m*3 0.4 C 0 km/h
2578 16-12-2013 23:45:00 0.6 C 4.9 g/m*3 0.6 C 1.6 km/h
2579 16-12-2013 23:50:00 0.6 C 4.9 g/m*3 0.6 C 1.6 km/h
2580 16-12-2013 23:55:00 0.5 C 4.81 g/m*3 0.5 C 0 km/h
2581 17-12-2013 00:00:00 0.3 C 4.75 g/m*3 0.3 C 0 km/h
2582 17-12-2013 00:05:00 0.3 C 4.75 g/m*3 0.3 C 1.6 km/h
2583 17-12-2013 00:10:00 0.2 C 4.72 g/m*3 0.2 C 0 km/h
2584 17-12-2013 00:15:00 0.1 C 4.68 g/m*3 0.1 C 0 km/h
2585 17-12-2013 00:20:00 0.1 C 4.68 g/m*3 0.1 C 0 km/h
2586 17-12-2013 00:25:00 0.1 C 4.68 g/m*3 0.1 C 0 km/h
2587 17-12-2013 00:30:00 0.1 C 4.68 g/m*3 0.1 C 0 km/h
2588 17-12-2013 00:35:00 0.2 C 4.72 g/m*3 0.2 C 0 km/h
2589 17-12-2013 00:40:00 0.2 C 4.72 g/m*3 0.2 C 1.6 km/h
2590 17-12-2013 00:45:00 0.1 C 4.68 g/m*3 0.1 C 0 km/h
2591 17-12-2013 00:50:00 0.1 C 4.68 g/m*3 0.1 C 0 km/h
2592 17-12-2013 00:55:00 0 C 4.65 g/m*3 0 C 0 km/h
2593 17-12-2013 01:00:00 -0.1 C 4.62 g/m*3 -0.1 C 0 km/h
2594 17-12-2013 01:05:00 -0.1 C 4.62 g/m*3 -0.1 C 0 km/h
2595 17-12-2013 01:10:00 -0.2 C 4.59 g/m*3 -0.2 C 0 km/h
2596 17-12-2013 01:15:00 -0.2 C 4.59 g/m*3 -0.2 C 0 km/h
2597 17-12-2013 01:20:00 -0.2 C 4.59 g/m*3 -0.2 C 0 km/h
2598 17-12-2013 01:25:00 -0.2 C 4.59 g/m*3 -0.2 C 0 km/h
2599 17-12-2013 01:30:00 -0.2 C 4.64 g/m*3 -0.2 C 0 km/h
2600 17-12-2013 01:35:00 -0.2 C 4.64 g/m*3 -0.2 C 0 km/h
Sensor: Nr:Datum:Temp:Abs-Feuchte:Windchill:Wind:
Aussen-T/F 2601 17-12-2013 01:40:00 -0.2 C 4.64 g/m*3 -0.2 C 0 km/h
2602 17-12-2013 01:45:00 -0.1 C 4.67 g/m*3 -0.1 C 0 km/h
2603 17-12-2013 01:50:00 -0.2 C 4.64 g/m*3 -0.2 C 0 km/h
2604 17-12-2013 01:55:00 -0.2 C 4.64 g/m*3 -0.2 C 0 km/h
2605 17-12-2013 02:00:00 -0.2 C 4.64 g/m*3 -0.2 C 0 km/h
2606 17-12-2013 02:05:00 -0.2 C 4.64 g/m*3 -0.2 C 0 km/h
2607 17-12-2013 02:10:00 -0.3 C 4.6 g/m*3 -0.3 C 0 km/h
2608 17-12-2013 02:15:00 -0.3 C 4.6 g/m*3 -0.3 C 0 km/h
2609 17-12-2013 02:20:00 -0.3 C 4.6 g/m*3 -0.3 C 0 km/h
2610 17-12-2013 02:25:00 -0.3 C 4.6 g/m*3 -0.3 C 0 km/h
2611 17-12-2013 02:30:00 -0.3 C 4.6 g/m*3 -0.3 C 0 km/h
2612 17-12-2013 02:35:00 -0.3 C 4.6 g/m*3 -0.3 C 0 km/h
2613 17-12-2013 02:40:00 -0.4 C 4.57 g/m*3 -0.4 C 0 km/h
2614 17-12-2013 02:45:00 -0.4 C 4.57 g/m*3 -0.4 C 0 km/h
2615 17-12-2013 02:50:00 -0.4 C 4.57 g/m*3 -0.4 C 0 km/h
2616 17-12-2013 02:55:00 -0.5 C 4.54 g/m*3 -0.5 C 0 km/h
2617 17-12-2013 03:00:00 -0.6 C 4.51 g/m*3 -0.6 C 0 km/h
2618 17-12-2013 03:05:00 -0.5 C 4.54 g/m*3 -0.5 C 0 km/h
2619 17-12-2013 03:10:00 -0.4 C 4.57 g/m*3 -0.4 C 0 km/h
2620 17-12-2013 03:15:00 -0.4 C 4.57 g/m*3 -0.4 C 0 km/h
2621 17-12-2013 03:20:00 -0.5 C 4.54 g/m*3 -0.5 C 0 km/h
2622 17-12-2013 03:25:00 -0.5 C 4.54 g/m*3 -0.5 C 0 km/h
2623 17-12-2013 03:30:00 -0.6 C 4.51 g/m*3 -0.6 C 0 km/h
2624 17-12-2013 03:35:00 -0.6 C 4.51 g/m*3 -0.6 C 0 km/h
2625 17-12-2013 03:40:00 -0.7 C 4.48 g/m*3 -0.7 C 0 km/h
Sensor: Nr:Datum:Temp:Abs-Feuchte:Windchill:Wind:
Aussen-T/F 2626 17-12-2013 03:45:00 -0.7 C 4.48 g/m*3 -0.7 C 0 km/h
2627 17-12-2013 03:50:00 -0.7 C 4.48 g/m*3 -0.7 C 0 km/h
2628 17-12-2013 03:55:00 -0.7 C 4.48 g/m*3 -0.7 C 0 km/h
2629 17-12-2013 04:00:00 -0.7 C 4.48 g/m*3 -0.7 C 0 km/h
2630 17-12-2013 04:05:00 -0.8 C 4.45 g/m*3 -0.8 C 0 km/h
2631 17-12-2013 04:10:00 -0.8 C 4.45 g/m*3 -0.8 C 0 km/h
2632 17-12-2013 04:15:00 -0.8 C 4.45 g/m*3 -0.8 C 1.6 km/h
2633 17-12-2013 04:20:00 -0.8 C 4.45 g/m*3 -0.8 C 0 km/h
2634 17-12-2013 04:25:00 -0.8 C 4.45 g/m*3 -0.8 C 0 km/h
2635 17-12-2013 04:30:00 -0.8 C 4.45 g/m*3 -0.8 C 0 km/h
2636 17-12-2013 04:35:00 -0.9 C 4.42 g/m*3 -0.9 C 0 km/h
2637 17-12-2013 04:40:00 -0.9 C 4.42 g/m*3 -0.9 C 0 km/h
2638 17-12-2013 04:45:00 -1 C 4.38 g/m*3 -1 C 0 km/h
2639 17-12-2013 04:50:00 -1 C 4.38 g/m*3 -1 C 0 km/h
2640 17-12-2013 04:55:00 -1.1 C 4.35 g/m*3 -1.1 C 0 km/h
2641 17-12-2013 05:00:00 -1.1 C 4.35 g/m*3 -1.1 C 0 km/h
2642 17-12-2013 05:05:00 -1.1 C 4.35 g/m*3 -1.1 C 0 km/h
2643 17-12-2013 05:10:00 -1.1 C 4.35 g/m*3 -1.1 C 0 km/h
2644 17-12-2013 05:15:00 -1.2 C 4.32 g/m*3 -1.2 C 0 km/h
2645 17-12-2013 05:20:00 -1.2 C 4.32 g/m*3 -1.2 C 0 km/h
2646 17-12-2013 05:25:00 -1.2 C 4.32 g/m*3 -1.2 C 0 km/h
2647 17-12-2013 05:30:00 -1.2 C 4.32 g/m*3 -1.2 C 0 km/h
2648 17-12-2013 05:35:00 -1.2 C 4.32 g/m*3 -1.2 C 0 km/h
2649 17-12-2013 05:40:00 -1.2 C 4.32 g/m*3 -1.2 C 0 km/h
2650 17-12-2013 05:45:00 -1.2 C 4.32 g/m*3 -1.2 C 0 km/h
Sensor: Nr:Datum:Temp:Abs-Feuchte:Windchill:Wind:
Aussen-T/F 2651 17-12-2013 05:50:00 -1.2 C 4.32 g/m*3 -1.2 C 0 km/h
2652 17-12-2013 05:55:00 -1.2 C 4.32 g/m*3 -1.2 C 0 km/h
2653 17-12-2013 06:00:00 -1.2 C 4.32 g/m*3 -1.2 C 1.6 km/h
2654 17-12-2013 06:05:00 -1.2 C 4.32 g/m*3 -1.2 C 0 km/h
2655 17-12-2013 06:10:00 -1.2 C 4.32 g/m*3 -1.2 C 0 km/h
2656 17-12-2013 06:15:00 -1.2 C 4.32 g/m*3 -1.2 C 0 km/h
2657 17-12-2013 06:20:00 -1.2 C 4.32 g/m*3 -1.2 C 0 km/h
2658 17-12-2013 06:25:00 -1.1 C 4.35 g/m*3 -1.1 C 1.6 km/h
2659 17-12-2013 06:30:00 -1.1 C 4.35 g/m*3 -1.1 C 1.6 km/h
2660 17-12-2013 06:35:00 -1.1 C 4.35 g/m*3 -1.1 C 1.6 km/h
2661 17-12-2013 06:40:00 -1.1 C 4.35 g/m*3 -1.1 C 0 km/h
2662 17-12-2013 06:45:00 -1.1 C 4.35 g/m*3 -1.1 C 1.6 km/h
2663 17-12-2013 06:50:00 -1.1 C 4.35 g/m*3 -1.1 C 0 km/h
2664 17-12-2013 06:55:00 -1.2 C 4.32 g/m*3 -1.2 C 0 km/h
2665 17-12-2013 07:00:00 -1.3 C 4.29 g/m*3 -1.3 C 0 km/h
2666 17-12-2013 07:05:00 -1.3 C 4.29 g/m*3 -1.3 C 0 km/h
2667 17-12-2013 07:10:00 -1.3 C 4.29 g/m*3 -1.3 C 0 km/h
2668 17-12-2013 07:15:00 -1.4 C 4.26 g/m*3 -1.4 C 0 km/h
2669 17-12-2013 07:20:00 -1.4 C 4.26 g/m*3 -1.4 C 0 km/h
2670 17-12-2013 07:25:00 -1.3 C 4.29 g/m*3 -1.3 C 1.6 km/h
2671 17-12-2013 07:30:00 -1.3 C 4.29 g/m*3 -1.3 C 0 km/h
2672 17-12-2013 07:35:00 -1.3 C 4.29 g/m*3 -1.3 C 0 km/h
2673 17-12-2013 07:40:00 -1.3 C 4.29 g/m*3 -1.3 C 1.6 km/h
2674 17-12-2013 07:45:00 -1.4 C 4.26 g/m*3 -1.4 C 3.2 km/h
2675 17-12-2013 07:50:00 -1.4 C 4.26 g/m*3 -1.4 C 3.2 km/h
Sensor: Nr:Datum:Temp:Abs-Feuchte:Windchill:Wind:
Aussen-T/F 2676 17-12-2013 07:55:00 -1.4 C 4.26 g/m*3 -1.4 C 0 km/h
2677 17-12-2013 08:00:00 -1.4 C 4.26 g/m*3 -1.4 C 0 km/h
2678 17-12-2013 08:05:00 -1.5 C 4.23 g/m*3 -1.5 C 0 km/h
2679 17-12-2013 08:10:00 -1.5 C 4.23 g/m*3 -1.5 C 0 km/h
2680 17-12-2013 08:15:00 -1.6 C 4.21 g/m*3 -1.6 C 0 km/h
2681 17-12-2013 08:20:00 -1.6 C 4.21 g/m*3 -1.6 C 0 km/h
2682 17-12-2013 08:25:00 -1.6 C 4.21 g/m*3 -1.6 C 0 km/h
2683 17-12-2013 08:30:00 -1.5 C 4.23 g/m*3 -1.5 C 0 km/h
2684 17-12-2013 08:35:00 -1.4 C 4.26 g/m*3 -1.4 C 0 km/h
2685 17-12-2013 08:40:00 -1.4 C 4.26 g/m*3 -1.4 C 0 km/h
2686 17-12-2013 08:45:00 -1.5 C 4.23 g/m*3 -1.5 C 0 km/h
2687 17-12-2013 08:50:00 -1.5 C 4.23 g/m*3 -1.5 C 0 km/h
2688 17-12-2013 08:55:00 -1.5 C 4.23 g/m*3 -1.5 C 0 km/h
2689 17-12-2013 09:00:00 -1.4 C 4.26 g/m*3 -1.4 C 0 km/h
2690 17-12-2013 09:05:00 -1.3 C 4.29 g/m*3 -1.3 C 0 km/h
2691 17-12-2013 09:10:00 -1.2 C 4.32 g/m*3 -1.2 C 0 km/h
2692 17-12-2013 09:15:00 -1.1 C 4.35 g/m*3 -1.1 C 0 km/h
2693 17-12-2013 09:20:00 -1 C 4.38 g/m*3 -1 C 1.6 km/h
2694 17-12-2013 09:25:00 -0.9 C 4.46 g/m*3 -0.9 C 1.6 km/h
2695 17-12-2013 09:30:00 -0.8 C 4.49 g/m*3 -0.8 C 1.6 km/h
2696 17-12-2013 09:35:00 -0.7 C 4.48 g/m*3 -0.7 C 3.2 km/h
2697 17-12-2013 09:40:00 -0.6 C 4.56 g/m*3 -0.6 C 3.2 km/h
2698 17-12-2013 09:45:00 -0.7 C 4.48 g/m*3 -0.7 C 0 km/h
2699 17-12-2013 09:50:00 -0.8 C 4.45 g/m*3 -0.8 C 0 km/h
2700 17-12-2013 09:55:00 -0.8 C 4.45 g/m*3 -0.8 C 0 km/h
Sensor: Nr:Datum:Temp:Abs-Feuchte:Windchill:Wind:
Aussen-T/F 2701 17-12-2013 10:00:00 -0.8 C 4.45 g/m*3 -0.8 C 0 km/h
2702 17-12-2013 10:05:00 -0.8 C 4.45 g/m*3 -0.8 C 0 km/h
2703 17-12-2013 10:10:00 -0.8 C 4.45 g/m*3 -0.8 C 0 km/h
2704 17-12-2013 10:15:00 -0.7 C 4.48 g/m*3 -0.7 C 0 km/h
2705 17-12-2013 10:20:00 -0.7 C 4.48 g/m*3 -0.7 C 0 km/h
2706 17-12-2013 10:25:00 -0.7 C 4.48 g/m*3 -0.7 C 0 km/h
2707 17-12-2013 10:30:00 -0.7 C 4.48 g/m*3 -0.7 C 0 km/h
2708 17-12-2013 10:35:00 -0.6 C 4.51 g/m*3 -0.6 C 0 km/h
2709 17-12-2013 10:40:00 -0.4 C 4.57 g/m*3 -0.4 C 0 km/h
2710 17-12-2013 10:45:00 -0.2 C 4.68 g/m*3 -0.2 C 0 km/h
2711 17-12-2013 10:50:00 0 C 4.75 g/m*3 0 C 0 km/h
2712 17-12-2013 10:55:00 0.3 C 4.85 g/m*3 0.3 C 0 km/h
2713 17-12-2013 11:00:00 0.6 C 4.95 g/m*3 0.6 C 0 km/h
2714 17-12-2013 11:05:00 0.7 C 4.98 g/m*3 0.7 C 0 km/h
2715 17-12-2013 11:10:00 0.8 C 5.02 g/m*3 0.8 C 0 km/h
2716 17-12-2013 11:15:00 0.9 C 5.05 g/m*3 0.9 C 0 km/h
2717 17-12-2013 11:20:00 1 C 5.09 g/m*3 1 C 0 km/h
2718 17-12-2013 11:25:00 1.1 C 5.12 g/m*3 1.1 C 3.2 km/h
2719 17-12-2013 11:30:00 1.2 C 5.16 g/m*3 1.2 C 1.6 km/h
2720 17-12-2013 11:35:00 1.3 C 5.19 g/m*3 1.3 C 0 km/h
2721 17-12-2013 11:40:00 1.4 C 5.23 g/m*3 1.4 C 3.2 km/h
2722 17-12-2013 11:45:00 1.6 C 5.3 g/m*3 1.6 C 3.2 km/h
2723 17-12-2013 11:50:00 1.7 C 5.34 g/m*3 1.7 C 3.2 km/h
2724 17-12-2013 11:55:00 1.8 C 5.37 g/m*3 1.8 C 4.8 km/h
2725 17-12-2013 12:00:00 1.8 C 5.37 g/m*3 1.8 C 1.6 km/h
Sensor: Nr:Datum:Temp:Abs-Feuchte:Windchill:Wind:
Aussen-T/F 2726 17-12-2013 12:05:00 2 C 5.45 g/m*3 2 C 1.6 km/h
2727 17-12-2013 12:10:00 2.3 C 5.56 g/m*3 2.3 C 0 km/h
2728 17-12-2013 12:15:00 2.6 C 5.67 g/m*3 2.6 C 0 km/h
2729 17-12-2013 12:20:00 2.9 C 5.79 g/m*3 2.9 C 0 km/h
2730 17-12-2013 12:25:00 3.1 C 5.87 g/m*3 3.1 C 1.6 km/h
2731 17-12-2013 12:30:00 3.4 C 5.99 g/m*3 3.4 C 1.6 km/h
2732 17-12-2013 12:35:00 3.5 C 6.03 g/m*3 3.5 C 0 km/h
2733 17-12-2013 12:40:00 3.6 C 6.07 g/m*3 3.6 C 0 km/h
2734 17-12-2013 12:45:00 3.7 C 6.11 g/m*3 3.7 C 0 km/h
2735 17-12-2013 12:50:00 3.8 C 6.15 g/m*3 3.8 C 1.6 km/h
2736 17-12-2013 12:55:00 3.8 C 6.15 g/m*3 3.8 C 0 km/h
2737 17-12-2013 13:00:00 3.9 C 6.19 g/m*3 3.9 C 0 km/h
2738 17-12-2013 13:05:00 4 C 6.23 g/m*3 4 C 1.6 km/h
2739 17-12-2013 13:10:00 4 C 6.17 g/m*3 4 C 0 km/h
2740 17-12-2013 13:15:00 4.1 C 6.21 g/m*3 4.1 C 1.6 km/h
2741 17-12-2013 13:20:00 4.2 C 6.25 g/m*3 4.2 C 3.2 km/h
2742 17-12-2013 13:25:00 4.3 C 6.23 g/m*3 4.3 C 3.2 km/h
2743 17-12-2013 13:30:00 4.4 C 6.27 g/m*3 4.4 C 3.2 km/h
2744 17-12-2013 13:35:00 4.6 C 6.29 g/m*3 4.6 C 4.8 km/h
2745 17-12-2013 13:40:00 4.8 C 6.3 g/m*3 4.8 C 4.8 km/h
2746 17-12-2013 13:45:00 4.9 C 6.28 g/m*3 4.9 C 3.2 km/h
2747 17-12-2013 13:50:00 5 C 6.32 g/m*3 5 C 3.2 km/h
2748 17-12-2013 13:55:00 5.1 C 6.36 g/m*3 5.1 C 4.8 km/h
2749 17-12-2013 14:00:00 5.1 C 6.36 g/m*3 5.1 C 4.8 km/h
2750 17-12-2013 14:05:00 5.2 C 6.33 g/m*3 5.2 C 4.8 km/h
Sensor: Nr:Datum:Temp:Abs-Feuchte:Windchill:Wind:
Aussen-T/F 2751 17-12-2013 14:10:00 5.2 C 6.33 g/m*3 5.2 C 3.2 km/h
2752 17-12-2013 14:15:00 5.2 C 6.33 g/m*3 5.2 C 1.6 km/h
2753 17-12-2013 14:20:00 5.3 C 6.31 g/m*3 5.3 C 3.2 km/h
2754 17-12-2013 14:25:00 5.3 C 6.31 g/m*3 5.3 C 1.6 km/h
2755 17-12-2013 14:30:00 5.3 C 6.31 g/m*3 5.3 C 3.2 km/h
2756 17-12-2013 14:35:00 5.5 C 6.39 g/m*3 5.5 C 3.2 km/h
2757 17-12-2013 14:40:00 5.5 C 6.39 g/m*3 5.5 C 1.6 km/h
2758 17-12-2013 14:45:00 5.4 C 6.35 g/m*3 5.4 C 1.6 km/h
2759 17-12-2013 14:50:00 5.4 C 6.35 g/m*3 5.4 C 3.2 km/h
2760 17-12-2013 14:55:00 5.4 C 6.35 g/m*3 5.4 C 3.2 km/h
2761 17-12-2013 15:00:00 5.6 C 6.43 g/m*3 5.6 C 3.2 km/h
2762 17-12-2013 15:05:00 5.7 C 6.4 g/m*3 5.7 C 4.8 km/h
2763 17-12-2013 15:10:00 5.8 C 6.45 g/m*3 5.8 C 3.2 km/h
2764 17-12-2013 15:15:00 5.9 C 6.42 g/m*3 5.9 C 4.8 km/h
2765 17-12-2013 15:20:00 5.9 C 6.42 g/m*3 5.9 C 4.8 km/h
2766 17-12-2013 15:25:00 5.8 C 6.38 g/m*3 5.8 C 4.8 km/h
2767 17-12-2013 15:30:00 6.1 C 6.43 g/m*3 6.1 C 4.8 km/h
2768 17-12-2013 15:35:00 6.1 C 6.43 g/m*3 6.1 C 4.8 km/h
2769 17-12-2013 15:40:00 5.9 C 6.35 g/m*3 5.9 C 4.8 km/h
2770 17-12-2013 15:45:00 5.9 C 6.42 g/m*3 5.9 C 4.8 km/h
2771 17-12-2013 15:50:00 5.9 C 6.35 g/m*3 5.9 C 4.8 km/h
2772 17-12-2013 15:55:00 5.8 C 6.3 g/m*3 5.8 C 4.8 km/h
2773 17-12-2013 16:00:00 5.7 C 6.26 g/m*3 5.7 C 4.8 km/h
2774 17-12-2013 16:05:00 5.6 C 6.29 g/m*3 5.6 C 4.8 km/h
2775 17-12-2013 16:10:00 5.6 C 6.22 g/m*3 5.6 C 3.2 km/h
Sensor: Nr:Datum:Temp:Abs-Feuchte:Windchill:Wind:
Aussen-T/F 2776 17-12-2013 16:15:00 5.6 C 6.22 g/m*3 5.6 C 3.2 km/h
2777 17-12-2013 16:20:00 5.4 C 6.14 g/m*3 5.4 C 4.8 km/h
2778 17-12-2013 16:25:00 5.3 C 6.1 g/m*3 5.3 C 0 km/h
2779 17-12-2013 16:30:00 5.1 C 6.02 g/m*3 5.1 C 0 km/h
2780 17-12-2013 16:35:00 4.9 C 5.94 g/m*3 4.9 C 3.2 km/h
2781 17-12-2013 16:40:00 4.7 C 5.93 g/m*3 4.7 C 3.2 km/h
2782 17-12-2013 16:45:00 4.6 C 5.96 g/m*3 4.6 C 1.6 km/h
2783 17-12-2013 16:50:00 4.5 C 5.98 g/m*3 4.5 C 0 km/h
2784 17-12-2013 16:55:00 4.3 C 5.84 g/m*3 4.3 C 3.2 km/h
2785 17-12-2013 17:00:00 4.3 C 5.9 g/m*3 4.3 C 3.2 km/h
2786 17-12-2013 17:05:00 4.2 C 5.86 g/m*3 4.2 C 0 km/h
2787 17-12-2013 17:10:00 4 C 5.85 g/m*3 4 C 0 km/h
2788 17-12-2013 17:15:00 3.9 C 5.75 g/m*3 3.9 C 0 km/h
2789 17-12-2013 17:20:00 3.8 C 5.77 g/m*3 3.8 C 1.6 km/h
2790 17-12-2013 17:25:00 3.7 C 5.73 g/m*3 3.7 C 0 km/h
2791 17-12-2013 17:30:00 3.8 C 5.83 g/m*3 3.8 C 3.2 km/h
2792 17-12-2013 17:35:00 3.8 C 5.83 g/m*3 3.8 C 1.6 km/h
2793 17-12-2013 17:40:00 3.8 C 5.77 g/m*3 3.8 C 0 km/h
2794 17-12-2013 17:45:00 3.7 C 5.8 g/m*3 3.7 C 0 km/h
2795 17-12-2013 17:50:00 3.6 C 5.76 g/m*3 3.6 C 1.6 km/h
2796 17-12-2013 17:55:00 3.5 C 5.72 g/m*3 3.5 C 1.6 km/h
2797 17-12-2013 18:00:00 3.5 C 5.72 g/m*3 3.5 C 0 km/h
2798 17-12-2013 18:05:00 3.4 C 5.68 g/m*3 3.4 C 0 km/h
2799 17-12-2013 18:10:00 3.3 C 5.64 g/m*3 3.3 C 0 km/h
2800 17-12-2013 18:15:00 3.2 C 5.6 g/m*3 3.2 C 0 km/h
Sensor: Nr:Datum:Temp:Abs-Feuchte:Windchill:Wind:
Aussen-T/F 2801 17-12-2013 18:20:00 3.2 C 5.6 g/m*3 3.2 C 0 km/h
2802 17-12-2013 18:25:00 3.1 C 5.57 g/m*3 3.1 C 0 km/h
2803 17-12-2013 18:30:00 2.9 C 5.49 g/m*3 2.9 C 1.6 km/h
2804 17-12-2013 18:35:00 2.9 C 5.49 g/m*3 2.9 C 1.6 km/h
2805 17-12-2013 18:40:00 2.8 C 5.46 g/m*3 2.8 C 0 km/h
2806 17-12-2013 18:45:00 2.6 C 5.38 g/m*3 2.6 C 0 km/h
2807 17-12-2013 18:50:00 2.6 C 5.44 g/m*3 2.6 C 0 km/h
2808 17-12-2013 18:55:00 2.6 C 5.44 g/m*3 2.6 C 1.6 km/h
2809 17-12-2013 19:00:00 2.5 C 5.4 g/m*3 2.5 C 0 km/h
2810 17-12-2013 19:05:00 2.4 C 5.37 g/m*3 2.4 C 0 km/h
2811 17-12-2013 19:10:00 2.2 C 5.29 g/m*3 2.2 C 0 km/h
2812 17-12-2013 19:15:00 2.3 C 5.33 g/m*3 2.3 C 0 km/h
2813 17-12-2013 19:20:00 2.4 C 5.42 g/m*3 2.4 C 0 km/h
2814 17-12-2013 19:25:00 2.4 C 5.42 g/m*3 2.4 C 0 km/h
2815 17-12-2013 19:30:00 2.6 C 5.5 g/m*3 2.6 C 0 km/h
2816 17-12-2013 19:35:00 2.5 C 5.4 g/m*3 2.5 C 0 km/h
2817 17-12-2013 19:40:00 2.4 C 5.37 g/m*3 2.4 C 0 km/h
2818 17-12-2013 19:45:00 2.3 C 5.33 g/m*3 2.3 C 0 km/h
2819 17-12-2013 19:50:00 2.2 C 5.29 g/m*3 2.2 C 0 km/h
2820 17-12-2013 19:55:00 2.1 C 5.26 g/m*3 2.1 C 0 km/h
2821 17-12-2013 20:00:00 2.1 C 5.26 g/m*3 2.1 C 0 km/h
2822 17-12-2013 20:05:00 2 C 5.22 g/m*3 2 C 0 km/h
2823 17-12-2013 20:10:00 1.9 C 5.24 g/m*3 1.9 C 0 km/h
2824 17-12-2013 20:15:00 1.8 C 5.21 g/m*3 1.8 C 0 km/h
2825 17-12-2013 20:20:00 1.8 C 5.21 g/m*3 1.8 C 3.2 km/h
Sensor: Nr:Datum:Temp:Abs-Feuchte:Windchill:Wind:
Aussen-T/F 2826 17-12-2013 20:25:00 1.7 C 5.17 g/m*3 1.7 C 0 km/h
2827 17-12-2013 20:30:00 1.7 C 5.17 g/m*3 1.7 C 0 km/h
2828 17-12-2013 20:35:00 1.6 C 5.14 g/m*3 1.6 C 0 km/h
2829 17-12-2013 20:40:00 1.5 C 5.1 g/m*3 1.5 C 0 km/h
2830 17-12-2013 20:45:00 1.4 C 5.07 g/m*3 1.4 C 0 km/h
2831 17-12-2013 20:50:00 1.3 C 5.03 g/m*3 1.3 C 0 km/h
2832 17-12-2013 20:55:00 1.2 C 5 g/m*3 1.2 C 0 km/h
2833 17-12-2013 21:00:00 1.2 C 5 g/m*3 1.2 C 0 km/h
2834 17-12-2013 21:05:00 1.2 C 5.05 g/m*3 1.2 C 0 km/h
2835 17-12-2013 21:10:00 1.2 C 5 g/m*3 1.2 C 0 km/h
2836 17-12-2013 21:15:00 1.2 C 5.05 g/m*3 1.2 C 0 km/h
2837 17-12-2013 21:20:00 1.2 C 5.05 g/m*3 1.2 C 0 km/h
2838 17-12-2013 21:25:00 1.1 C 5.02 g/m*3 1.1 C 0 km/h
2839 17-12-2013 21:30:00 1.1 C 5.02 g/m*3 1.1 C 0 km/h
2840 17-12-2013 21:35:00 1 C 4.98 g/m*3 1 C 0 km/h
2841 17-12-2013 21:40:00 1 C 4.98 g/m*3 1 C 0 km/h
2842 17-12-2013 21:45:00 1 C 4.98 g/m*3 1 C 0 km/h
2843 17-12-2013 21:50:00 0.9 C 4.95 g/m*3 0.9 C 0 km/h
2844 17-12-2013 21:55:00 0.9 C 4.95 g/m*3 0.9 C 0 km/h
2845 17-12-2013 22:00:00 0.9 C 4.95 g/m*3 0.9 C 0 km/h
2846 17-12-2013 22:05:00 0.9 C 4.95 g/m*3 0.9 C 0 km/h
2847 17-12-2013 22:10:00 0.9 C 4.95 g/m*3 0.9 C 0 km/h
2848 17-12-2013 22:15:00 0.9 C 4.95 g/m*3 0.9 C 0 km/h
2849 17-12-2013 22:20:00 0.9 C 4.95 g/m*3 0.9 C 0 km/h
2850 17-12-2013 22:25:00 0.9 C 4.95 g/m*3 0.9 C 0 km/h
Sensor: Nr:Datum:Temp:Abs-Feuchte:Windchill:Wind:
Aussen-T/F 2851 17-12-2013 22:30:00 1 C 5.03 g/m*3 1 C 1.6 km/h
2852 17-12-2013 22:35:00 1.1 C 5.02 g/m*3 1.1 C 3.2 km/h
2853 17-12-2013 22:40:00 1.1 C 5.07 g/m*3 1.1 C 1.6 km/h
2854 17-12-2013 22:45:00 1.2 C 5.1 g/m*3 1.2 C 0 km/h
2855 17-12-2013 22:50:00 1.1 C 5.02 g/m*3 1.1 C 0 km/h
2856 17-12-2013 22:55:00 1 C 4.98 g/m*3 1 C 0 km/h
2857 17-12-2013 23:00:00 0.9 C 4.95 g/m*3 0.9 C 0 km/h
2858 17-12-2013 23:05:00 0.8 C 4.91 g/m*3 0.8 C 0 km/h
2859 17-12-2013 23:10:00 0.8 C 4.91 g/m*3 0.8 C 0 km/h
2860 17-12-2013 23:15:00 0.7 C 4.88 g/m*3 0.7 C 0 km/h
2861 17-12-2013 23:20:00 0.6 C 4.85 g/m*3 0.6 C 0 km/h
2862 17-12-2013 23:25:00 0.6 C 4.85 g/m*3 0.6 C 0 km/h
2863 17-12-2013 23:30:00 0.6 C 4.85 g/m*3 0.6 C 0 km/h
2864 17-12-2013 23:35:00 0.5 C 4.81 g/m*3 0.5 C 0 km/h
2865 17-12-2013 23:40:00 0.6 C 4.9 g/m*3 0.6 C 0 km/h
2866 17-12-2013 23:45:00 0.5 C 4.86 g/m*3 0.5 C 0 km/h
2867 17-12-2013 23:50:00 0.4 C 4.78 g/m*3 0.4 C 0 km/h
2868 17-12-2013 23:55:00 0.4 C 4.83 g/m*3 0.4 C 0 km/h
2869 18-12-2013 00:00:00 0.5 C 4.86 g/m*3 0.5 C 0 km/h
2870 18-12-2013 00:05:00 0.4 C 4.83 g/m*3 0.4 C 0 km/h
2871 18-12-2013 00:10:00 0.4 C 4.83 g/m*3 0.4 C 0 km/h
2872 18-12-2013 00:15:00 0.4 C 4.83 g/m*3 0.4 C 0 km/h
2873 18-12-2013 00:20:00 0.4 C 4.83 g/m*3 0.4 C 0 km/h
2874 18-12-2013 00:25:00 0.3 C 4.8 g/m*3 0.3 C 0 km/h
2875 18-12-2013 00:30:00 0.4 C 4.83 g/m*3 0.4 C 0 km/h
Sensor: Nr:Datum:Temp:Abs-Feuchte:Windchill:Wind:
Aussen-T/F 2876 18-12-2013 00:35:00 0.3 C 4.8 g/m*3 0.3 C 1.6 km/h
2877 18-12-2013 00:40:00 0.3 C 4.8 g/m*3 0.3 C 0 km/h
2878 18-12-2013 00:45:00 0.3 C 4.8 g/m*3 0.3 C 0 km/h
2879 18-12-2013 00:50:00 0.3 C 4.8 g/m*3 0.3 C 0 km/h
2880 18-12-2013 00:55:00 0.3 C 4.8 g/m*3 0.3 C 0 km/h
2881 18-12-2013 01:00:00 0.3 C 4.8 g/m*3 0.3 C 0 km/h
2882 18-12-2013 01:05:00 0.3 C 4.8 g/m*3 0.3 C 0 km/h
2883 18-12-2013 01:10:00 0.3 C 4.8 g/m*3 0.3 C 0 km/h
2884 18-12-2013 01:15:00 0.3 C 4.8 g/m*3 0.3 C 0 km/h
2885 18-12-2013 01:20:00 0.3 C 4.8 g/m*3 0.3 C 0 km/h
2886 18-12-2013 01:25:00 0.4 C 4.83 g/m*3 0.4 C 0 km/h
2887 18-12-2013 01:30:00 0.4 C 4.83 g/m*3 0.4 C 0 km/h
2888 18-12-2013 01:35:00 0.4 C 4.83 g/m*3 0.4 C 0 km/h
2889 18-12-2013 01:40:00 0.4 C 4.83 g/m*3 0.4 C 0 km/h
2890 18-12-2013 01:45:00 0.5 C 4.86 g/m*3 0.5 C 0 km/h
2891 18-12-2013 01:50:00 0.6 C 4.9 g/m*3 0.6 C 0 km/h
2892 18-12-2013 01:55:00 0.6 C 4.9 g/m*3 0.6 C 0 km/h
2893 18-12-2013 02:00:00 0.6 C 4.9 g/m*3 0.6 C 0 km/h
2894 18-12-2013 02:05:00 0.7 C 4.93 g/m*3 0.7 C 1.6 km/h
2895 18-12-2013 02:10:00 0.7 C 4.93 g/m*3 0.7 C 0 km/h
2896 18-12-2013 02:15:00 0.7 C 4.93 g/m*3 0.7 C 0 km/h
2897 18-12-2013 02:20:00 0.8 C 4.97 g/m*3 0.8 C 0 km/h
2898 18-12-2013 02:25:00 0.8 C 4.97 g/m*3 0.8 C 0 km/h
2899 18-12-2013 02:30:00 0.8 C 4.97 g/m*3 0.8 C 0 km/h
2900 18-12-2013 02:35:00 0.8 C 4.97 g/m*3 0.8 C 0 km/h
Sensor: Nr:Datum:Temp:Abs-Feuchte:Windchill:Wind:
Aussen-T/F 2901 18-12-2013 02:40:00 0.8 C 4.97 g/m*3 0.8 C 0 km/h
2902 18-12-2013 02:45:00 0.8 C 4.97 g/m*3 0.8 C 0 km/h
2903 18-12-2013 02:50:00 0.8 C 4.97 g/m*3 0.8 C 0 km/h
2904 18-12-2013 02:55:00 0.8 C 4.97 g/m*3 0.8 C 1.6 km/h
2905 18-12-2013 03:00:00 0.9 C 5 g/m*3 0.9 C 1.6 km/h
2906 18-12-2013 03:05:00 1 C 5.03 g/m*3 1 C 0 km/h
2907 18-12-2013 03:10:00 1 C 5.03 g/m*3 1 C 0 km/h
2908 18-12-2013 03:15:00 1 C 5.03 g/m*3 1 C 0 km/h
2909 18-12-2013 03:20:00 1 C 5.03 g/m*3 1 C 0 km/h
2910 18-12-2013 03:25:00 1 C 5.03 g/m*3 1 C 0 km/h
2911 18-12-2013 03:30:00 1.1 C 5.07 g/m*3 1.1 C 0 km/h
2912 18-12-2013 03:35:00 1.1 C 5.07 g/m*3 1.1 C 0 km/h
2913 18-12-2013 03:40:00 1.1 C 5.07 g/m*3 1.1 C 0 km/h
2914 18-12-2013 03:45:00 1.1 C 5.07 g/m*3 1.1 C 0 km/h
2915 18-12-2013 03:50:00 1.1 C 5.07 g/m*3 1.1 C 0 km/h
2916 18-12-2013 03:55:00 1.1 C 5.07 g/m*3 1.1 C 0 km/h
2917 18-12-2013 04:00:00 1.1 C 5.07 g/m*3 1.1 C 0 km/h
2918 18-12-2013 04:05:00 1.2 C 5.1 g/m*3 1.2 C 0 km/h
2919 18-12-2013 04:10:00 1.2 C 5.1 g/m*3 1.2 C 0 km/h
2920 18-12-2013 04:15:00 1.2 C 5.1 g/m*3 1.2 C 0 km/h
2921 18-12-2013 04:20:00 1.2 C 5.1 g/m*3 1.2 C 0 km/h
2922 18-12-2013 04:25:00 1.2 C 5.1 g/m*3 1.2 C 0 km/h
2923 18-12-2013 04:30:00 1.2 C 5.1 g/m*3 1.2 C 0 km/h
2924 18-12-2013 04:35:00 1.2 C 5.1 g/m*3 1.2 C 0 km/h
2925 18-12-2013 04:40:00 1.2 C 5.1 g/m*3 1.2 C 0 km/h
Sensor: Nr:Datum:Temp:Abs-Feuchte:Windchill:Wind:
Aussen-T/F 2926 18-12-2013 04:45:00 1.2 C 5.1 g/m*3 1.2 C 0 km/h
2927 18-12-2013 04:50:00 1.2 C 5.1 g/m*3 1.2 C 0 km/h
2928 18-12-2013 04:55:00 1.3 C 5.14 g/m*3 1.3 C 0 km/h
2929 18-12-2013 05:00:00 1.3 C 5.14 g/m*3 1.3 C 0 km/h
2930 18-12-2013 05:05:00 1.4 C 5.17 g/m*3 1.4 C 0 km/h
2931 18-12-2013 05:10:00 1.4 C 5.17 g/m*3 1.4 C 0 km/h
2932 18-12-2013 05:15:00 1.4 C 5.17 g/m*3 1.4 C 0 km/h
2933 18-12-2013 05:20:00 1.4 C 5.17 g/m*3 1.4 C 0 km/h
2934 18-12-2013 05:25:00 1.4 C 5.17 g/m*3 1.4 C 0 km/h
2935 18-12-2013 05:30:00 1.5 C 5.21 g/m*3 1.5 C 0 km/h
2936 18-12-2013 05:35:00 1.6 C 5.3 g/m*3 1.6 C 0 km/h
2937 18-12-2013 05:40:00 1.6 C 5.3 g/m*3 1.6 C 0 km/h
2938 18-12-2013 05:45:00 1.6 C 5.3 g/m*3 1.6 C 0 km/h
2939 18-12-2013 05:50:00 1.6 C 5.25 g/m*3 1.6 C 0 km/h
2940 18-12-2013 05:55:00 1.7 C 5.28 g/m*3 1.7 C 1.6 km/h
2941 18-12-2013 06:00:00 1.7 C 5.28 g/m*3 1.7 C 0 km/h
2942 18-12-2013 06:05:00 1.7 C 5.28 g/m*3 1.7 C 3.2 km/h
2943 18-12-2013 06:10:00 1.8 C 5.37 g/m*3 1.8 C 3.2 km/h
2944 18-12-2013 06:15:00 1.7 C 5.28 g/m*3 1.7 C 0 km/h
2945 18-12-2013 06:20:00 1.7 C 5.28 g/m*3 1.7 C 0 km/h
2946 18-12-2013 06:25:00 1.7 C 5.28 g/m*3 1.7 C 0 km/h
2947 18-12-2013 06:30:00 1.7 C 5.28 g/m*3 1.7 C 0 km/h
2948 18-12-2013 06:35:00 1.7 C 5.28 g/m*3 1.7 C 0 km/h
2949 18-12-2013 06:40:00 1.7 C 5.28 g/m*3 1.7 C 3.2 km/h
2950 18-12-2013 06:45:00 1.7 C 5.28 g/m*3 1.7 C 1.6 km/h
Sensor: Nr:Datum:Temp:Abs-Feuchte:Windchill:Wind:
Aussen-T/F 2951 18-12-2013 06:50:00 1.7 C 5.28 g/m*3 1.7 C 0 km/h
2952 18-12-2013 06:55:00 1.7 C 5.28 g/m*3 1.7 C 0 km/h
2953 18-12-2013 07:00:00 1.7 C 5.28 g/m*3 1.7 C 0 km/h
2954 18-12-2013 07:05:00 1.7 C 5.28 g/m*3 1.7 C 1.6 km/h
2955 18-12-2013 07:10:00 1.7 C 5.28 g/m*3 1.7 C 3.2 km/h
2956 18-12-2013 07:15:00 1.8 C 5.32 g/m*3 1.8 C 0 km/h
2957 18-12-2013 07:20:00 1.8 C 5.32 g/m*3 1.8 C 3.2 km/h
2958 18-12-2013 07:25:00 1.8 C 5.32 g/m*3 1.8 C 3.2 km/h
2959 18-12-2013 07:30:00 1.8 C 5.32 g/m*3 1.8 C 0 km/h
2960 18-12-2013 07:35:00 1.8 C 5.32 g/m*3 1.8 C 0 km/h
2961 18-12-2013 07:40:00 1.8 C 5.32 g/m*3 1.8 C 0 km/h
2962 18-12-2013 07:45:00 1.8 C 5.32 g/m*3 1.8 C 1.6 km/h
2963 18-12-2013 07:50:00 1.8 C 5.32 g/m*3 1.8 C 0 km/h
2964 18-12-2013 07:55:00 1.8 C 5.32 g/m*3 1.8 C 0 km/h
2965 18-12-2013 08:00:00 1.8 C 5.32 g/m*3 1.8 C 0 km/h
2966 18-12-2013 08:05:00 1.8 C 5.32 g/m*3 1.8 C 0 km/h
2967 18-12-2013 08:10:00 1.8 C 5.32 g/m*3 1.8 C 0 km/h
2968 18-12-2013 08:15:00 1.7 C 5.28 g/m*3 1.7 C 0 km/h
2969 18-12-2013 08:20:00 1.7 C 5.28 g/m*3 1.7 C 1.6 km/h
2970 18-12-2013 08:25:00 1.8 C 5.32 g/m*3 1.8 C 3.2 km/h
2971 18-12-2013 08:30:00 1.9 C 5.35 g/m*3 1.9 C 1.6 km/h
2972 18-12-2013 08:35:00 1.9 C 5.35 g/m*3 1.9 C 1.6 km/h
2973 18-12-2013 08:40:00 2 C 5.39 g/m*3 2 C 1.6 km/h
2974 18-12-2013 08:45:00 2.2 C 5.46 g/m*3 2.2 C 0 km/h
2975 18-12-2013 08:50:00 2.3 C 5.5 g/m*3 2.3 C 1.6 km/h
Sensor: Nr:Datum:Temp:Abs-Feuchte:Windchill:Wind:
Aussen-T/F 2976 18-12-2013 08:55:00 2.3 C 5.5 g/m*3 2.3 C 0 km/h
2977 18-12-2013 09:00:00 2.4 C 5.54 g/m*3 2.4 C 1.6 km/h
2978 18-12-2013 09:05:00 2.5 C 5.58 g/m*3 2.5 C 3.2 km/h
2979 18-12-2013 09:10:00 2.6 C 5.61 g/m*3 2.6 C 0 km/h
2980 18-12-2013 09:15:00 2.6 C 5.61 g/m*3 2.6 C 0 km/h
2981 18-12-2013 09:20:00 2.6 C 5.61 g/m*3 2.6 C 3.2 km/h
2982 18-12-2013 09:25:00 2.7 C 5.65 g/m*3 2.7 C 3.2 km/h
2983 18-12-2013 09:30:00 2.7 C 5.65 g/m*3 2.7 C 1.6 km/h
2984 18-12-2013 09:35:00 2.7 C 5.65 g/m*3 2.7 C 1.6 km/h
2985 18-12-2013 09:40:00 2.8 C 5.69 g/m*3 2.8 C 0 km/h
2986 18-12-2013 09:45:00 2.8 C 5.69 g/m*3 2.8 C 3.2 km/h
2987 18-12-2013 09:50:00 2.8 C 5.69 g/m*3 2.8 C 4.8 km/h
2988 18-12-2013 09:55:00 2.8 C 5.69 g/m*3 2.8 C 1.6 km/h
2989 18-12-2013 10:00:00 2.9 C 5.73 g/m*3 2.9 C 0 km/h
2990 18-12-2013 10:05:00 2.9 C 5.73 g/m*3 2.9 C 3.2 km/h
2991 18-12-2013 10:10:00 3 C 5.77 g/m*3 3 C 3.2 km/h
2992 18-12-2013 10:15:00 3.1 C 5.75 g/m*3 3.1 C 3.2 km/h
2993 18-12-2013 10:20:00 3.1 C 5.75 g/m*3 3.1 C 4.8 km/h
2994 18-12-2013 10:25:00 3.2 C 5.79 g/m*3 3.2 C 1.6 km/h
2995 18-12-2013 10:30:00 3.3 C 5.82 g/m*3 3.3 C 3.2 km/h
2996 18-12-2013 10:35:00 3.5 C 5.96 g/m*3 3.5 C 1.6 km/h
2997 18-12-2013 10:40:00 3.6 C 5.94 g/m*3 3.6 C 1.6 km/h
2998 18-12-2013 10:45:00 3.6 C 5.88 g/m*3 3.6 C 3.2 km/h
2999 18-12-2013 10:50:00 3.6 C 5.88 g/m*3 3.6 C 0 km/h
3000 18-12-2013 10:55:00 3.7 C 5.92 g/m*3 3.7 C 3.2 km/h
Sensor: Nr:Datum:Temp:Abs-Feuchte:Windchill:Wind:
Aussen-T/F 3001 18-12-2013 11:00:00 3.7 C 5.92 g/m*3 3.7 C 4.8 km/h
3002 18-12-2013 11:05:00 3.8 C 5.96 g/m*3 3.8 C 4.8 km/h
3003 18-12-2013 11:10:00 3.8 C 5.96 g/m*3 3.8 C 3.2 km/h
3004 18-12-2013 11:15:00 3.8 C 5.96 g/m*3 3.8 C 0 km/h
3005 18-12-2013 11:20:00 3.9 C 6 g/m*3 3.9 C 0 km/h
3006 18-12-2013 11:25:00 4 C 6.04 g/m*3 4 C 3.2 km/h
3007 18-12-2013 11:30:00 4.1 C 6.02 g/m*3 4.1 C 1.6 km/h
3008 18-12-2013 11:35:00 4.1 C 6.02 g/m*3 4.1 C 0 km/h
3009 18-12-2013 11:40:00 4.1 C 6.02 g/m*3 4.1 C 0 km/h
3010 18-12-2013 11:45:00 4.1 C 6.02 g/m*3 4.1 C 0 km/h
3011 18-12-2013 11:50:00 4.2 C 6.06 g/m*3 4.2 C 0 km/h
3012 18-12-2013 11:55:00 4.2 C 6.12 g/m*3 4.2 C 4.8 km/h
3013 18-12-2013 12:00:00 4.3 C 6.1 g/m*3 4.3 C 0 km/h
3014 18-12-2013 12:05:00 4.3 C 6.1 g/m*3 4.3 C 0 km/h
3015 18-12-2013 12:10:00 4.4 C 6.14 g/m*3 4.4 C 0 km/h
3016 18-12-2013 12:15:00 4.5 C 6.18 g/m*3 4.5 C 0 km/h
3017 18-12-2013 12:20:00 4.4 C 6.07 g/m*3 4.4 C 0 km/h
3018 18-12-2013 12:25:00 4.4 C 6.07 g/m*3 4.4 C 0 km/h
3019 18-12-2013 12:30:00 4.4 C 6.07 g/m*3 4.4 C 0 km/h
3020 18-12-2013 12:35:00 4.4 C 6.07 g/m*3 4.4 C 0 km/h
3021 18-12-2013 12:40:00 4.5 C 6.18 g/m*3 4.5 C 0 km/h
3022 18-12-2013 12:45:00 4.6 C 6.22 g/m*3 4.6 C 0 km/h
3023 18-12-2013 12:50:00 4.7 C 6.26 g/m*3 4.7 C 0 km/h
3024 18-12-2013 12:55:00 4.8 C 6.37 g/m*3 4.8 C 0 km/h
3025 18-12-2013 13:00:00 4.9 C 6.41 g/m*3 4.9 C 0 km/h
Sensor: Nr:Datum:Temp:Abs-Feuchte:Windchill:Wind:
Aussen-T/F 3026 18-12-2013 13:05:00 5.1 C 6.5 g/m*3 5.1 C 3.2 km/h
3027 18-12-2013 13:10:00 5.2 C 6.54 g/m*3 5.2 C 4.8 km/h
3028 18-12-2013 13:15:00 5.5 C 6.67 g/m*3 5.5 C 1.6 km/h
3029 18-12-2013 13:20:00 5.9 C 6.92 g/m*3 5.9 C 3.2 km/h
3030 18-12-2013 13:25:00 6.3 C 7.03 g/m*3 6.3 C 3.2 km/h
3031 18-12-2013 13:30:00 6.9 C 7.31 g/m*3 4.99 C 9.7 km/h
3032 18-12-2013 13:35:00 7.7 C 7.54 g/m*3 5.94 C 9.7 km/h
3033 18-12-2013 13:40:00 8.2 C 7.54 g/m*3 5.76 C 14.5 km/h
3034 18-12-2013 13:45:00 8.7 C 7.61 g/m*3 6.38 C 14.5 km/h
3035 18-12-2013 13:50:00 8.9 C 7.62 g/m*3 7.37 C 9.7 km/h
3036 18-12-2013 13:55:00 9 C 7.58 g/m*3 7.21 C 11.3 km/h
3037 18-12-2013 14:00:00 9 C 7.67 g/m*3 8.21 C 6.4 km/h
3038 18-12-2013 14:05:00 9.1 C 7.63 g/m*3 9.1 C 4.8 km/h
3039 18-12-2013 14:10:00 9.1 C 7.63 g/m*3 7.33 C 11.3 km/h
3040 18-12-2013 14:15:00 9.2 C 7.59 g/m*3 7.73 C 9.7 km/h
3041 18-12-2013 14:20:00 9.1 C 7.54 g/m*3 7.61 C 9.7 km/h
3042 18-12-2013 14:25:00 9.1 C 7.54 g/m*3 7.61 C 9.7 km/h
3043 18-12-2013 14:30:00 9 C 7.58 g/m*3 8.21 C 6.4 km/h
3044 18-12-2013 14:35:00 8.9 C 7.62 g/m*3 8.1 C 6.4 km/h
3045 18-12-2013 14:40:00 8.9 C 7.62 g/m*3 8.9 C 3.2 km/h
3046 18-12-2013 14:45:00 8.9 C 7.62 g/m*3 8.9 C 4.8 km/h
3047 18-12-2013 14:50:00 8.8 C 7.57 g/m*3 8.8 C 3.2 km/h
3048 18-12-2013 14:55:00 8.7 C 7.61 g/m*3 8.7 C 3.2 km/h
3049 18-12-2013 15:00:00 8.7 C 7.61 g/m*3 8.7 C 3.2 km/h
3050 18-12-2013 15:05:00 8.7 C 7.61 g/m*3 7.13 C 9.7 km/h
Sensor: Nr:Datum:Temp:Abs-Feuchte:Windchill:Wind:
Aussen-T/F 3051 18-12-2013 15:10:00 8.7 C 7.61 g/m*3 8.7 C 3.2 km/h
3052 18-12-2013 15:15:00 8.7 C 7.61 g/m*3 8.7 C 3.2 km/h
3053 18-12-2013 15:20:00 8.7 C 7.61 g/m*3 7.87 C 6.4 km/h
3054 18-12-2013 15:25:00 8.8 C 7.57 g/m*3 7.25 C 9.7 km/h
3055 18-12-2013 15:30:00 9 C 7.67 g/m*3 8.21 C 6.4 km/h
3056 18-12-2013 15:35:00 8.9 C 7.62 g/m*3 8.9 C 1.6 km/h
3057 18-12-2013 15:40:00 8.7 C 7.61 g/m*3 8.7 C 4.8 km/h
3058 18-12-2013 15:45:00 8.7 C 7.61 g/m*3 8.7 C 3.2 km/h
3059 18-12-2013 15:50:00 8.7 C 7.61 g/m*3 8.7 C 3.2 km/h
3060 18-12-2013 15:55:00 8.7 C 7.61 g/m*3 8.7 C 1.6 km/h
3061 18-12-2013 16:00:00 8.8 C 7.66 g/m*3 8.8 C 3.2 km/h
3062 18-12-2013 16:05:00 8.8 C 7.57 g/m*3 8.8 C 3.2 km/h
3063 18-12-2013 16:10:00 8.6 C 7.56 g/m*3 8.6 C 1.6 km/h
3064 18-12-2013 16:15:00 8.3 C 7.5 g/m*3 8.3 C 3.2 km/h
3065 18-12-2013 16:20:00 8.3 C 7.5 g/m*3 8.3 C 3.2 km/h
3066 18-12-2013 16:25:00 8.2 C 7.45 g/m*3 8.2 C 1.6 km/h
3067 18-12-2013 16:30:00 8.1 C 7.41 g/m*3 8.1 C 1.6 km/h
3068 18-12-2013 16:35:00 7.9 C 7.39 g/m*3 7.9 C 0 km/h
3069 18-12-2013 16:40:00 7.9 C 7.39 g/m*3 7.9 C 3.2 km/h
3070 18-12-2013 16:45:00 7.9 C 7.39 g/m*3 7.9 C 3.2 km/h
3071 18-12-2013 16:50:00 7.9 C 7.39 g/m*3 7.9 C 0 km/h
3072 18-12-2013 16:55:00 7.8 C 7.35 g/m*3 7.8 C 1.6 km/h
3073 18-12-2013 17:00:00 7.6 C 7.33 g/m*3 7.6 C 0 km/h
3074 18-12-2013 17:05:00 7.6 C 7.33 g/m*3 7.6 C 1.6 km/h
3075 18-12-2013 17:10:00 7.5 C 7.28 g/m*3 7.5 C 1.6 km/h
Sensor: Nr:Datum:Temp:Abs-Feuchte:Windchill:Wind:
Aussen-T/F 3076 18-12-2013 17:15:00 7.4 C 7.24 g/m*3 7.4 C 0 km/h
3077 18-12-2013 17:20:00 7.2 C 7.14 g/m*3 7.2 C 1.6 km/h
3078 18-12-2013 17:25:00 7.2 C 7.22 g/m*3 7.2 C 3.2 km/h
3079 18-12-2013 17:30:00 7.2 C 7.22 g/m*3 7.2 C 3.2 km/h
3080 18-12-2013 17:35:00 7.2 C 7.22 g/m*3 7.2 C 1.6 km/h
3081 18-12-2013 17:40:00 7.2 C 7.22 g/m*3 7.2 C 1.6 km/h
3082 18-12-2013 17:45:00 7.3 C 7.27 g/m*3 7.3 C 0 km/h
3083 18-12-2013 17:50:00 7.3 C 7.27 g/m*3 7.3 C 4.8 km/h
3084 18-12-2013 17:55:00 7.5 C 7.36 g/m*3 7.5 C 4.8 km/h
3085 18-12-2013 18:00:00 7.6 C 7.33 g/m*3 7.6 C 1.6 km/h
3086 18-12-2013 18:05:00 7.7 C 7.38 g/m*3 7.7 C 3.2 km/h
3087 18-12-2013 18:10:00 7.7 C 7.3 g/m*3 7.7 C 4.8 km/h
3088 18-12-2013 18:15:00 7.7 C 7.22 g/m*3 7.7 C 3.2 km/h
3089 18-12-2013 18:20:00 7.4 C 7.08 g/m*3 7.4 C 4.8 km/h
3090 18-12-2013 18:25:00 7.3 C 7.11 g/m*3 7.3 C 4.8 km/h
3091 18-12-2013 18:30:00 7.1 C 7.02 g/m*3 7.1 C 1.6 km/h
3092 18-12-2013 18:35:00 6.8 C 6.88 g/m*3 6.8 C 3.2 km/h
3093 18-12-2013 18:40:00 6.7 C 6.84 g/m*3 6.7 C 4.8 km/h
3094 18-12-2013 18:45:00 6.6 C 6.87 g/m*3 6.6 C 1.6 km/h
3095 18-12-2013 18:50:00 6.4 C 6.85 g/m*3 6.4 C 1.6 km/h
3096 18-12-2013 18:55:00 6.4 C 6.93 g/m*3 6.4 C 3.2 km/h
3097 18-12-2013 19:00:00 6.4 C 6.93 g/m*3 6.4 C 1.6 km/h
3098 18-12-2013 19:05:00 6.4 C 6.85 g/m*3 6.4 C 1.6 km/h
3099 18-12-2013 19:10:00 6.3 C 6.81 g/m*3 6.3 C 3.2 km/h
3100 18-12-2013 19:15:00 6.2 C 6.69 g/m*3 6.2 C 3.2 km/h
Sensor: Nr:Datum:Temp:Abs-Feuchte:Windchill:Wind:
Aussen-T/F 3101 18-12-2013 19:20:00 6 C 6.68 g/m*3 6 C 3.2 km/h
3102 18-12-2013 19:25:00 5.9 C 6.63 g/m*3 5.9 C 0 km/h
3103 18-12-2013 19:30:00 5.8 C 6.59 g/m*3 5.8 C 1.6 km/h
3104 18-12-2013 19:35:00 5.7 C 6.62 g/m*3 5.7 C 3.2 km/h
3105 18-12-2013 19:40:00 5.7 C 6.62 g/m*3 5.7 C 3.2 km/h
3106 18-12-2013 19:45:00 5.6 C 6.57 g/m*3 5.6 C 3.2 km/h
3107 18-12-2013 19:50:00 5.4 C 6.49 g/m*3 5.4 C 4.8 km/h
3108 18-12-2013 19:55:00 5.4 C 6.49 g/m*3 5.4 C 4.8 km/h
3109 18-12-2013 20:00:00 5.4 C 6.49 g/m*3 5.4 C 3.2 km/h
3110 18-12-2013 20:05:00 5.4 C 6.49 g/m*3 5.4 C 3.2 km/h
3111 18-12-2013 20:10:00 5.3 C 6.52 g/m*3 5.3 C 3.2 km/h
3112 18-12-2013 20:15:00 5.3 C 6.45 g/m*3 5.3 C 1.6 km/h
3113 18-12-2013 20:20:00 5.2 C 6.47 g/m*3 5.2 C 3.2 km/h
3114 18-12-2013 20:25:00 5.3 C 6.52 g/m*3 5.3 C 3.2 km/h
3115 18-12-2013 20:30:00 5.2 C 6.47 g/m*3 5.2 C 3.2 km/h
3116 18-12-2013 20:35:00 5.2 C 6.47 g/m*3 5.2 C 4.8 km/h
3117 18-12-2013 20:40:00 5.2 C 6.47 g/m*3 5.2 C 3.2 km/h
3118 18-12-2013 20:45:00 5.1 C 6.43 g/m*3 5.1 C 3.2 km/h
3119 18-12-2013 20:50:00 5.1 C 6.43 g/m*3 5.1 C 3.2 km/h
3120 18-12-2013 20:55:00 5.1 C 6.43 g/m*3 5.1 C 3.2 km/h
3121 18-12-2013 21:00:00 5.2 C 6.54 g/m*3 5.2 C 1.6 km/h
3122 18-12-2013 21:05:00 5.1 C 6.43 g/m*3 5.1 C 4.8 km/h
3123 18-12-2013 21:10:00 4.9 C 6.35 g/m*3 4.9 C 3.2 km/h
3124 18-12-2013 21:15:00 4.9 C 6.35 g/m*3 4.9 C 3.2 km/h
3125 18-12-2013 21:20:00 4.9 C 6.41 g/m*3 4.9 C 3.2 km/h
Sensor: Nr:Datum:Temp:Abs-Feuchte:Windchill:Wind:
Aussen-T/F 3126 18-12-2013 21:25:00 4.9 C 6.41 g/m*3 4.9 C 1.6 km/h
3127 18-12-2013 21:30:00 5.1 C 6.5 g/m*3 5.1 C 3.2 km/h
3128 18-12-2013 21:35:00 5.2 C 6.54 g/m*3 5.2 C 3.2 km/h
3129 18-12-2013 21:40:00 5.3 C 6.58 g/m*3 5.3 C 3.2 km/h
3130 18-12-2013 21:45:00 5.3 C 6.58 g/m*3 5.3 C 3.2 km/h
3131 18-12-2013 21:50:00 5.3 C 6.58 g/m*3 5.3 C 3.2 km/h
3132 18-12-2013 21:55:00 5.3 C 6.58 g/m*3 5.3 C 3.2 km/h
3133 18-12-2013 22:00:00 5.4 C 6.63 g/m*3 5.4 C 3.2 km/h
3134 18-12-2013 22:05:00 5.6 C 6.79 g/m*3 5.6 C 4.8 km/h
3135 18-12-2013 22:10:00 5.8 C 6.81 g/m*3 5.8 C 4.8 km/h
3136 18-12-2013 22:15:00 5.8 C 6.81 g/m*3 5.8 C 4.8 km/h
3137 18-12-2013 22:20:00 5.9 C 6.78 g/m*3 5.9 C 4.8 km/h
3138 18-12-2013 22:25:00 5.8 C 6.73 g/m*3 5.8 C 4.8 km/h
3139 18-12-2013 22:30:00 5.7 C 6.62 g/m*3 5.7 C 3.2 km/h
3140 18-12-2013 22:35:00 5.7 C 6.69 g/m*3 4.4 C 6.4 km/h
3141 18-12-2013 22:40:00 5.8 C 6.73 g/m*3 5.8 C 1.6 km/h
3142 18-12-2013 22:45:00 5.9 C 6.85 g/m*3 5.9 C 3.2 km/h
3143 18-12-2013 22:50:00 6.1 C 6.94 g/m*3 6.1 C 4.8 km/h
3144 18-12-2013 22:55:00 6.2 C 6.91 g/m*3 6.2 C 3.2 km/h
3145 18-12-2013 23:00:00 6.4 C 7 g/m*3 6.4 C 3.2 km/h
3146 18-12-2013 23:05:00 6.3 C 6.88 g/m*3 6.3 C 1.6 km/h
3147 18-12-2013 23:10:00 6.2 C 6.84 g/m*3 6.2 C 1.6 km/h
3148 18-12-2013 23:15:00 6.2 C 6.84 g/m*3 6.2 C 1.6 km/h
3149 18-12-2013 23:20:00 6.1 C 6.79 g/m*3 6.1 C 1.6 km/h
3150 18-12-2013 23:25:00 6.2 C 6.91 g/m*3 6.2 C 0 km/h
Sensor: Nr:Datum:Temp:Abs-Feuchte:Windchill:Wind:
Aussen-T/F 3151 18-12-2013 23:30:00 6.2 C 6.91 g/m*3 6.2 C 1.6 km/h
3152 18-12-2013 23:35:00 6.3 C 6.96 g/m*3 6.3 C 4.8 km/h
3153 18-12-2013 23:40:00 6.4 C 7 g/m*3 6.4 C 4.8 km/h
3154 18-12-2013 23:45:00 6.7 C 7.07 g/m*3 6.7 C 4.8 km/h
3155 18-12-2013 23:50:00 6.8 C 7.04 g/m*3 6.8 C 4.8 km/h
3156 18-12-2013 23:55:00 6.8 C 7.04 g/m*3 6.8 C 4.8 km/h
3157 19-12-2013 00:00:00 6.8 C 7.04 g/m*3 5.22 C 8.1 km/h
3158 19-12-2013 00:05:00 6.8 C 7.04 g/m*3 6.8 C 3.2 km/h
3159 19-12-2013 00:10:00 6.8 C 7.04 g/m*3 6.8 C 4.8 km/h
3160 19-12-2013 00:15:00 6.8 C 7.04 g/m*3 6.8 C 4.8 km/h
3161 19-12-2013 00:20:00 6.8 C 7.04 g/m*3 6.8 C 4.8 km/h
3162 19-12-2013 00:25:00 6.9 C 7.01 g/m*3 6.9 C 4.8 km/h
3163 19-12-2013 00:30:00 6.9 C 7.08 g/m*3 6.9 C 3.2 km/h
3164 19-12-2013 00:35:00 7.1 C 7.1 g/m*3 7.1 C 4.8 km/h
3165 19-12-2013 00:40:00 7.2 C 7.14 g/m*3 7.2 C 3.2 km/h
3166 19-12-2013 00:45:00 7.2 C 7.14 g/m*3 7.2 C 3.2 km/h
3167 19-12-2013 00:50:00 7.3 C 7.11 g/m*3 7.3 C 1.6 km/h
3168 19-12-2013 00:55:00 7.8 C 7.26 g/m*3 6.83 C 6.4 km/h
3169 19-12-2013 01:00:00 8.1 C 7.24 g/m*3 8.1 C 3.2 km/h
3170 19-12-2013 01:05:00 7.9 C 7.15 g/m*3 7.9 C 4.8 km/h
3171 19-12-2013 01:10:00 7.8 C 7.18 g/m*3 7.8 C 3.2 km/h
3172 19-12-2013 01:15:00 7.7 C 7.14 g/m*3 7.7 C 3.2 km/h
3173 19-12-2013 01:20:00 7.9 C 7.23 g/m*3 7.9 C 4.8 km/h
3174 19-12-2013 01:25:00 8.2 C 7.2 g/m*3 7.29 C 6.4 km/h
3175 19-12-2013 01:30:00 8.3 C 7.25 g/m*3 8.3 C 4.8 km/h
Sensor: Nr:Datum:Temp:Abs-Feuchte:Windchill:Wind:
Aussen-T/F 3176 19-12-2013 01:35:00 8.6 C 7.3 g/m*3 6.48 C 12.9 km/h
3177 19-12-2013 01:40:00 8.9 C 7.36 g/m*3 8.1 C 6.4 km/h
3178 19-12-2013 01:45:00 8.8 C 7.22 g/m*3 7.58 C 8.1 km/h
3179 19-12-2013 01:50:00 9 C 7.32 g/m*3 7.81 C 8.1 km/h
3180 19-12-2013 01:55:00 9.1 C 7.28 g/m*3 7.93 C 8.1 km/h
3181 19-12-2013 02:00:00 9.3 C 7.37 g/m*3 9.3 C 4.8 km/h
3182 19-12-2013 02:05:00 9.2 C 7.32 g/m*3 7.46 C 11.3 km/h
3183 19-12-2013 02:10:00 9.3 C 7.28 g/m*3 9.3 C 4.8 km/h
3184 19-12-2013 02:15:00 9.3 C 7.28 g/m*3 9.3 C 4.8 km/h
3185 19-12-2013 02:20:00 9.2 C 7.23 g/m*3 8.45 C 6.4 km/h
3186 19-12-2013 02:25:00 9.2 C 7.32 g/m*3 9.2 C 4.8 km/h
3187 19-12-2013 02:30:00 9.2 C 7.32 g/m*3 9.2 C 4.8 km/h
3188 19-12-2013 02:35:00 9.2 C 7.32 g/m*3 9.2 C 3.2 km/h
3189 19-12-2013 02:40:00 9.2 C 7.32 g/m*3 7.73 C 9.7 km/h
3190 19-12-2013 02:45:00 9.2 C 7.32 g/m*3 9.2 C 4.8 km/h
3191 19-12-2013 02:50:00 9 C 7.32 g/m*3 9 C 3.2 km/h
3192 19-12-2013 02:55:00 8.9 C 7.27 g/m*3 7.37 C 9.7 km/h
3193 19-12-2013 03:00:00 9.1 C 7.36 g/m*3 8.33 C 6.4 km/h
3194 19-12-2013 03:05:00 9.2 C 7.32 g/m*3 9.2 C 1.6 km/h
3195 19-12-2013 03:10:00 9.2 C 7.32 g/m*3 8.45 C 6.4 km/h
3196 19-12-2013 03:15:00 9.3 C 7.37 g/m*3 8.56 C 6.4 km/h
3197 19-12-2013 03:20:00 9.2 C 7.32 g/m*3 9.2 C 4.8 km/h
3198 19-12-2013 03:25:00 9.2 C 7.41 g/m*3 8.05 C 8.1 km/h
3199 19-12-2013 03:30:00 9.2 C 7.41 g/m*3 9.2 C 3.2 km/h
3200 19-12-2013 03:35:00 9.2 C 7.41 g/m*3 7.46 C 11.3 km/h
Sensor: Nr:Datum:Temp:Abs-Feuchte:Windchill:Wind:
Aussen-T/F 3201 19-12-2013 03:40:00 9.3 C 7.37 g/m*3 7.58 C 11.3 km/h
3202 19-12-2013 03:45:00 9.5 C 7.46 g/m*3 9.5 C 4.8 km/h
3203 19-12-2013 03:50:00 9.6 C 7.51 g/m*3 8.52 C 8.1 km/h
3204 19-12-2013 03:55:00 9.6 C 7.51 g/m*3 7.94 C 11.3 km/h
3205 19-12-2013 04:00:00 9.7 C 7.47 g/m*3 9.7 C 3.2 km/h
3206 19-12-2013 04:05:00 9.7 C 7.47 g/m*3 9.7 C 3.2 km/h
3207 19-12-2013 04:10:00 9.4 C 7.42 g/m*3 9.4 C 4.8 km/h
3208 19-12-2013 04:15:00 9 C 7.41 g/m*3 9 C 4.8 km/h
3209 19-12-2013 04:20:00 9.1 C 7.45 g/m*3 9.1 C 3.2 km/h
3210 19-12-2013 04:25:00 9.2 C 7.5 g/m*3 8.45 C 6.4 km/h
3211 19-12-2013 04:30:00 9.3 C 7.46 g/m*3 8.16 C 8.1 km/h
3212 19-12-2013 04:35:00 9.4 C 7.51 g/m*3 9.4 C 1.6 km/h
3213 19-12-2013 04:40:00 9.4 C 7.51 g/m*3 9.4 C 3.2 km/h
3214 19-12-2013 04:45:00 9.3 C 7.46 g/m*3 9.3 C 3.2 km/h
3215 19-12-2013 04:50:00 9.4 C 7.42 g/m*3 9.4 C 4.8 km/h
3216 19-12-2013 04:55:00 9.7 C 7.56 g/m*3 9.02 C 6.4 km/h
3217 19-12-2013 05:00:00 9.7 C 7.56 g/m*3 9.7 C 3.2 km/h
3218 19-12-2013 05:05:00 9.4 C 7.6 g/m*3 9.4 C 4.8 km/h
3219 19-12-2013 05:10:00 9.3 C 7.73 g/m*3 8.56 C 6.4 km/h
3220 19-12-2013 05:15:00 9.2 C 7.86 g/m*3 7.73 C 9.7 km/h
3221 19-12-2013 05:20:00 9.1 C 7.81 g/m*3 9.1 C 3.2 km/h
3222 19-12-2013 05:25:00 9.1 C 7.9 g/m*3 8.33 C 6.4 km/h
3223 19-12-2013 05:30:00 8.9 C 7.88 g/m*3 8.9 C 4.8 km/h
3224 19-12-2013 05:35:00 8.8 C 7.92 g/m*3 7.98 C 6.4 km/h
3225 19-12-2013 05:40:00 8.7 C 7.96 g/m*3 8.7 C 3.2 km/h
Sensor: Nr:Datum:Temp:Abs-Feuchte:Windchill:Wind:
Aussen-T/F 3226 19-12-2013 05:45:00 8.7 C 7.96 g/m*3 8.7 C 3.2 km/h
3227 19-12-2013 05:50:00 8.7 C 7.87 g/m*3 8.7 C 3.2 km/h
3228 19-12-2013 05:55:00 8.6 C 7.91 g/m*3 8.6 C 1.6 km/h
3229 19-12-2013 06:00:00 8.5 C 7.94 g/m*3 8.5 C 4.8 km/h
3230 19-12-2013 06:05:00 8.4 C 7.89 g/m*3 8.4 C 3.2 km/h
3231 19-12-2013 06:10:00 8.4 C 7.89 g/m*3 8.4 C 4.8 km/h
3232 19-12-2013 06:15:00 8.4 C 7.89 g/m*3 8.4 C 3.2 km/h